<?xml version="1.0" encoding="UTF-8" standalone="no" ?>
<gpx xmlns="http://www.topografix.com/GPX/1/1" creator="MapSource 6.11.6" version="1.1" xmlns:xsi="http://www.w3.org/2001/XMLSchema-instance" xsi:schemaLocation="http://www.topografix.com/GPX/1/1 http://www.topografix.com/GPX/1/1/gpx.xsd">

  <metadata>
    <link href="http://www.garmin.com">
      <text>Garmin International</text>
    </link>
    <time>2008-10-23T19:36:53Z</time>
    <bounds maxlat="50.654407" maxlon="6.494163" minlat="50.618208" minlon="6.468215"/>
  </metadata>

  <trk>
    <name>Hausen-Mariawald</name>
    <extensions>
      <gpxx:TrackExtension xmlns:gpxx="http://www.garmin.com/xmlschemas/GpxExtensions/v3" xmlns:xsi="http://www.w3.org/2001/XMLSchema-instance" xsi:schemaLocation="http://www.garmin.com/xmlschemas/GpxExtensions/v3 http://www.garmin.com/xmlschemas/GpxExtensions/v3/GpxExtensionsv3.xsd">
        <gpxx:DisplayColor>White</gpxx:DisplayColor>
      </gpxx:TrackExtension>
    </extensions>
    <trkseg>
      <trkpt lat="50.654088" lon="6.491921">
        <ele>128.954000</ele>
        <time>2008-10-23T21:40:09Z</time>
      </trkpt>
      <trkpt lat="50.654156" lon="6.491894">
        <ele>132.799000</ele>
        <time>2008-10-23T21:40:15Z</time>
      </trkpt>
      <trkpt lat="50.654163" lon="6.491893">
        <ele>136.164000</ele>
        <time>2008-10-23T21:40:16Z</time>
      </trkpt>
      <trkpt lat="50.654162" lon="6.491894">
        <ele>140.490000</ele>
        <time>2008-10-23T21:40:16Z</time>
      </trkpt>
      <trkpt lat="50.654183" lon="6.491887">
        <ele>143.854000</ele>
        <time>2008-10-23T21:40:18Z</time>
      </trkpt>
      <trkpt lat="50.654170" lon="6.491896">
        <ele>147.219000</ele>
        <time>2008-10-23T21:40:19Z</time>
      </trkpt>
      <trkpt lat="50.654163" lon="6.491903">
        <ele>151.545000</ele>
        <time>2008-10-23T21:40:20Z</time>
      </trkpt>
      <trkpt lat="50.654160" lon="6.491912">
        <ele>155.390000</ele>
        <time>2008-10-23T21:40:21Z</time>
      </trkpt>
      <trkpt lat="50.654123" lon="6.491924">
        <ele>159.235000</ele>
        <time>2008-10-23T21:40:24Z</time>
      </trkpt>
      <trkpt lat="50.654125" lon="6.491924">
        <ele>163.081000</ele>
        <time>2008-10-23T21:40:24Z</time>
      </trkpt>
      <trkpt lat="50.654123" lon="6.491935">
        <ele>166.926000</ele>
        <time>2008-10-23T21:40:25Z</time>
      </trkpt>
      <trkpt lat="50.654112" lon="6.491943">
        <ele>170.771000</ele>
        <time>2008-10-23T21:40:26Z</time>
      </trkpt>
      <trkpt lat="50.654111" lon="6.491943">
        <ele>171.252000</ele>
        <time>2008-10-23T21:40:26Z</time>
      </trkpt>
      <trkpt lat="50.654110" lon="6.491944">
        <ele>174.617000</ele>
        <time>2008-10-23T21:40:26Z</time>
      </trkpt>
      <trkpt lat="50.654110" lon="6.491944">
        <ele>177.981000</ele>
        <time>2008-10-23T21:40:26Z</time>
      </trkpt>
      <trkpt lat="50.654111" lon="6.491944">
        <ele>179.423000</ele>
        <time>2008-10-23T21:40:26Z</time>
      </trkpt>
      <trkpt lat="50.654111" lon="6.491944">
        <ele>182.307000</ele>
        <time>2008-10-23T21:40:26Z</time>
      </trkpt>
      <trkpt lat="50.654110" lon="6.491942">
        <ele>186.152000</ele>
        <time>2008-10-23T21:40:27Z</time>
      </trkpt>
      <trkpt lat="50.654122" lon="6.491938">
        <ele>186.152000</ele>
        <time>2008-10-23T21:40:28Z</time>
      </trkpt>
      <trkpt lat="50.654151" lon="6.491946">
        <ele>186.152000</ele>
        <time>2008-10-23T21:40:30Z</time>
      </trkpt>
      <trkpt lat="50.654156" lon="6.491946">
        <ele>187.114000</ele>
        <time>2008-10-23T21:40:31Z</time>
      </trkpt>
      <trkpt lat="50.654081" lon="6.492009">
        <ele>187.114000</ele>
        <time>2008-10-23T21:40:39Z</time>
      </trkpt>
      <trkpt lat="50.653960" lon="6.492185">
        <ele>188.556000</ele>
        <time>2008-10-23T21:40:54Z</time>
      </trkpt>
      <trkpt lat="50.653785" lon="6.492165">
        <ele>189.517000</ele>
        <time>2008-10-23T21:41:11Z</time>
      </trkpt>
      <trkpt lat="50.653610" lon="6.492180">
        <ele>189.517000</ele>
        <time>2008-10-23T21:41:27Z</time>
      </trkpt>
      <trkpt lat="50.653459" lon="6.492197">
        <ele>189.517000</ele>
        <time>2008-10-23T21:41:41Z</time>
      </trkpt>
      <trkpt lat="50.653258" lon="6.492302">
        <ele>189.517000</ele>
        <time>2008-10-23T21:42:01Z</time>
      </trkpt>
      <trkpt lat="50.653200" lon="6.492356">
        <ele>189.036000</ele>
        <time>2008-10-23T21:42:07Z</time>
      </trkpt>
      <trkpt lat="50.653108" lon="6.492418">
        <ele>189.517000</ele>
        <time>2008-10-23T21:42:16Z</time>
      </trkpt>
      <trkpt lat="50.652974" lon="6.492513">
        <ele>190.959000</ele>
        <time>2008-10-23T21:42:30Z</time>
      </trkpt>
      <trkpt lat="50.652955" lon="6.492508">
        <ele>190.959000</ele>
        <time>2008-10-23T21:42:32Z</time>
      </trkpt>
      <trkpt lat="50.652875" lon="6.492537">
        <ele>190.478000</ele>
        <time>2008-10-23T21:42:40Z</time>
      </trkpt>
      <trkpt lat="50.652814" lon="6.492610">
        <ele>189.998000</ele>
        <time>2008-10-23T21:42:47Z</time>
      </trkpt>
      <trkpt lat="50.652763" lon="6.492846">
        <ele>192.882000</ele>
        <time>2008-10-23T21:43:02Z</time>
      </trkpt>
      <trkpt lat="50.652711" lon="6.492910">
        <ele>192.401000</ele>
        <time>2008-10-23T21:43:08Z</time>
      </trkpt>
      <trkpt lat="50.652701" lon="6.492943">
        <ele>192.401000</ele>
        <time>2008-10-23T21:43:10Z</time>
      </trkpt>
      <trkpt lat="50.652687" lon="6.493011">
        <ele>191.920000</ele>
        <time>2008-10-23T21:43:14Z</time>
      </trkpt>
      <trkpt lat="50.652585" lon="6.493198">
        <ele>194.324000</ele>
        <time>2008-10-23T21:43:29Z</time>
      </trkpt>
      <trkpt lat="50.652532" lon="6.493219">
        <ele>195.766000</ele>
        <time>2008-10-23T21:43:34Z</time>
      </trkpt>
      <trkpt lat="50.652508" lon="6.493243">
        <ele>195.285000</ele>
        <time>2008-10-23T21:43:36Z</time>
      </trkpt>
      <trkpt lat="50.652441" lon="6.493445">
        <ele>196.246000</ele>
        <time>2008-10-23T21:43:50Z</time>
      </trkpt>
      <trkpt lat="50.652444" lon="6.493455">
        <ele>197.208000</ele>
        <time>2008-10-23T21:43:51Z</time>
      </trkpt>
      <trkpt lat="50.652494" lon="6.493641">
        <ele>197.208000</ele>
        <time>2008-10-23T21:44:03Z</time>
      </trkpt>
      <trkpt lat="50.652494" lon="6.493846">
        <ele>200.092000</ele>
        <time>2008-10-23T21:44:15Z</time>
      </trkpt>
      <trkpt lat="50.652459" lon="6.493876">
        <ele>200.092000</ele>
        <time>2008-10-23T21:44:18Z</time>
      </trkpt>
      <trkpt lat="50.652372" lon="6.493981">
        <ele>200.572000</ele>
        <time>2008-10-23T21:44:29Z</time>
      </trkpt>
      <trkpt lat="50.652216" lon="6.494113">
        <ele>201.053000</ele>
        <time>2008-10-23T21:44:45Z</time>
      </trkpt>
      <trkpt lat="50.652078" lon="6.494155">
        <ele>202.495000</ele>
        <time>2008-10-23T21:44:58Z</time>
      </trkpt>
      <trkpt lat="50.651926" lon="6.494146">
        <ele>204.417000</ele>
        <time>2008-10-23T21:45:12Z</time>
      </trkpt>
      <trkpt lat="50.651809" lon="6.494163">
        <ele>206.340000</ele>
        <time>2008-10-23T21:45:23Z</time>
      </trkpt>
      <trkpt lat="50.651766" lon="6.494160">
        <ele>205.859000</ele>
        <time>2008-10-23T21:45:27Z</time>
      </trkpt>
      <trkpt lat="50.651597" lon="6.494156">
        <ele>207.301000</ele>
        <time>2008-10-23T21:45:43Z</time>
      </trkpt>
      <trkpt lat="50.651603" lon="6.494078">
        <ele>207.782000</ele>
        <time>2008-10-23T21:45:48Z</time>
      </trkpt>
      <trkpt lat="50.651574" lon="6.493995">
        <ele>207.782000</ele>
        <time>2008-10-23T21:45:54Z</time>
      </trkpt>
      <trkpt lat="50.651632" lon="6.493796">
        <ele>209.224000</ele>
        <time>2008-10-23T21:46:06Z</time>
      </trkpt>
      <trkpt lat="50.651641" lon="6.493708">
        <ele>210.666000</ele>
        <time>2008-10-23T21:46:12Z</time>
      </trkpt>
      <trkpt lat="50.651658" lon="6.493698">
        <ele>210.666000</ele>
        <time>2008-10-23T21:46:13Z</time>
      </trkpt>
      <trkpt lat="50.651631" lon="6.493671">
        <ele>210.666000</ele>
        <time>2008-10-23T21:46:16Z</time>
      </trkpt>
      <trkpt lat="50.651578" lon="6.493538">
        <ele>211.147000</ele>
        <time>2008-10-23T21:46:26Z</time>
      </trkpt>
      <trkpt lat="50.651518" lon="6.493424">
        <ele>212.589000</ele>
        <time>2008-10-23T21:46:35Z</time>
      </trkpt>
      <trkpt lat="50.651459" lon="6.493219">
        <ele>211.147000</ele>
        <time>2008-10-23T21:46:48Z</time>
      </trkpt>
      <trkpt lat="50.651458" lon="6.493191">
        <ele>211.627000</ele>
        <time>2008-10-23T21:46:49Z</time>
      </trkpt>
      <trkpt lat="50.651406" lon="6.493067">
        <ele>212.589000</ele>
        <time>2008-10-23T21:46:58Z</time>
      </trkpt>
      <trkpt lat="50.651398" lon="6.493030">
        <ele>213.069000</ele>
        <time>2008-10-23T21:47:01Z</time>
      </trkpt>
      <trkpt lat="50.651296" lon="6.492831">
        <ele>213.069000</ele>
        <time>2008-10-23T21:47:16Z</time>
      </trkpt>
      <trkpt lat="50.651313" lon="6.492704">
        <ele>212.108000</ele>
        <time>2008-10-23T21:47:23Z</time>
      </trkpt>
      <trkpt lat="50.651215" lon="6.492544">
        <ele>213.550000</ele>
        <time>2008-10-23T21:47:37Z</time>
      </trkpt>
      <trkpt lat="50.651229" lon="6.492585">
        <ele>214.031000</ele>
        <time>2008-10-23T21:47:39Z</time>
      </trkpt>
      <trkpt lat="50.651334" lon="6.492956">
        <ele>213.069000</ele>
        <time>2008-10-23T21:48:03Z</time>
      </trkpt>
      <trkpt lat="50.651332" lon="6.493108">
        <ele>212.589000</ele>
        <time>2008-10-23T21:48:12Z</time>
      </trkpt>
      <trkpt lat="50.651377" lon="6.493372">
        <ele>213.069000</ele>
        <time>2008-10-23T21:48:29Z</time>
      </trkpt>
      <trkpt lat="50.651316" lon="6.493535">
        <ele>215.473000</ele>
        <time>2008-10-23T21:48:40Z</time>
      </trkpt>
      <trkpt lat="50.651156" lon="6.493665">
        <ele>216.434000</ele>
        <time>2008-10-23T21:48:57Z</time>
      </trkpt>
      <trkpt lat="50.650991" lon="6.493715">
        <ele>219.799000</ele>
        <time>2008-10-23T21:49:12Z</time>
      </trkpt>
      <trkpt lat="50.650957" lon="6.493728">
        <ele>219.799000</ele>
        <time>2008-10-23T21:49:16Z</time>
      </trkpt>
      <trkpt lat="50.650754" lon="6.493779">
        <ele>222.202000</ele>
        <time>2008-10-23T21:49:35Z</time>
      </trkpt>
      <trkpt lat="50.650613" lon="6.493830">
        <ele>224.125000</ele>
        <time>2008-10-23T21:49:48Z</time>
      </trkpt>
      <trkpt lat="50.650476" lon="6.493845">
        <ele>225.086000</ele>
        <time>2008-10-23T21:50:01Z</time>
      </trkpt>
      <trkpt lat="50.650467" lon="6.493768">
        <ele>226.528000</ele>
        <time>2008-10-23T21:50:06Z</time>
      </trkpt>
      <trkpt lat="50.650450" lon="6.493742">
        <ele>228.450000</ele>
        <time>2008-10-23T21:50:08Z</time>
      </trkpt>
      <trkpt lat="50.650488" lon="6.493689">
        <ele>229.412000</ele>
        <time>2008-10-23T21:50:13Z</time>
      </trkpt>
      <trkpt lat="50.650463" lon="6.493417">
        <ele>231.334000</ele>
        <time>2008-10-23T21:50:29Z</time>
      </trkpt>
      <trkpt lat="50.650465" lon="6.493337">
        <ele>231.334000</ele>
        <time>2008-10-23T21:50:34Z</time>
      </trkpt>
      <trkpt lat="50.650464" lon="6.493199">
        <ele>233.257000</ele>
        <time>2008-10-23T21:50:42Z</time>
      </trkpt>
      <trkpt lat="50.650415" lon="6.493111">
        <ele>236.141000</ele>
        <time>2008-10-23T21:50:49Z</time>
      </trkpt>
      <trkpt lat="50.650493" lon="6.492882">
        <ele>239.505000</ele>
        <time>2008-10-23T21:51:04Z</time>
      </trkpt>
      <trkpt lat="50.650542" lon="6.492791">
        <ele>239.025000</ele>
        <time>2008-10-23T21:51:11Z</time>
      </trkpt>
      <trkpt lat="50.650561" lon="6.492535">
        <ele>239.505000</ele>
        <time>2008-10-23T21:51:26Z</time>
      </trkpt>
      <trkpt lat="50.650583" lon="6.492480">
        <ele>239.505000</ele>
        <time>2008-10-23T21:51:30Z</time>
      </trkpt>
      <trkpt lat="50.650573" lon="6.492465">
        <ele>239.505000</ele>
        <time>2008-10-23T21:51:32Z</time>
      </trkpt>
      <trkpt lat="50.650561" lon="6.492431">
        <ele>243.832000</ele>
        <time>2008-10-23T21:51:34Z</time>
      </trkpt>
      <trkpt lat="50.650558" lon="6.492409">
        <ele>239.986000</ele>
        <time>2008-10-23T21:51:35Z</time>
      </trkpt>
      <trkpt lat="50.650525" lon="6.492262">
        <ele>239.025000</ele>
        <time>2008-10-23T21:51:44Z</time>
      </trkpt>
      <trkpt lat="50.650451" lon="6.492094">
        <ele>239.986000</ele>
        <time>2008-10-23T21:51:57Z</time>
      </trkpt>
      <trkpt lat="50.650433" lon="6.491952">
        <ele>240.467000</ele>
        <time>2008-10-23T21:52:05Z</time>
      </trkpt>
      <trkpt lat="50.650438" lon="6.491851">
        <ele>240.467000</ele>
        <time>2008-10-23T21:52:11Z</time>
      </trkpt>
      <trkpt lat="50.650421" lon="6.491688">
        <ele>240.467000</ele>
        <time>2008-10-23T21:52:21Z</time>
      </trkpt>
      <trkpt lat="50.650378" lon="6.491601">
        <ele>240.467000</ele>
        <time>2008-10-23T21:52:27Z</time>
      </trkpt>
      <trkpt lat="50.650358" lon="6.491416">
        <ele>239.986000</ele>
        <time>2008-10-23T21:52:39Z</time>
      </trkpt>
      <trkpt lat="50.650303" lon="6.491331">
        <ele>240.467000</ele>
        <time>2008-10-23T21:52:46Z</time>
      </trkpt>
      <trkpt lat="50.650267" lon="6.491282">
        <ele>240.467000</ele>
        <time>2008-10-23T21:52:50Z</time>
      </trkpt>
      <trkpt lat="50.650241" lon="6.491170">
        <ele>239.986000</ele>
        <time>2008-10-23T21:52:57Z</time>
      </trkpt>
      <trkpt lat="50.650201" lon="6.491060">
        <ele>239.505000</ele>
        <time>2008-10-23T21:53:05Z</time>
      </trkpt>
      <trkpt lat="50.650155" lon="6.490958">
        <ele>240.467000</ele>
        <time>2008-10-23T21:53:12Z</time>
      </trkpt>
      <trkpt lat="50.650115" lon="6.490903">
        <ele>240.467000</ele>
        <time>2008-10-23T21:53:17Z</time>
      </trkpt>
      <trkpt lat="50.650047" lon="6.490715">
        <ele>239.986000</ele>
        <time>2008-10-23T21:53:30Z</time>
      </trkpt>
      <trkpt lat="50.650019" lon="6.490607">
        <ele>239.505000</ele>
        <time>2008-10-23T21:53:37Z</time>
      </trkpt>
      <trkpt lat="50.649968" lon="6.490418">
        <ele>239.505000</ele>
        <time>2008-10-23T21:53:49Z</time>
      </trkpt>
      <trkpt lat="50.649976" lon="6.490333">
        <ele>239.025000</ele>
        <time>2008-10-23T21:53:54Z</time>
      </trkpt>
      <trkpt lat="50.649962" lon="6.490283">
        <ele>239.025000</ele>
        <time>2008-10-23T21:53:57Z</time>
      </trkpt>
      <trkpt lat="50.649958" lon="6.490158">
        <ele>239.025000</ele>
        <time>2008-10-23T21:54:05Z</time>
      </trkpt>
      <trkpt lat="50.649949" lon="6.490095">
        <ele>239.025000</ele>
        <time>2008-10-23T21:54:09Z</time>
      </trkpt>
      <trkpt lat="50.649916" lon="6.490002">
        <ele>237.583000</ele>
        <time>2008-10-23T21:54:15Z</time>
      </trkpt>
      <trkpt lat="50.649934" lon="6.489840">
        <ele>236.622000</ele>
        <time>2008-10-23T21:54:25Z</time>
      </trkpt>
      <trkpt lat="50.649873" lon="6.489589">
        <ele>236.141000</ele>
        <time>2008-10-23T21:54:41Z</time>
      </trkpt>
      <trkpt lat="50.649866" lon="6.489441">
        <ele>235.660000</ele>
        <time>2008-10-23T21:54:49Z</time>
      </trkpt>
      <trkpt lat="50.649853" lon="6.489346">
        <ele>235.660000</ele>
        <time>2008-10-23T21:54:55Z</time>
      </trkpt>
      <trkpt lat="50.649795" lon="6.489096">
        <ele>234.218000</ele>
        <time>2008-10-23T21:55:11Z</time>
      </trkpt>
      <trkpt lat="50.649804" lon="6.489059">
        <ele>233.738000</ele>
        <time>2008-10-23T21:55:13Z</time>
      </trkpt>
      <trkpt lat="50.649832" lon="6.488989">
        <ele>232.776000</ele>
        <time>2008-10-23T21:55:18Z</time>
      </trkpt>
      <trkpt lat="50.649771" lon="6.488918">
        <ele>231.815000</ele>
        <time>2008-10-23T21:55:25Z</time>
      </trkpt>
      <trkpt lat="50.649704" lon="6.488695">
        <ele>231.815000</ele>
        <time>2008-10-23T21:55:40Z</time>
      </trkpt>
      <trkpt lat="50.649641" lon="6.488534">
        <ele>231.815000</ele>
        <time>2008-10-23T21:55:51Z</time>
      </trkpt>
      <trkpt lat="50.649570" lon="6.488315">
        <ele>232.296000</ele>
        <time>2008-10-23T21:56:06Z</time>
      </trkpt>
      <trkpt lat="50.649567" lon="6.488307">
        <ele>232.296000</ele>
        <time>2008-10-23T21:56:06Z</time>
      </trkpt>
      <trkpt lat="50.649562" lon="6.488233">
        <ele>234.218000</ele>
        <time>2008-10-23T21:56:11Z</time>
      </trkpt>
      <trkpt lat="50.649490" lon="6.487972">
        <ele>232.296000</ele>
        <time>2008-10-23T21:56:27Z</time>
      </trkpt>
      <trkpt lat="50.649458" lon="6.487774">
        <ele>233.257000</ele>
        <time>2008-10-23T21:56:39Z</time>
      </trkpt>
      <trkpt lat="50.649433" lon="6.487691">
        <ele>232.296000</ele>
        <time>2008-10-23T21:56:45Z</time>
      </trkpt>
      <trkpt lat="50.649384" lon="6.487493">
        <ele>232.776000</ele>
        <time>2008-10-23T21:56:57Z</time>
      </trkpt>
      <trkpt lat="50.649376" lon="6.487438">
        <ele>232.296000</ele>
        <time>2008-10-23T21:57:01Z</time>
      </trkpt>
      <trkpt lat="50.649398" lon="6.487109">
        <ele>231.334000</ele>
        <time>2008-10-23T21:57:20Z</time>
      </trkpt>
      <trkpt lat="50.649398" lon="6.487079">
        <ele>231.815000</ele>
        <time>2008-10-23T21:57:22Z</time>
      </trkpt>
      <trkpt lat="50.649389" lon="6.486980">
        <ele>231.334000</ele>
        <time>2008-10-23T21:57:28Z</time>
      </trkpt>
      <trkpt lat="50.649404" lon="6.486942">
        <ele>231.815000</ele>
        <time>2008-10-23T21:57:31Z</time>
      </trkpt>
      <trkpt lat="50.649394" lon="6.486715">
        <ele>231.815000</ele>
        <time>2008-10-23T21:57:44Z</time>
      </trkpt>
      <trkpt lat="50.649402" lon="6.486573">
        <ele>231.334000</ele>
        <time>2008-10-23T21:57:53Z</time>
      </trkpt>
      <trkpt lat="50.649401" lon="6.486398">
        <ele>230.373000</ele>
        <time>2008-10-23T21:58:03Z</time>
      </trkpt>
      <trkpt lat="50.649367" lon="6.486085">
        <ele>229.892000</ele>
        <time>2008-10-23T21:58:22Z</time>
      </trkpt>
      <trkpt lat="50.649410" lon="6.485940">
        <ele>229.892000</ele>
        <time>2008-10-23T21:58:31Z</time>
      </trkpt>
      <trkpt lat="50.649445" lon="6.485706">
        <ele>230.373000</ele>
        <time>2008-10-23T21:58:46Z</time>
      </trkpt>
      <trkpt lat="50.649469" lon="6.485611">
        <ele>230.854000</ele>
        <time>2008-10-23T21:58:52Z</time>
      </trkpt>
      <trkpt lat="50.649437" lon="6.485431">
        <ele>231.815000</ele>
        <time>2008-10-23T21:59:03Z</time>
      </trkpt>
      <trkpt lat="50.649457" lon="6.485150">
        <ele>232.296000</ele>
        <time>2008-10-23T21:59:19Z</time>
      </trkpt>
      <trkpt lat="50.649473" lon="6.485039">
        <ele>233.257000</ele>
        <time>2008-10-23T21:59:26Z</time>
      </trkpt>
      <trkpt lat="50.649452" lon="6.484957">
        <ele>233.257000</ele>
        <time>2008-10-23T21:59:31Z</time>
      </trkpt>
      <trkpt lat="50.649462" lon="6.484787">
        <ele>233.738000</ele>
        <time>2008-10-23T21:59:41Z</time>
      </trkpt>
      <trkpt lat="50.649429" lon="6.484667">
        <ele>234.218000</ele>
        <time>2008-10-23T21:59:49Z</time>
      </trkpt>
      <trkpt lat="50.649400" lon="6.484331">
        <ele>236.141000</ele>
        <time>2008-10-23T22:00:09Z</time>
      </trkpt>
      <trkpt lat="50.649357" lon="6.484123">
        <ele>237.583000</ele>
        <time>2008-10-23T22:00:22Z</time>
      </trkpt>
      <trkpt lat="50.649347" lon="6.483993">
        <ele>238.064000</ele>
        <time>2008-10-23T22:00:30Z</time>
      </trkpt>
      <trkpt lat="50.649305" lon="6.483826">
        <ele>238.544000</ele>
        <time>2008-10-23T22:00:41Z</time>
      </trkpt>
      <trkpt lat="50.649251" lon="6.483686">
        <ele>238.544000</ele>
        <time>2008-10-23T22:00:50Z</time>
      </trkpt>
      <trkpt lat="50.649173" lon="6.483591">
        <ele>239.505000</ele>
        <time>2008-10-23T22:01:00Z</time>
      </trkpt>
      <trkpt lat="50.649138" lon="6.483556">
        <ele>239.025000</ele>
        <time>2008-10-23T22:01:03Z</time>
      </trkpt>
      <trkpt lat="50.649053" lon="6.483375">
        <ele>239.025000</ele>
        <time>2008-10-23T22:01:17Z</time>
      </trkpt>
      <trkpt lat="50.648986" lon="6.483288">
        <ele>238.544000</ele>
        <time>2008-10-23T22:01:25Z</time>
      </trkpt>
      <trkpt lat="50.648850" lon="6.483137">
        <ele>239.505000</ele>
        <time>2008-10-23T22:01:40Z</time>
      </trkpt>
      <trkpt lat="50.648674" lon="6.483088">
        <ele>238.064000</ele>
        <time>2008-10-23T22:01:57Z</time>
      </trkpt>
      <trkpt lat="50.648417" lon="6.482946">
        <ele>239.025000</ele>
        <time>2008-10-23T22:02:22Z</time>
      </trkpt>
      <trkpt lat="50.648392" lon="6.482911">
        <ele>239.505000</ele>
        <time>2008-10-23T22:02:26Z</time>
      </trkpt>
      <trkpt lat="50.648384" lon="6.482859">
        <ele>239.505000</ele>
        <time>2008-10-23T22:02:29Z</time>
      </trkpt>
      <trkpt lat="50.648385" lon="6.482784">
        <ele>240.467000</ele>
        <time>2008-10-23T22:02:33Z</time>
      </trkpt>
      <trkpt lat="50.648409" lon="6.482733">
        <ele>240.467000</ele>
        <time>2008-10-23T22:02:37Z</time>
      </trkpt>
      <trkpt lat="50.648302" lon="6.482542">
        <ele>242.390000</ele>
        <time>2008-10-23T22:02:52Z</time>
      </trkpt>
      <trkpt lat="50.648301" lon="6.482504">
        <ele>241.909000</ele>
        <time>2008-10-23T22:02:54Z</time>
      </trkpt>
      <trkpt lat="50.648171" lon="6.482281">
        <ele>243.351000</ele>
        <time>2008-10-23T22:03:12Z</time>
      </trkpt>
      <trkpt lat="50.648158" lon="6.482253">
        <ele>243.832000</ele>
        <time>2008-10-23T22:03:14Z</time>
      </trkpt>
      <trkpt lat="50.648145" lon="6.482188">
        <ele>244.312000</ele>
        <time>2008-10-23T22:03:18Z</time>
      </trkpt>
      <trkpt lat="50.647954" lon="6.482118">
        <ele>245.754000</ele>
        <time>2008-10-23T22:03:37Z</time>
      </trkpt>
      <trkpt lat="50.647932" lon="6.482104">
        <ele>245.754000</ele>
        <time>2008-10-23T22:03:39Z</time>
      </trkpt>
      <trkpt lat="50.647743" lon="6.481990">
        <ele>246.235000</ele>
        <time>2008-10-23T22:03:58Z</time>
      </trkpt>
      <trkpt lat="50.647735" lon="6.481981">
        <ele>246.235000</ele>
        <time>2008-10-23T22:03:59Z</time>
      </trkpt>
      <trkpt lat="50.647599" lon="6.481829">
        <ele>248.638000</ele>
        <time>2008-10-23T22:04:14Z</time>
      </trkpt>
      <trkpt lat="50.647448" lon="6.481668">
        <ele>249.119000</ele>
        <time>2008-10-23T22:04:31Z</time>
      </trkpt>
      <trkpt lat="50.647318" lon="6.481509">
        <ele>249.599000</ele>
        <time>2008-10-23T22:04:47Z</time>
      </trkpt>
      <trkpt lat="50.647203" lon="6.481397">
        <ele>250.561000</ele>
        <time>2008-10-23T22:04:59Z</time>
      </trkpt>
      <trkpt lat="50.647062" lon="6.481215">
        <ele>251.522000</ele>
        <time>2008-10-23T22:05:16Z</time>
      </trkpt>
      <trkpt lat="50.647038" lon="6.481201">
        <ele>251.041000</ele>
        <time>2008-10-23T22:05:19Z</time>
      </trkpt>
      <trkpt lat="50.646910" lon="6.481003">
        <ele>252.003000</ele>
        <time>2008-10-23T22:05:35Z</time>
      </trkpt>
      <trkpt lat="50.646666" lon="6.480847">
        <ele>253.925000</ele>
        <time>2008-10-23T22:06:00Z</time>
      </trkpt>
      <trkpt lat="50.646551" lon="6.480770">
        <ele>255.367000</ele>
        <time>2008-10-23T22:06:12Z</time>
      </trkpt>
      <trkpt lat="50.646432" lon="6.480700">
        <ele>256.329000</ele>
        <time>2008-10-23T22:06:23Z</time>
      </trkpt>
      <trkpt lat="50.646413" lon="6.480693">
        <ele>256.809000</ele>
        <time>2008-10-23T22:06:25Z</time>
      </trkpt>
      <trkpt lat="50.646363" lon="6.480622">
        <ele>257.290000</ele>
        <time>2008-10-23T22:06:32Z</time>
      </trkpt>
      <trkpt lat="50.646211" lon="6.480594">
        <ele>259.213000</ele>
        <time>2008-10-23T22:06:46Z</time>
      </trkpt>
      <trkpt lat="50.646163" lon="6.480570">
        <ele>259.213000</ele>
        <time>2008-10-23T22:06:51Z</time>
      </trkpt>
      <trkpt lat="50.646048" lon="6.480599">
        <ele>260.174000</ele>
        <time>2008-10-23T22:07:01Z</time>
      </trkpt>
      <trkpt lat="50.646010" lon="6.480775">
        <ele>261.616000</ele>
        <time>2008-10-23T22:07:12Z</time>
      </trkpt>
      <trkpt lat="50.646011" lon="6.480928">
        <ele>262.097000</ele>
        <time>2008-10-23T22:07:22Z</time>
      </trkpt>
      <trkpt lat="50.646066" lon="6.481186">
        <ele>263.539000</ele>
        <time>2008-10-23T22:07:38Z</time>
      </trkpt>
      <trkpt lat="50.646075" lon="6.481223">
        <ele>264.981000</ele>
        <time>2008-10-23T22:07:40Z</time>
      </trkpt>
      <trkpt lat="50.646104" lon="6.481325">
        <ele>266.422000</ele>
        <time>2008-10-23T22:07:47Z</time>
      </trkpt>
      <trkpt lat="50.646135" lon="6.481590">
        <ele>268.345000</ele>
        <time>2008-10-23T22:08:03Z</time>
      </trkpt>
      <trkpt lat="50.646146" lon="6.481744">
        <ele>270.268000</ele>
        <time>2008-10-23T22:08:12Z</time>
      </trkpt>
      <trkpt lat="50.646126" lon="6.481940">
        <ele>271.710000</ele>
        <time>2008-10-23T22:08:23Z</time>
      </trkpt>
      <trkpt lat="50.645956" lon="6.482120">
        <ele>272.190000</ele>
        <time>2008-10-23T22:08:43Z</time>
      </trkpt>
      <trkpt lat="50.645876" lon="6.482247">
        <ele>273.152000</ele>
        <time>2008-10-23T22:08:53Z</time>
      </trkpt>
      <trkpt lat="50.645805" lon="6.482361">
        <ele>272.671000</ele>
        <time>2008-10-23T22:09:03Z</time>
      </trkpt>
      <trkpt lat="50.645728" lon="6.482529">
        <ele>273.632000</ele>
        <time>2008-10-23T22:09:15Z</time>
      </trkpt>
      <trkpt lat="50.645687" lon="6.482660">
        <ele>274.113000</ele>
        <time>2008-10-23T22:09:24Z</time>
      </trkpt>
      <trkpt lat="50.645613" lon="6.482970">
        <ele>275.555000</ele>
        <time>2008-10-23T22:09:43Z</time>
      </trkpt>
      <trkpt lat="50.645600" lon="6.483026">
        <ele>276.516000</ele>
        <time>2008-10-23T22:09:47Z</time>
      </trkpt>
      <trkpt lat="50.645588" lon="6.483088">
        <ele>276.997000</ele>
        <time>2008-10-23T22:09:51Z</time>
      </trkpt>
      <trkpt lat="50.645608" lon="6.483285">
        <ele>278.439000</ele>
        <time>2008-10-23T22:10:02Z</time>
      </trkpt>
      <trkpt lat="50.645639" lon="6.483553">
        <ele>280.362000</ele>
        <time>2008-10-23T22:10:19Z</time>
      </trkpt>
      <trkpt lat="50.645643" lon="6.483567">
        <ele>279.881000</ele>
        <time>2008-10-23T22:10:19Z</time>
      </trkpt>
      <trkpt lat="50.645695" lon="6.483747">
        <ele>281.323000</ele>
        <time>2008-10-23T22:10:31Z</time>
      </trkpt>
      <trkpt lat="50.645713" lon="6.483818">
        <ele>281.804000</ele>
        <time>2008-10-23T22:10:36Z</time>
      </trkpt>
      <trkpt lat="50.645807" lon="6.484104">
        <ele>283.726000</ele>
        <time>2008-10-23T22:10:55Z</time>
      </trkpt>
      <trkpt lat="50.645855" lon="6.484269">
        <ele>283.726000</ele>
        <time>2008-10-23T22:11:05Z</time>
      </trkpt>
      <trkpt lat="50.645925" lon="6.484530">
        <ele>285.649000</ele>
        <time>2008-10-23T22:11:22Z</time>
      </trkpt>
      <trkpt lat="50.645954" lon="6.484593">
        <ele>285.649000</ele>
        <time>2008-10-23T22:11:27Z</time>
      </trkpt>
      <trkpt lat="50.645977" lon="6.484649">
        <ele>285.649000</ele>
        <time>2008-10-23T22:11:31Z</time>
      </trkpt>
      <trkpt lat="50.645977" lon="6.484772">
        <ele>287.571000</ele>
        <time>2008-10-23T22:11:38Z</time>
      </trkpt>
      <trkpt lat="50.645970" lon="6.484970">
        <ele>288.052000</ele>
        <time>2008-10-23T22:11:50Z</time>
      </trkpt>
      <trkpt lat="50.646012" lon="6.485517">
        <ele>291.417000</ele>
        <time>2008-10-23T22:12:22Z</time>
      </trkpt>
      <trkpt lat="50.645934" lon="6.485831">
        <ele>292.859000</ele>
        <time>2008-10-23T22:12:42Z</time>
      </trkpt>
      <trkpt lat="50.645837" lon="6.486210">
        <ele>294.301000</ele>
        <time>2008-10-23T22:13:07Z</time>
      </trkpt>
      <trkpt lat="50.645720" lon="6.486595">
        <ele>297.665000</ele>
        <time>2008-10-23T22:13:32Z</time>
      </trkpt>
      <trkpt lat="50.645608" lon="6.486536">
        <ele>300.549000</ele>
        <time>2008-10-23T22:13:43Z</time>
      </trkpt>
      <trkpt lat="50.645451" lon="6.486256">
        <ele>303.433000</ele>
        <time>2008-10-23T22:14:05Z</time>
      </trkpt>
      <trkpt lat="50.645276" lon="6.486153">
        <ele>304.395000</ele>
        <time>2008-10-23T22:14:22Z</time>
      </trkpt>
      <trkpt lat="50.645207" lon="6.486103">
        <ele>305.356000</ele>
        <time>2008-10-23T22:14:30Z</time>
      </trkpt>
      <trkpt lat="50.645204" lon="6.486053">
        <ele>305.837000</ele>
        <time>2008-10-23T22:14:33Z</time>
      </trkpt>
      <trkpt lat="50.645107" lon="6.486018">
        <ele>306.317000</ele>
        <time>2008-10-23T22:14:42Z</time>
      </trkpt>
      <trkpt lat="50.645045" lon="6.485838">
        <ele>308.240000</ele>
        <time>2008-10-23T22:14:54Z</time>
      </trkpt>
      <trkpt lat="50.644956" lon="6.485701">
        <ele>309.201000</ele>
        <time>2008-10-23T22:15:06Z</time>
      </trkpt>
      <trkpt lat="50.644843" lon="6.485668">
        <ele>310.162000</ele>
        <time>2008-10-23T22:15:16Z</time>
      </trkpt>
      <trkpt lat="50.644714" lon="6.485518">
        <ele>311.604000</ele>
        <time>2008-10-23T22:15:31Z</time>
      </trkpt>
      <trkpt lat="50.644598" lon="6.485465">
        <ele>313.527000</ele>
        <time>2008-10-23T22:15:43Z</time>
      </trkpt>
      <trkpt lat="50.644548" lon="6.485474">
        <ele>314.488000</ele>
        <time>2008-10-23T22:15:47Z</time>
      </trkpt>
      <trkpt lat="50.644538" lon="6.485477">
        <ele>314.969000</ele>
        <time>2008-10-23T22:15:48Z</time>
      </trkpt>
      <trkpt lat="50.644399" lon="6.485467">
        <ele>315.450000</ele>
        <time>2008-10-23T22:16:01Z</time>
      </trkpt>
      <trkpt lat="50.644188" lon="6.485554">
        <ele>318.814000</ele>
        <time>2008-10-23T22:16:22Z</time>
      </trkpt>
      <trkpt lat="50.643980" lon="6.485694">
        <ele>320.737000</ele>
        <time>2008-10-23T22:16:43Z</time>
      </trkpt>
      <trkpt lat="50.643869" lon="6.485570">
        <ele>321.218000</ele>
        <time>2008-10-23T22:16:55Z</time>
      </trkpt>
      <trkpt lat="50.643766" lon="6.485195">
        <ele>322.179000</ele>
        <time>2008-10-23T22:17:20Z</time>
      </trkpt>
      <trkpt lat="50.643671" lon="6.484881">
        <ele>322.179000</ele>
        <time>2008-10-23T22:17:40Z</time>
      </trkpt>
      <trkpt lat="50.643552" lon="6.484730">
        <ele>322.179000</ele>
        <time>2008-10-23T22:17:54Z</time>
      </trkpt>
      <trkpt lat="50.643433" lon="6.484654">
        <ele>323.140000</ele>
        <time>2008-10-23T22:18:06Z</time>
      </trkpt>
      <trkpt lat="50.643306" lon="6.484531">
        <ele>324.582000</ele>
        <time>2008-10-23T22:18:20Z</time>
      </trkpt>
      <trkpt lat="50.643200" lon="6.484358">
        <ele>326.505000</ele>
        <time>2008-10-23T22:18:35Z</time>
      </trkpt>
      <trkpt lat="50.642923" lon="6.484214">
        <ele>330.350000</ele>
        <time>2008-10-23T22:19:02Z</time>
      </trkpt>
      <trkpt lat="50.642910" lon="6.484265">
        <ele>331.312000</ele>
        <time>2008-10-23T22:19:05Z</time>
      </trkpt>
      <trkpt lat="50.642870" lon="6.484395">
        <ele>334.195000</ele>
        <time>2008-10-23T22:19:14Z</time>
      </trkpt>
      <trkpt lat="50.643151" lon="6.485007">
        <ele>337.079000</ele>
        <time>2008-10-23T22:19:58Z</time>
      </trkpt>
      <trkpt lat="50.643150" lon="6.485050">
        <ele>337.079000</ele>
        <time>2008-10-23T22:20:01Z</time>
      </trkpt>
      <trkpt lat="50.643276" lon="6.485302">
        <ele>340.444000</ele>
        <time>2008-10-23T22:20:20Z</time>
      </trkpt>
      <trkpt lat="50.643216" lon="6.485658">
        <ele>341.405000</ele>
        <time>2008-10-23T22:20:42Z</time>
      </trkpt>
      <trkpt lat="50.643227" lon="6.485702">
        <ele>341.405000</ele>
        <time>2008-10-23T22:20:45Z</time>
      </trkpt>
      <trkpt lat="50.643207" lon="6.485967">
        <ele>341.886000</ele>
        <time>2008-10-23T22:21:00Z</time>
      </trkpt>
      <trkpt lat="50.643450" lon="6.486281">
        <ele>344.289000</ele>
        <time>2008-10-23T22:21:30Z</time>
      </trkpt>
      <trkpt lat="50.643603" lon="6.486433">
        <ele>345.731000</ele>
        <time>2008-10-23T22:21:47Z</time>
      </trkpt>
      <trkpt lat="50.643681" lon="6.486652">
        <ele>346.693000</ele>
        <time>2008-10-23T22:22:01Z</time>
      </trkpt>
      <trkpt lat="50.643703" lon="6.487087">
        <ele>347.654000</ele>
        <time>2008-10-23T22:22:27Z</time>
      </trkpt>
      <trkpt lat="50.643680" lon="6.487255">
        <ele>348.135000</ele>
        <time>2008-10-23T22:22:37Z</time>
      </trkpt>
      <trkpt lat="50.643614" lon="6.487505">
        <ele>349.096000</ele>
        <time>2008-10-23T22:22:53Z</time>
      </trkpt>
      <trkpt lat="50.643561" lon="6.487715">
        <ele>350.538000</ele>
        <time>2008-10-23T22:23:07Z</time>
      </trkpt>
      <trkpt lat="50.643552" lon="6.487914">
        <ele>350.538000</ele>
        <time>2008-10-23T22:23:19Z</time>
      </trkpt>
      <trkpt lat="50.643505" lon="6.488015">
        <ele>351.018000</ele>
        <time>2008-10-23T22:23:26Z</time>
      </trkpt>
      <trkpt lat="50.643482" lon="6.488065">
        <ele>351.499000</ele>
        <time>2008-10-23T22:23:30Z</time>
      </trkpt>
      <trkpt lat="50.643422" lon="6.488280">
        <ele>351.018000</ele>
        <time>2008-10-23T22:23:44Z</time>
      </trkpt>
      <trkpt lat="50.643387" lon="6.488417">
        <ele>351.980000</ele>
        <time>2008-10-23T22:23:52Z</time>
      </trkpt>
      <trkpt lat="50.643327" lon="6.488554">
        <ele>352.461000</ele>
        <time>2008-10-23T22:24:02Z</time>
      </trkpt>
      <trkpt lat="50.643218" lon="6.488677">
        <ele>352.461000</ele>
        <time>2008-10-23T22:24:15Z</time>
      </trkpt>
      <trkpt lat="50.643234" lon="6.488842">
        <ele>354.383000</ele>
        <time>2008-10-23T22:24:25Z</time>
      </trkpt>
      <trkpt lat="50.643169" lon="6.489028">
        <ele>355.825000</ele>
        <time>2008-10-23T22:24:37Z</time>
      </trkpt>
      <trkpt lat="50.643269" lon="6.489302">
        <ele>357.748000</ele>
        <time>2008-10-23T22:24:56Z</time>
      </trkpt>
      <trkpt lat="50.643374" lon="6.489754">
        <ele>360.151000</ele>
        <time>2008-10-23T22:25:24Z</time>
      </trkpt>
      <trkpt lat="50.643407" lon="6.490107">
        <ele>361.593000</ele>
        <time>2008-10-23T22:25:46Z</time>
      </trkpt>
      <trkpt lat="50.643403" lon="6.490370">
        <ele>363.516000</ele>
        <time>2008-10-23T22:26:01Z</time>
      </trkpt>
      <trkpt lat="50.643385" lon="6.490637">
        <ele>365.438000</ele>
        <time>2008-10-23T22:26:17Z</time>
      </trkpt>
      <trkpt lat="50.643373" lon="6.490777">
        <ele>368.322000</ele>
        <time>2008-10-23T22:26:25Z</time>
      </trkpt>
      <trkpt lat="50.643378" lon="6.490806">
        <ele>368.803000</ele>
        <time>2008-10-23T22:26:27Z</time>
      </trkpt>
      <trkpt lat="50.643506" lon="6.491200">
        <ele>369.764000</ele>
        <time>2008-10-23T22:26:53Z</time>
      </trkpt>
      <trkpt lat="50.643490" lon="6.491467">
        <ele>372.167000</ele>
        <time>2008-10-23T22:27:09Z</time>
      </trkpt>
      <trkpt lat="50.643435" lon="6.491747">
        <ele>372.648000</ele>
        <time>2008-10-23T22:27:27Z</time>
      </trkpt>
      <trkpt lat="50.643405" lon="6.491814">
        <ele>373.129000</ele>
        <time>2008-10-23T22:27:31Z</time>
      </trkpt>
      <trkpt lat="50.643313" lon="6.491873">
        <ele>372.648000</ele>
        <time>2008-10-23T22:27:41Z</time>
      </trkpt>
      <trkpt lat="50.643170" lon="6.491963">
        <ele>372.648000</ele>
        <time>2008-10-23T22:27:55Z</time>
      </trkpt>
      <trkpt lat="50.643038" lon="6.492026">
        <ele>372.167000</ele>
        <time>2008-10-23T22:28:08Z</time>
      </trkpt>
      <trkpt lat="50.643002" lon="6.492016">
        <ele>371.206000</ele>
        <time>2008-10-23T22:28:11Z</time>
      </trkpt>
      <trkpt lat="50.642924" lon="6.492071">
        <ele>371.206000</ele>
        <time>2008-10-23T22:28:19Z</time>
      </trkpt>
      <trkpt lat="50.642792" lon="6.492104">
        <ele>371.206000</ele>
        <time>2008-10-23T22:28:32Z</time>
      </trkpt>
      <trkpt lat="50.642639" lon="6.492152">
        <ele>371.687000</ele>
        <time>2008-10-23T22:28:46Z</time>
      </trkpt>
      <trkpt lat="50.642505" lon="6.492207">
        <ele>371.206000</ele>
        <time>2008-10-23T22:28:59Z</time>
      </trkpt>
      <trkpt lat="50.642347" lon="6.492255">
        <ele>370.726000</ele>
        <time>2008-10-23T22:29:14Z</time>
      </trkpt>
      <trkpt lat="50.642304" lon="6.492265">
        <ele>370.726000</ele>
        <time>2008-10-23T22:29:18Z</time>
      </trkpt>
      <trkpt lat="50.641902" lon="6.492363">
        <ele>372.648000</ele>
        <time>2008-10-23T22:29:56Z</time>
      </trkpt>
      <trkpt lat="50.641771" lon="6.492370">
        <ele>371.687000</ele>
        <time>2008-10-23T22:30:09Z</time>
      </trkpt>
      <trkpt lat="50.641564" lon="6.492472">
        <ele>372.648000</ele>
        <time>2008-10-23T22:30:29Z</time>
      </trkpt>
      <trkpt lat="50.641418" lon="6.492545">
        <ele>372.167000</ele>
        <time>2008-10-23T22:30:43Z</time>
      </trkpt>
      <trkpt lat="50.641286" lon="6.492610">
        <ele>373.129000</ele>
        <time>2008-10-23T22:30:56Z</time>
      </trkpt>
      <trkpt lat="50.641059" lon="6.492681">
        <ele>374.571000</ele>
        <time>2008-10-23T22:31:18Z</time>
      </trkpt>
      <trkpt lat="50.640907" lon="6.492740">
        <ele>375.532000</ele>
        <time>2008-10-23T22:31:32Z</time>
      </trkpt>
      <trkpt lat="50.640740" lon="6.492709">
        <ele>375.052000</ele>
        <time>2008-10-23T22:31:48Z</time>
      </trkpt>
      <trkpt lat="50.640679" lon="6.492693">
        <ele>375.052000</ele>
        <time>2008-10-23T22:31:54Z</time>
      </trkpt>
      <trkpt lat="50.640391" lon="6.492679">
        <ele>374.571000</ele>
        <time>2008-10-23T22:32:21Z</time>
      </trkpt>
      <trkpt lat="50.640232" lon="6.492708">
        <ele>374.090000</ele>
        <time>2008-10-23T22:32:36Z</time>
      </trkpt>
      <trkpt lat="50.639801" lon="6.492684">
        <ele>374.571000</ele>
        <time>2008-10-23T22:33:16Z</time>
      </trkpt>
      <trkpt lat="50.639449" lon="6.492697">
        <ele>373.609000</ele>
        <time>2008-10-23T22:33:49Z</time>
      </trkpt>
      <trkpt lat="50.639229" lon="6.492706">
        <ele>373.609000</ele>
        <time>2008-10-23T22:34:09Z</time>
      </trkpt>
      <trkpt lat="50.638956" lon="6.492719">
        <ele>371.206000</ele>
        <time>2008-10-23T22:34:35Z</time>
      </trkpt>
      <trkpt lat="50.638795" lon="6.492730">
        <ele>368.322000</ele>
        <time>2008-10-23T22:34:50Z</time>
      </trkpt>
      <trkpt lat="50.638496" lon="6.492789">
        <ele>367.361000</ele>
        <time>2008-10-23T22:35:18Z</time>
      </trkpt>
      <trkpt lat="50.638312" lon="6.492852">
        <ele>364.477000</ele>
        <time>2008-10-23T22:35:36Z</time>
      </trkpt>
      <trkpt lat="50.638091" lon="6.492945">
        <ele>362.074000</ele>
        <time>2008-10-23T22:35:57Z</time>
      </trkpt>
      <trkpt lat="50.638022" lon="6.492960">
        <ele>361.593000</ele>
        <time>2008-10-23T22:36:04Z</time>
      </trkpt>
      <trkpt lat="50.637862" lon="6.493050">
        <ele>360.151000</ele>
        <time>2008-10-23T22:36:19Z</time>
      </trkpt>
      <trkpt lat="50.637486" lon="6.493104">
        <ele>360.151000</ele>
        <time>2008-10-23T22:36:55Z</time>
      </trkpt>
      <trkpt lat="50.637351" lon="6.492882">
        <ele>358.709000</ele>
        <time>2008-10-23T22:37:13Z</time>
      </trkpt>
      <trkpt lat="50.637234" lon="6.492615">
        <ele>358.709000</ele>
        <time>2008-10-23T22:37:32Z</time>
      </trkpt>
      <trkpt lat="50.637232" lon="6.492564">
        <ele>357.748000</ele>
        <time>2008-10-23T22:37:35Z</time>
      </trkpt>
      <trkpt lat="50.637211" lon="6.492456">
        <ele>357.267000</ele>
        <time>2008-10-23T22:37:42Z</time>
      </trkpt>
      <trkpt lat="50.637142" lon="6.492298">
        <ele>356.786000</ele>
        <time>2008-10-23T22:37:53Z</time>
      </trkpt>
      <trkpt lat="50.637020" lon="6.492093">
        <ele>356.306000</ele>
        <time>2008-10-23T22:38:10Z</time>
      </trkpt>
      <trkpt lat="50.636977" lon="6.491875">
        <ele>356.306000</ele>
        <time>2008-10-23T22:38:23Z</time>
      </trkpt>
      <trkpt lat="50.636962" lon="6.491570">
        <ele>356.306000</ele>
        <time>2008-10-23T22:38:41Z</time>
      </trkpt>
      <trkpt lat="50.637026" lon="6.491420">
        <ele>356.306000</ele>
        <time>2008-10-23T22:38:52Z</time>
      </trkpt>
      <trkpt lat="50.637064" lon="6.491276">
        <ele>356.306000</ele>
        <time>2008-10-23T22:39:01Z</time>
      </trkpt>
      <trkpt lat="50.637068" lon="6.491142">
        <ele>355.344000</ele>
        <time>2008-10-23T22:39:09Z</time>
      </trkpt>
      <trkpt lat="50.637018" lon="6.490828">
        <ele>352.941000</ele>
        <time>2008-10-23T22:39:28Z</time>
      </trkpt>
      <trkpt lat="50.637029" lon="6.490518">
        <ele>352.461000</ele>
        <time>2008-10-23T22:39:47Z</time>
      </trkpt>
      <trkpt lat="50.637091" lon="6.490016">
        <ele>351.980000</ele>
        <time>2008-10-23T22:40:17Z</time>
      </trkpt>
      <trkpt lat="50.637074" lon="6.489887">
        <ele>352.461000</ele>
        <time>2008-10-23T22:40:25Z</time>
      </trkpt>
      <trkpt lat="50.637146" lon="6.489566">
        <ele>351.499000</ele>
        <time>2008-10-23T22:40:45Z</time>
      </trkpt>
      <trkpt lat="50.637136" lon="6.489396">
        <ele>351.499000</ele>
        <time>2008-10-23T22:40:55Z</time>
      </trkpt>
      <trkpt lat="50.637157" lon="6.489132">
        <ele>350.538000</ele>
        <time>2008-10-23T22:41:11Z</time>
      </trkpt>
      <trkpt lat="50.637156" lon="6.488975">
        <ele>350.057000</ele>
        <time>2008-10-23T22:41:20Z</time>
      </trkpt>
      <trkpt lat="50.637182" lon="6.488724">
        <ele>349.096000</ele>
        <time>2008-10-23T22:41:35Z</time>
      </trkpt>
      <trkpt lat="50.637212" lon="6.488528">
        <ele>347.654000</ele>
        <time>2008-10-23T22:41:47Z</time>
      </trkpt>
      <trkpt lat="50.637320" lon="6.487939">
        <ele>346.693000</ele>
        <time>2008-10-23T22:42:24Z</time>
      </trkpt>
      <trkpt lat="50.637318" lon="6.487919">
        <ele>346.693000</ele>
        <time>2008-10-23T22:42:25Z</time>
      </trkpt>
      <trkpt lat="50.637284" lon="6.487793">
        <ele>345.731000</ele>
        <time>2008-10-23T22:42:33Z</time>
      </trkpt>
      <trkpt lat="50.637267" lon="6.487493">
        <ele>345.731000</ele>
        <time>2008-10-23T22:42:51Z</time>
      </trkpt>
      <trkpt lat="50.637209" lon="6.487432">
        <ele>345.251000</ele>
        <time>2008-10-23T22:42:57Z</time>
      </trkpt>
      <trkpt lat="50.637150" lon="6.487247">
        <ele>345.731000</ele>
        <time>2008-10-23T22:43:09Z</time>
      </trkpt>
      <trkpt lat="50.637053" lon="6.486889">
        <ele>344.770000</ele>
        <time>2008-10-23T22:43:33Z</time>
      </trkpt>
      <trkpt lat="50.636804" lon="6.486573">
        <ele>343.809000</ele>
        <time>2008-10-23T22:44:02Z</time>
      </trkpt>
      <trkpt lat="50.636606" lon="6.486356">
        <ele>343.809000</ele>
        <time>2008-10-23T22:44:25Z</time>
      </trkpt>
      <trkpt lat="50.636540" lon="6.486227">
        <ele>344.770000</ele>
        <time>2008-10-23T22:44:35Z</time>
      </trkpt>
      <trkpt lat="50.636482" lon="6.486061">
        <ele>344.289000</ele>
        <time>2008-10-23T22:44:46Z</time>
      </trkpt>
      <trkpt lat="50.636582" lon="6.485643">
        <ele>344.289000</ele>
        <time>2008-10-23T22:45:12Z</time>
      </trkpt>
      <trkpt lat="50.636607" lon="6.485556">
        <ele>344.289000</ele>
        <time>2008-10-23T22:45:18Z</time>
      </trkpt>
      <trkpt lat="50.636625" lon="6.485238">
        <ele>343.809000</ele>
        <time>2008-10-23T22:45:37Z</time>
      </trkpt>
      <trkpt lat="50.636628" lon="6.484988">
        <ele>343.328000</ele>
        <time>2008-10-23T22:45:52Z</time>
      </trkpt>
      <trkpt lat="50.636717" lon="6.484582">
        <ele>341.886000</ele>
        <time>2008-10-23T22:46:17Z</time>
      </trkpt>
      <trkpt lat="50.636725" lon="6.484265">
        <ele>340.444000</ele>
        <time>2008-10-23T22:46:36Z</time>
      </trkpt>
      <trkpt lat="50.636725" lon="6.484014">
        <ele>339.002000</ele>
        <time>2008-10-23T22:46:51Z</time>
      </trkpt>
      <trkpt lat="50.636673" lon="6.483758">
        <ele>337.560000</ele>
        <time>2008-10-23T22:47:07Z</time>
      </trkpt>
      <trkpt lat="50.636680" lon="6.483624">
        <ele>337.079000</ele>
        <time>2008-10-23T22:47:15Z</time>
      </trkpt>
      <trkpt lat="50.636719" lon="6.483296">
        <ele>334.195000</ele>
        <time>2008-10-23T22:47:34Z</time>
      </trkpt>
      <trkpt lat="50.636793" lon="6.483119">
        <ele>333.715000</ele>
        <time>2008-10-23T22:47:47Z</time>
      </trkpt>
      <trkpt lat="50.636813" lon="6.483051">
        <ele>333.715000</ele>
        <time>2008-10-23T22:47:51Z</time>
      </trkpt>
      <trkpt lat="50.636820" lon="6.482690">
        <ele>330.831000</ele>
        <time>2008-10-23T22:48:13Z</time>
      </trkpt>
      <trkpt lat="50.636853" lon="6.482629">
        <ele>330.831000</ele>
        <time>2008-10-23T22:48:18Z</time>
      </trkpt>
      <trkpt lat="50.636879" lon="6.482441">
        <ele>330.831000</ele>
        <time>2008-10-23T22:48:29Z</time>
      </trkpt>
      <trkpt lat="50.636898" lon="6.482349">
        <ele>330.831000</ele>
        <time>2008-10-23T22:48:35Z</time>
      </trkpt>
      <trkpt lat="50.636893" lon="6.482124">
        <ele>330.350000</ele>
        <time>2008-10-23T22:48:48Z</time>
      </trkpt>
      <trkpt lat="50.636871" lon="6.482034">
        <ele>329.389000</ele>
        <time>2008-10-23T22:48:54Z</time>
      </trkpt>
      <trkpt lat="50.636888" lon="6.481912">
        <ele>328.428000</ele>
        <time>2008-10-23T22:49:01Z</time>
      </trkpt>
      <trkpt lat="50.636911" lon="6.481700">
        <ele>327.947000</ele>
        <time>2008-10-23T22:49:14Z</time>
      </trkpt>
      <trkpt lat="50.636888" lon="6.481413">
        <ele>326.986000</ele>
        <time>2008-10-23T22:49:31Z</time>
      </trkpt>
      <trkpt lat="50.636887" lon="6.481248">
        <ele>326.505000</ele>
        <time>2008-10-23T22:49:41Z</time>
      </trkpt>
      <trkpt lat="50.636955" lon="6.480957">
        <ele>326.505000</ele>
        <time>2008-10-23T22:49:59Z</time>
      </trkpt>
      <trkpt lat="50.636974" lon="6.480690">
        <ele>326.024000</ele>
        <time>2008-10-23T22:50:15Z</time>
      </trkpt>
      <trkpt lat="50.637018" lon="6.480394">
        <ele>325.063000</ele>
        <time>2008-10-23T22:50:33Z</time>
      </trkpt>
      <trkpt lat="50.637017" lon="6.480165">
        <ele>324.582000</ele>
        <time>2008-10-23T22:50:47Z</time>
      </trkpt>
      <trkpt lat="50.637011" lon="6.479988">
        <ele>322.660000</ele>
        <time>2008-10-23T22:50:57Z</time>
      </trkpt>
      <trkpt lat="50.637000" lon="6.479969">
        <ele>322.660000</ele>
        <time>2008-10-23T22:50:59Z</time>
      </trkpt>
      <trkpt lat="50.636911" lon="6.479700">
        <ele>319.776000</ele>
        <time>2008-10-23T22:51:17Z</time>
      </trkpt>
      <trkpt lat="50.636890" lon="6.479443">
        <ele>317.853000</ele>
        <time>2008-10-23T22:51:32Z</time>
      </trkpt>
      <trkpt lat="50.636848" lon="6.479401">
        <ele>316.411000</ele>
        <time>2008-10-23T22:51:37Z</time>
      </trkpt>
      <trkpt lat="50.636811" lon="6.479149">
        <ele>313.047000</ele>
        <time>2008-10-23T22:51:52Z</time>
      </trkpt>
      <trkpt lat="50.636854" lon="6.479072">
        <ele>313.527000</ele>
        <time>2008-10-23T22:51:58Z</time>
      </trkpt>
      <trkpt lat="50.637003" lon="6.478897">
        <ele>311.604000</ele>
        <time>2008-10-23T22:52:15Z</time>
      </trkpt>
      <trkpt lat="50.637155" lon="6.478782">
        <ele>309.201000</ele>
        <time>2008-10-23T22:52:31Z</time>
      </trkpt>
      <trkpt lat="50.637265" lon="6.478599">
        <ele>308.240000</ele>
        <time>2008-10-23T22:52:46Z</time>
      </trkpt>
      <trkpt lat="50.637356" lon="6.478307">
        <ele>306.317000</ele>
        <time>2008-10-23T22:53:05Z</time>
      </trkpt>
      <trkpt lat="50.637486" lon="6.478163">
        <ele>306.317000</ele>
        <time>2008-10-23T22:53:20Z</time>
      </trkpt>
      <trkpt lat="50.637643" lon="6.477920">
        <ele>304.875000</ele>
        <time>2008-10-23T22:53:41Z</time>
      </trkpt>
      <trkpt lat="50.637782" lon="6.477654">
        <ele>304.875000</ele>
        <time>2008-10-23T22:54:01Z</time>
      </trkpt>
      <trkpt lat="50.637799" lon="6.477581">
        <ele>304.395000</ele>
        <time>2008-10-23T22:54:06Z</time>
      </trkpt>
      <trkpt lat="50.637814" lon="6.477545">
        <ele>304.395000</ele>
        <time>2008-10-23T22:54:08Z</time>
      </trkpt>
      <trkpt lat="50.637870" lon="6.477382">
        <ele>302.953000</ele>
        <time>2008-10-23T22:54:19Z</time>
      </trkpt>
      <trkpt lat="50.637970" lon="6.477197">
        <ele>301.511000</ele>
        <time>2008-10-23T22:54:34Z</time>
      </trkpt>
      <trkpt lat="50.638078" lon="6.477156">
        <ele>299.107000</ele>
        <time>2008-10-23T22:54:44Z</time>
      </trkpt>
      <trkpt lat="50.638152" lon="6.477164">
        <ele>300.069000</ele>
        <time>2008-10-23T22:54:51Z</time>
      </trkpt>
      <trkpt lat="50.638314" lon="6.477145">
        <ele>298.627000</ele>
        <time>2008-10-23T22:55:06Z</time>
      </trkpt>
      <trkpt lat="50.638379" lon="6.477093">
        <ele>298.146000</ele>
        <time>2008-10-23T22:55:13Z</time>
      </trkpt>
      <trkpt lat="50.638459" lon="6.476989">
        <ele>297.665000</ele>
        <time>2008-10-23T22:55:23Z</time>
      </trkpt>
      <trkpt lat="50.638538" lon="6.476917">
        <ele>296.704000</ele>
        <time>2008-10-23T22:55:31Z</time>
      </trkpt>
      <trkpt lat="50.638616" lon="6.476846">
        <ele>296.704000</ele>
        <time>2008-10-23T22:55:39Z</time>
      </trkpt>
      <trkpt lat="50.638762" lon="6.476510">
        <ele>295.743000</ele>
        <time>2008-10-23T22:56:04Z</time>
      </trkpt>
      <trkpt lat="50.638852" lon="6.476294">
        <ele>295.743000</ele>
        <time>2008-10-23T22:56:19Z</time>
      </trkpt>
      <trkpt lat="50.638946" lon="6.476065">
        <ele>294.781000</ele>
        <time>2008-10-23T22:56:35Z</time>
      </trkpt>
      <trkpt lat="50.638964" lon="6.475820">
        <ele>294.781000</ele>
        <time>2008-10-23T22:56:50Z</time>
      </trkpt>
      <trkpt lat="50.638955" lon="6.475663">
        <ele>293.820000</ele>
        <time>2008-10-23T22:56:59Z</time>
      </trkpt>
      <trkpt lat="50.638931" lon="6.475583">
        <ele>294.301000</ele>
        <time>2008-10-23T22:57:04Z</time>
      </trkpt>
      <trkpt lat="50.638920" lon="6.475522">
        <ele>294.301000</ele>
        <time>2008-10-23T22:57:08Z</time>
      </trkpt>
      <trkpt lat="50.638891" lon="6.475406">
        <ele>294.301000</ele>
        <time>2008-10-23T22:57:15Z</time>
      </trkpt>
      <trkpt lat="50.638832" lon="6.475150">
        <ele>292.859000</ele>
        <time>2008-10-23T22:57:31Z</time>
      </trkpt>
      <trkpt lat="50.638794" lon="6.474903">
        <ele>291.897000</ele>
        <time>2008-10-23T22:57:47Z</time>
      </trkpt>
      <trkpt lat="50.638693" lon="6.474587">
        <ele>290.936000</ele>
        <time>2008-10-23T22:58:07Z</time>
      </trkpt>
      <trkpt lat="50.638693" lon="6.474301">
        <ele>290.936000</ele>
        <time>2008-10-23T22:58:24Z</time>
      </trkpt>
      <trkpt lat="50.638684" lon="6.474186">
        <ele>290.936000</ele>
        <time>2008-10-23T22:58:31Z</time>
      </trkpt>
      <trkpt lat="50.638427" lon="6.474002">
        <ele>291.897000</ele>
        <time>2008-10-23T22:58:58Z</time>
      </trkpt>
      <trkpt lat="50.638369" lon="6.473994">
        <ele>291.417000</ele>
        <time>2008-10-23T22:59:03Z</time>
      </trkpt>
      <trkpt lat="50.638277" lon="6.473905">
        <ele>292.378000</ele>
        <time>2008-10-23T22:59:13Z</time>
      </trkpt>
      <trkpt lat="50.638203" lon="6.474088">
        <ele>291.897000</ele>
        <time>2008-10-23T22:59:26Z</time>
      </trkpt>
      <trkpt lat="50.638114" lon="6.474309">
        <ele>290.936000</ele>
        <time>2008-10-23T22:59:42Z</time>
      </trkpt>
      <trkpt lat="50.638054" lon="6.474537">
        <ele>289.494000</ele>
        <time>2008-10-23T22:59:56Z</time>
      </trkpt>
      <trkpt lat="50.638048" lon="6.474557">
        <ele>289.494000</ele>
        <time>2008-10-23T22:59:57Z</time>
      </trkpt>
      <trkpt lat="50.637964" lon="6.474654">
        <ele>288.533000</ele>
        <time>2008-10-23T23:00:07Z</time>
      </trkpt>
      <trkpt lat="50.637950" lon="6.474691">
        <ele>288.533000</ele>
        <time>2008-10-23T23:00:10Z</time>
      </trkpt>
      <trkpt lat="50.637815" lon="6.474860">
        <ele>287.091000</ele>
        <time>2008-10-23T23:00:26Z</time>
      </trkpt>
      <trkpt lat="50.637649" lon="6.474913">
        <ele>286.130000</ele>
        <time>2008-10-23T23:00:42Z</time>
      </trkpt>
      <trkpt lat="50.637527" lon="6.474974">
        <ele>283.726000</ele>
        <time>2008-10-23T23:00:54Z</time>
      </trkpt>
      <trkpt lat="50.637414" lon="6.475003">
        <ele>283.726000</ele>
        <time>2008-10-23T23:01:04Z</time>
      </trkpt>
      <trkpt lat="50.637255" lon="6.475062">
        <ele>282.284000</ele>
        <time>2008-10-23T23:01:19Z</time>
      </trkpt>
      <trkpt lat="50.637102" lon="6.475186">
        <ele>280.842000</ele>
        <time>2008-10-23T23:01:36Z</time>
      </trkpt>
      <trkpt lat="50.636970" lon="6.475375">
        <ele>279.881000</ele>
        <time>2008-10-23T23:01:52Z</time>
      </trkpt>
      <trkpt lat="50.636961" lon="6.475395">
        <ele>279.881000</ele>
        <time>2008-10-23T23:01:54Z</time>
      </trkpt>
      <trkpt lat="50.636861" lon="6.475410">
        <ele>278.920000</ele>
        <time>2008-10-23T23:02:03Z</time>
      </trkpt>
      <trkpt lat="50.636833" lon="6.475468">
        <ele>279.400000</ele>
        <time>2008-10-23T23:02:07Z</time>
      </trkpt>
      <trkpt lat="50.636811" lon="6.475506">
        <ele>280.362000</ele>
        <time>2008-10-23T23:02:10Z</time>
      </trkpt>
      <trkpt lat="50.636773" lon="6.475616">
        <ele>277.958000</ele>
        <time>2008-10-23T23:02:18Z</time>
      </trkpt>
      <trkpt lat="50.636738" lon="6.475728">
        <ele>277.958000</ele>
        <time>2008-10-23T23:02:25Z</time>
      </trkpt>
      <trkpt lat="50.636686" lon="6.475812">
        <ele>277.958000</ele>
        <time>2008-10-23T23:02:32Z</time>
      </trkpt>
      <trkpt lat="50.636572" lon="6.475957">
        <ele>276.997000</ele>
        <time>2008-10-23T23:02:46Z</time>
      </trkpt>
      <trkpt lat="50.636415" lon="6.476170">
        <ele>275.074000</ele>
        <time>2008-10-23T23:03:05Z</time>
      </trkpt>
      <trkpt lat="50.636290" lon="6.476339">
        <ele>273.632000</ele>
        <time>2008-10-23T23:03:21Z</time>
      </trkpt>
      <trkpt lat="50.636145" lon="6.476582">
        <ele>271.229000</ele>
        <time>2008-10-23T23:03:40Z</time>
      </trkpt>
      <trkpt lat="50.636104" lon="6.476650">
        <ele>271.229000</ele>
        <time>2008-10-23T23:03:46Z</time>
      </trkpt>
      <trkpt lat="50.636054" lon="6.476899">
        <ele>267.865000</ele>
        <time>2008-10-23T23:04:01Z</time>
      </trkpt>
      <trkpt lat="50.635986" lon="6.477129">
        <ele>268.345000</ele>
        <time>2008-10-23T23:04:16Z</time>
      </trkpt>
      <trkpt lat="50.635963" lon="6.477390">
        <ele>267.865000</ele>
        <time>2008-10-23T23:04:32Z</time>
      </trkpt>
      <trkpt lat="50.635767" lon="6.477716">
        <ele>268.345000</ele>
        <time>2008-10-23T23:04:59Z</time>
      </trkpt>
      <trkpt lat="50.635718" lon="6.477995">
        <ele>270.268000</ele>
        <time>2008-10-23T23:05:16Z</time>
      </trkpt>
      <trkpt lat="50.635673" lon="6.478138">
        <ele>270.748000</ele>
        <time>2008-10-23T23:05:25Z</time>
      </trkpt>
      <trkpt lat="50.635639" lon="6.478302">
        <ele>271.229000</ele>
        <time>2008-10-23T23:05:35Z</time>
      </trkpt>
      <trkpt lat="50.635582" lon="6.478541">
        <ele>271.710000</ele>
        <time>2008-10-23T23:05:50Z</time>
      </trkpt>
      <trkpt lat="50.635554" lon="6.478613">
        <ele>272.190000</ele>
        <time>2008-10-23T23:05:55Z</time>
      </trkpt>
      <trkpt lat="50.635490" lon="6.478935">
        <ele>272.190000</ele>
        <time>2008-10-23T23:06:15Z</time>
      </trkpt>
      <trkpt lat="50.635419" lon="6.479050">
        <ele>271.229000</ele>
        <time>2008-10-23T23:06:25Z</time>
      </trkpt>
      <trkpt lat="50.635314" lon="6.479166">
        <ele>271.229000</ele>
        <time>2008-10-23T23:06:37Z</time>
      </trkpt>
      <trkpt lat="50.635267" lon="6.479284">
        <ele>271.710000</ele>
        <time>2008-10-23T23:06:45Z</time>
      </trkpt>
      <trkpt lat="50.635247" lon="6.479357">
        <ele>271.710000</ele>
        <time>2008-10-23T23:06:50Z</time>
      </trkpt>
      <trkpt lat="50.635205" lon="6.479537">
        <ele>271.710000</ele>
        <time>2008-10-23T23:07:01Z</time>
      </trkpt>
      <trkpt lat="50.635161" lon="6.479640">
        <ele>272.190000</ele>
        <time>2008-10-23T23:07:09Z</time>
      </trkpt>
      <trkpt lat="50.635127" lon="6.479783">
        <ele>272.190000</ele>
        <time>2008-10-23T23:07:18Z</time>
      </trkpt>
      <trkpt lat="50.635043" lon="6.480131">
        <ele>273.152000</ele>
        <time>2008-10-23T23:07:40Z</time>
      </trkpt>
      <trkpt lat="50.635032" lon="6.480180">
        <ele>273.152000</ele>
        <time>2008-10-23T23:07:43Z</time>
      </trkpt>
      <trkpt lat="50.635038" lon="6.480448">
        <ele>274.594000</ele>
        <time>2008-10-23T23:07:59Z</time>
      </trkpt>
      <trkpt lat="50.635032" lon="6.480552">
        <ele>274.594000</ele>
        <time>2008-10-23T23:08:05Z</time>
      </trkpt>
      <trkpt lat="50.635039" lon="6.480889">
        <ele>275.555000</ele>
        <time>2008-10-23T23:08:25Z</time>
      </trkpt>
      <trkpt lat="50.634916" lon="6.481150">
        <ele>275.555000</ele>
        <time>2008-10-23T23:08:44Z</time>
      </trkpt>
      <trkpt lat="50.634893" lon="6.481242">
        <ele>276.036000</ele>
        <time>2008-10-23T23:08:50Z</time>
      </trkpt>
      <trkpt lat="50.634832" lon="6.481515">
        <ele>276.997000</ele>
        <time>2008-10-23T23:09:07Z</time>
      </trkpt>
      <trkpt lat="50.634738" lon="6.481793">
        <ele>276.516000</ele>
        <time>2008-10-23T23:09:26Z</time>
      </trkpt>
      <trkpt lat="50.634648" lon="6.481931">
        <ele>276.036000</ele>
        <time>2008-10-23T23:09:37Z</time>
      </trkpt>
      <trkpt lat="50.634619" lon="6.481963">
        <ele>275.074000</ele>
        <time>2008-10-23T23:09:41Z</time>
      </trkpt>
      <trkpt lat="50.634564" lon="6.482184">
        <ele>275.555000</ele>
        <time>2008-10-23T23:09:55Z</time>
      </trkpt>
      <trkpt lat="50.634479" lon="6.482293">
        <ele>275.555000</ele>
        <time>2008-10-23T23:10:05Z</time>
      </trkpt>
      <trkpt lat="50.634408" lon="6.482404">
        <ele>276.036000</ele>
        <time>2008-10-23T23:10:14Z</time>
      </trkpt>
      <trkpt lat="50.634423" lon="6.482431">
        <ele>275.555000</ele>
        <time>2008-10-23T23:10:17Z</time>
      </trkpt>
      <trkpt lat="50.634429" lon="6.482453">
        <ele>272.190000</ele>
        <time>2008-10-23T23:10:18Z</time>
      </trkpt>
      <trkpt lat="50.634420" lon="6.482457">
        <ele>276.997000</ele>
        <time>2008-10-23T23:10:19Z</time>
      </trkpt>
      <trkpt lat="50.634420" lon="6.482480">
        <ele>276.516000</ele>
        <time>2008-10-23T23:10:20Z</time>
      </trkpt>
      <trkpt lat="50.634345" lon="6.482718">
        <ele>275.555000</ele>
        <time>2008-10-23T23:10:36Z</time>
      </trkpt>
      <trkpt lat="50.634285" lon="6.483003">
        <ele>273.632000</ele>
        <time>2008-10-23T23:10:54Z</time>
      </trkpt>
      <trkpt lat="50.634188" lon="6.483285">
        <ele>273.152000</ele>
        <time>2008-10-23T23:11:13Z</time>
      </trkpt>
      <trkpt lat="50.634163" lon="6.483543">
        <ele>272.190000</ele>
        <time>2008-10-23T23:11:28Z</time>
      </trkpt>
      <trkpt lat="50.634139" lon="6.483766">
        <ele>272.190000</ele>
        <time>2008-10-23T23:11:42Z</time>
      </trkpt>
      <trkpt lat="50.634092" lon="6.484047">
        <ele>270.748000</ele>
        <time>2008-10-23T23:11:59Z</time>
      </trkpt>
      <trkpt lat="50.633979" lon="6.484352">
        <ele>271.710000</ele>
        <time>2008-10-23T23:12:20Z</time>
      </trkpt>
      <trkpt lat="50.633925" lon="6.484389">
        <ele>272.190000</ele>
        <time>2008-10-23T23:12:25Z</time>
      </trkpt>
      <trkpt lat="50.633892" lon="6.484394">
        <ele>273.152000</ele>
        <time>2008-10-23T23:12:28Z</time>
      </trkpt>
      <trkpt lat="50.633852" lon="6.484392">
        <ele>273.152000</ele>
        <time>2008-10-23T23:12:32Z</time>
      </trkpt>
      <trkpt lat="50.633745" lon="6.484431">
        <ele>273.632000</ele>
        <time>2008-10-23T23:12:42Z</time>
      </trkpt>
      <trkpt lat="50.633670" lon="6.484459">
        <ele>273.632000</ele>
        <time>2008-10-23T23:12:49Z</time>
      </trkpt>
      <trkpt lat="50.633661" lon="6.484601">
        <ele>276.516000</ele>
        <time>2008-10-23T23:12:58Z</time>
      </trkpt>
      <trkpt lat="50.633648" lon="6.484605">
        <ele>274.594000</ele>
        <time>2008-10-23T23:12:59Z</time>
      </trkpt>
      <trkpt lat="50.633679" lon="6.484719">
        <ele>274.594000</ele>
        <time>2008-10-23T23:13:06Z</time>
      </trkpt>
      <trkpt lat="50.633690" lon="6.484796">
        <ele>275.074000</ele>
        <time>2008-10-23T23:13:11Z</time>
      </trkpt>
      <trkpt lat="50.633711" lon="6.484977">
        <ele>275.555000</ele>
        <time>2008-10-23T23:13:22Z</time>
      </trkpt>
      <trkpt lat="50.633695" lon="6.485049">
        <ele>275.555000</ele>
        <time>2008-10-23T23:13:27Z</time>
      </trkpt>
      <trkpt lat="50.633623" lon="6.485184">
        <ele>276.036000</ele>
        <time>2008-10-23T23:13:37Z</time>
      </trkpt>
      <trkpt lat="50.633605" lon="6.485366">
        <ele>276.036000</ele>
        <time>2008-10-23T23:13:48Z</time>
      </trkpt>
      <trkpt lat="50.633566" lon="6.485661">
        <ele>276.516000</ele>
        <time>2008-10-23T23:14:06Z</time>
      </trkpt>
      <trkpt lat="50.633547" lon="6.486003">
        <ele>278.439000</ele>
        <time>2008-10-23T23:14:26Z</time>
      </trkpt>
      <trkpt lat="50.633536" lon="6.486152">
        <ele>277.958000</ele>
        <time>2008-10-23T23:14:35Z</time>
      </trkpt>
      <trkpt lat="50.633540" lon="6.486288">
        <ele>277.478000</ele>
        <time>2008-10-23T23:14:43Z</time>
      </trkpt>
      <trkpt lat="50.633493" lon="6.486615">
        <ele>279.400000</ele>
        <time>2008-10-23T23:15:03Z</time>
      </trkpt>
      <trkpt lat="50.633418" lon="6.486904">
        <ele>280.362000</ele>
        <time>2008-10-23T23:15:21Z</time>
      </trkpt>
      <trkpt lat="50.633361" lon="6.487190">
        <ele>280.362000</ele>
        <time>2008-10-23T23:15:39Z</time>
      </trkpt>
      <trkpt lat="50.633355" lon="6.487298">
        <ele>280.362000</ele>
        <time>2008-10-23T23:15:46Z</time>
      </trkpt>
      <trkpt lat="50.633306" lon="6.487671">
        <ele>280.362000</ele>
        <time>2008-10-23T23:16:08Z</time>
      </trkpt>
      <trkpt lat="50.633331" lon="6.487963">
        <ele>280.362000</ele>
        <time>2008-10-23T23:16:26Z</time>
      </trkpt>
      <trkpt lat="50.633332" lon="6.488116">
        <ele>280.842000</ele>
        <time>2008-10-23T23:16:35Z</time>
      </trkpt>
      <trkpt lat="50.633345" lon="6.488228">
        <ele>281.323000</ele>
        <time>2008-10-23T23:16:41Z</time>
      </trkpt>
      <trkpt lat="50.633411" lon="6.488453">
        <ele>283.246000</ele>
        <time>2008-10-23T23:16:56Z</time>
      </trkpt>
      <trkpt lat="50.633467" lon="6.488549">
        <ele>283.726000</ele>
        <time>2008-10-23T23:17:04Z</time>
      </trkpt>
      <trkpt lat="50.633509" lon="6.488607">
        <ele>284.207000</ele>
        <time>2008-10-23T23:17:09Z</time>
      </trkpt>
      <trkpt lat="50.633592" lon="6.488830">
        <ele>284.688000</ele>
        <time>2008-10-23T23:17:24Z</time>
      </trkpt>
      <trkpt lat="50.633640" lon="6.489019">
        <ele>285.649000</ele>
        <time>2008-10-23T23:17:36Z</time>
      </trkpt>
      <trkpt lat="50.633568" lon="6.489058">
        <ele>283.246000</ele>
        <time>2008-10-23T23:17:43Z</time>
      </trkpt>
      <trkpt lat="50.633546" lon="6.489044">
        <ele>282.284000</ele>
        <time>2008-10-23T23:17:46Z</time>
      </trkpt>
      <trkpt lat="50.633510" lon="6.489054">
        <ele>278.920000</ele>
        <time>2008-10-23T23:17:49Z</time>
      </trkpt>
      <trkpt lat="50.633346" lon="6.489079">
        <ele>275.555000</ele>
        <time>2008-10-23T23:18:04Z</time>
      </trkpt>
      <trkpt lat="50.633109" lon="6.488954">
        <ele>275.074000</ele>
        <time>2008-10-23T23:18:28Z</time>
      </trkpt>
      <trkpt lat="50.633029" lon="6.488867">
        <ele>273.152000</ele>
        <time>2008-10-23T23:18:37Z</time>
      </trkpt>
      <trkpt lat="50.632977" lon="6.488817">
        <ele>270.748000</ele>
        <time>2008-10-23T23:18:43Z</time>
      </trkpt>
      <trkpt lat="50.632905" lon="6.488609">
        <ele>267.865000</ele>
        <time>2008-10-23T23:18:57Z</time>
      </trkpt>
      <trkpt lat="50.632894" lon="6.488544">
        <ele>265.942000</ele>
        <time>2008-10-23T23:19:01Z</time>
      </trkpt>
      <trkpt lat="50.632876" lon="6.488379">
        <ele>264.500000</ele>
        <time>2008-10-23T23:19:10Z</time>
      </trkpt>
      <trkpt lat="50.632697" lon="6.488151">
        <ele>260.655000</ele>
        <time>2008-10-23T23:19:32Z</time>
      </trkpt>
      <trkpt lat="50.632689" lon="6.488117">
        <ele>257.290000</ele>
        <time>2008-10-23T23:19:34Z</time>
      </trkpt>
      <trkpt lat="50.632688" lon="6.488118">
        <ele>256.809000</ele>
        <time>2008-10-23T23:19:34Z</time>
      </trkpt>
      <trkpt lat="50.632682" lon="6.488122">
        <ele>254.406000</ele>
        <time>2008-10-23T23:19:35Z</time>
      </trkpt>
      <trkpt lat="50.632602" lon="6.488002">
        <ele>251.522000</ele>
        <time>2008-10-23T23:19:45Z</time>
      </trkpt>
      <trkpt lat="50.632436" lon="6.487807">
        <ele>251.041000</ele>
        <time>2008-10-23T23:20:05Z</time>
      </trkpt>
      <trkpt lat="50.632331" lon="6.487702">
        <ele>251.041000</ele>
        <time>2008-10-23T23:20:16Z</time>
      </trkpt>
      <trkpt lat="50.632202" lon="6.487381">
        <ele>247.196000</ele>
        <time>2008-10-23T23:20:39Z</time>
      </trkpt>
      <trkpt lat="50.632142" lon="6.487318">
        <ele>246.715000</ele>
        <time>2008-10-23T23:20:45Z</time>
      </trkpt>
      <trkpt lat="50.632041" lon="6.487399">
        <ele>247.677000</ele>
        <time>2008-10-23T23:20:56Z</time>
      </trkpt>
      <trkpt lat="50.631918" lon="6.487591">
        <ele>246.235000</ele>
        <time>2008-10-23T23:21:12Z</time>
      </trkpt>
      <trkpt lat="50.631904" lon="6.487602">
        <ele>245.273000</ele>
        <time>2008-10-23T23:21:14Z</time>
      </trkpt>
      <trkpt lat="50.631856" lon="6.487731">
        <ele>245.273000</ele>
        <time>2008-10-23T23:21:22Z</time>
      </trkpt>
      <trkpt lat="50.631753" lon="6.487853">
        <ele>241.428000</ele>
        <time>2008-10-23T23:21:34Z</time>
      </trkpt>
      <trkpt lat="50.631680" lon="6.488042">
        <ele>239.505000</ele>
        <time>2008-10-23T23:21:48Z</time>
      </trkpt>
      <trkpt lat="50.631685" lon="6.488010">
        <ele>239.025000</ele>
        <time>2008-10-23T23:21:50Z</time>
      </trkpt>
      <trkpt lat="50.631677" lon="6.487855">
        <ele>238.544000</ele>
        <time>2008-10-23T23:21:59Z</time>
      </trkpt>
      <trkpt lat="50.631797" lon="6.487559">
        <ele>237.102000</ele>
        <time>2008-10-23T23:22:20Z</time>
      </trkpt>
      <trkpt lat="50.631964" lon="6.487403">
        <ele>236.622000</ele>
        <time>2008-10-23T23:22:38Z</time>
      </trkpt>
      <trkpt lat="50.631987" lon="6.487352">
        <ele>236.622000</ele>
        <time>2008-10-23T23:22:41Z</time>
      </trkpt>
      <trkpt lat="50.632084" lon="6.487183">
        <ele>236.141000</ele>
        <time>2008-10-23T23:22:55Z</time>
      </trkpt>
      <trkpt lat="50.632105" lon="6.487125">
        <ele>236.141000</ele>
        <time>2008-10-23T23:22:59Z</time>
      </trkpt>
      <trkpt lat="50.632168" lon="6.487105">
        <ele>235.660000</ele>
        <time>2008-10-23T23:23:05Z</time>
      </trkpt>
      <trkpt lat="50.632259" lon="6.487041">
        <ele>235.180000</ele>
        <time>2008-10-23T23:23:14Z</time>
      </trkpt>
      <trkpt lat="50.632283" lon="6.486957">
        <ele>234.699000</ele>
        <time>2008-10-23T23:23:20Z</time>
      </trkpt>
      <trkpt lat="50.632319" lon="6.486835">
        <ele>234.699000</ele>
        <time>2008-10-23T23:23:28Z</time>
      </trkpt>
      <trkpt lat="50.632514" lon="6.486595">
        <ele>235.180000</ele>
        <time>2008-10-23T23:23:51Z</time>
      </trkpt>
      <trkpt lat="50.632590" lon="6.486409">
        <ele>232.776000</ele>
        <time>2008-10-23T23:24:04Z</time>
      </trkpt>
      <trkpt lat="50.632628" lon="6.486328">
        <ele>232.776000</ele>
        <time>2008-10-23T23:24:10Z</time>
      </trkpt>
      <trkpt lat="50.632665" lon="6.486344">
        <ele>231.815000</ele>
        <time>2008-10-23T23:24:13Z</time>
      </trkpt>
      <trkpt lat="50.632736" lon="6.486176">
        <ele>231.815000</ele>
        <time>2008-10-23T23:24:25Z</time>
      </trkpt>
      <trkpt lat="50.632769" lon="6.485884">
        <ele>231.815000</ele>
        <time>2008-10-23T23:24:43Z</time>
      </trkpt>
      <trkpt lat="50.632802" lon="6.485615">
        <ele>230.373000</ele>
        <time>2008-10-23T23:24:59Z</time>
      </trkpt>
      <trkpt lat="50.632821" lon="6.485485">
        <ele>230.373000</ele>
        <time>2008-10-23T23:25:07Z</time>
      </trkpt>
      <trkpt lat="50.632855" lon="6.485310">
        <ele>229.412000</ele>
        <time>2008-10-23T23:25:18Z</time>
      </trkpt>
      <trkpt lat="50.632884" lon="6.485236">
        <ele>228.931000</ele>
        <time>2008-10-23T23:25:23Z</time>
      </trkpt>
      <trkpt lat="50.632903" lon="6.485057">
        <ele>229.412000</ele>
        <time>2008-10-23T23:25:34Z</time>
      </trkpt>
      <trkpt lat="50.632871" lon="6.484899">
        <ele>229.412000</ele>
        <time>2008-10-23T23:25:43Z</time>
      </trkpt>
      <trkpt lat="50.632831" lon="6.484778">
        <ele>228.931000</ele>
        <time>2008-10-23T23:25:52Z</time>
      </trkpt>
      <trkpt lat="50.632820" lon="6.484676">
        <ele>228.931000</ele>
        <time>2008-10-23T23:25:58Z</time>
      </trkpt>
      <trkpt lat="50.632802" lon="6.484650">
        <ele>228.931000</ele>
        <time>2008-10-23T23:26:00Z</time>
      </trkpt>
      <trkpt lat="50.632788" lon="6.484348">
        <ele>229.412000</ele>
        <time>2008-10-23T23:26:18Z</time>
      </trkpt>
      <trkpt lat="50.632769" lon="6.484064">
        <ele>227.970000</ele>
        <time>2008-10-23T23:26:35Z</time>
      </trkpt>
      <trkpt lat="50.632723" lon="6.483832">
        <ele>228.450000</ele>
        <time>2008-10-23T23:26:49Z</time>
      </trkpt>
      <trkpt lat="50.632734" lon="6.483725">
        <ele>227.009000</ele>
        <time>2008-10-23T23:26:56Z</time>
      </trkpt>
      <trkpt lat="50.632718" lon="6.483711">
        <ele>227.489000</ele>
        <time>2008-10-23T23:26:57Z</time>
      </trkpt>
      <trkpt lat="50.632744" lon="6.483585">
        <ele>227.489000</ele>
        <time>2008-10-23T23:27:05Z</time>
      </trkpt>
      <trkpt lat="50.632738" lon="6.483516">
        <ele>228.450000</ele>
        <time>2008-10-23T23:27:09Z</time>
      </trkpt>
      <trkpt lat="50.632734" lon="6.483428">
        <ele>227.009000</ele>
        <time>2008-10-23T23:27:15Z</time>
      </trkpt>
      <trkpt lat="50.632741" lon="6.483148">
        <ele>226.047000</ele>
        <time>2008-10-23T23:27:31Z</time>
      </trkpt>
      <trkpt lat="50.632757" lon="6.483081">
        <ele>226.047000</ele>
        <time>2008-10-23T23:27:35Z</time>
      </trkpt>
      <trkpt lat="50.632783" lon="6.483033">
        <ele>226.047000</ele>
        <time>2008-10-23T23:27:39Z</time>
      </trkpt>
      <trkpt lat="50.632786" lon="6.482995">
        <ele>226.528000</ele>
        <time>2008-10-23T23:27:41Z</time>
      </trkpt>
      <trkpt lat="50.632797" lon="6.482889">
        <ele>226.047000</ele>
        <time>2008-10-23T23:27:48Z</time>
      </trkpt>
      <trkpt lat="50.632817" lon="6.482762">
        <ele>226.047000</ele>
        <time>2008-10-23T23:27:55Z</time>
      </trkpt>
      <trkpt lat="50.632752" lon="6.482712">
        <ele>226.047000</ele>
        <time>2008-10-23T23:28:02Z</time>
      </trkpt>
      <trkpt lat="50.632651" lon="6.482593">
        <ele>226.047000</ele>
        <time>2008-10-23T23:28:14Z</time>
      </trkpt>
      <trkpt lat="50.632622" lon="6.482579">
        <ele>226.047000</ele>
        <time>2008-10-23T23:28:17Z</time>
      </trkpt>
      <trkpt lat="50.632611" lon="6.482768">
        <ele>227.489000</ele>
        <time>2008-10-23T23:28:28Z</time>
      </trkpt>
      <trkpt lat="50.632524" lon="6.482819">
        <ele>229.892000</ele>
        <time>2008-10-23T23:28:37Z</time>
      </trkpt>
      <trkpt lat="50.632415" lon="6.483053">
        <ele>232.296000</ele>
        <time>2008-10-23T23:28:54Z</time>
      </trkpt>
      <trkpt lat="50.632356" lon="6.483156">
        <ele>234.218000</ele>
        <time>2008-10-23T23:29:02Z</time>
      </trkpt>
      <trkpt lat="50.632294" lon="6.483256">
        <ele>237.583000</ele>
        <time>2008-10-23T23:29:10Z</time>
      </trkpt>
      <trkpt lat="50.632168" lon="6.483410">
        <ele>239.505000</ele>
        <time>2008-10-23T23:29:25Z</time>
      </trkpt>
      <trkpt lat="50.632074" lon="6.483491">
        <ele>242.870000</ele>
        <time>2008-10-23T23:29:35Z</time>
      </trkpt>
      <trkpt lat="50.632031" lon="6.483627">
        <ele>246.235000</ele>
        <time>2008-10-23T23:29:44Z</time>
      </trkpt>
      <trkpt lat="50.631844" lon="6.483858">
        <ele>249.119000</ele>
        <time>2008-10-23T23:30:07Z</time>
      </trkpt>
      <trkpt lat="50.631817" lon="6.484093">
        <ele>250.561000</ele>
        <time>2008-10-23T23:30:21Z</time>
      </trkpt>
      <trkpt lat="50.631771" lon="6.484265">
        <ele>252.483000</ele>
        <time>2008-10-23T23:30:32Z</time>
      </trkpt>
      <trkpt lat="50.631718" lon="6.484484">
        <ele>254.406000</ele>
        <time>2008-10-23T23:30:46Z</time>
      </trkpt>
      <trkpt lat="50.631712" lon="6.484524">
        <ele>254.887000</ele>
        <time>2008-10-23T23:30:48Z</time>
      </trkpt>
      <trkpt lat="50.631611" lon="6.484703">
        <ele>257.771000</ele>
        <time>2008-10-23T23:31:02Z</time>
      </trkpt>
      <trkpt lat="50.631560" lon="6.484904">
        <ele>261.135000</ele>
        <time>2008-10-23T23:31:15Z</time>
      </trkpt>
      <trkpt lat="50.631495" lon="6.485078">
        <ele>262.577000</ele>
        <time>2008-10-23T23:31:27Z</time>
      </trkpt>
      <trkpt lat="50.631462" lon="6.485195">
        <ele>265.942000</ele>
        <time>2008-10-23T23:31:35Z</time>
      </trkpt>
      <trkpt lat="50.631365" lon="6.485392">
        <ele>269.307000</ele>
        <time>2008-10-23T23:31:49Z</time>
      </trkpt>
      <trkpt lat="50.631287" lon="6.485581">
        <ele>272.190000</ele>
        <time>2008-10-23T23:32:03Z</time>
      </trkpt>
      <trkpt lat="50.631276" lon="6.485703">
        <ele>275.555000</ele>
        <time>2008-10-23T23:32:10Z</time>
      </trkpt>
      <trkpt lat="50.631255" lon="6.485878">
        <ele>278.439000</ele>
        <time>2008-10-23T23:32:21Z</time>
      </trkpt>
      <trkpt lat="50.631157" lon="6.486009">
        <ele>281.804000</ele>
        <time>2008-10-23T23:32:33Z</time>
      </trkpt>
      <trkpt lat="50.631126" lon="6.486089">
        <ele>284.207000</ele>
        <time>2008-10-23T23:32:38Z</time>
      </trkpt>
      <trkpt lat="50.631034" lon="6.486143">
        <ele>284.207000</ele>
        <time>2008-10-23T23:32:47Z</time>
      </trkpt>
      <trkpt lat="50.631016" lon="6.486150">
        <ele>285.168000</ele>
        <time>2008-10-23T23:32:49Z</time>
      </trkpt>
      <trkpt lat="50.630846" lon="6.486157">
        <ele>285.649000</ele>
        <time>2008-10-23T23:33:05Z</time>
      </trkpt>
      <trkpt lat="50.630763" lon="6.486201">
        <ele>289.014000</ele>
        <time>2008-10-23T23:33:13Z</time>
      </trkpt>
      <trkpt lat="50.630594" lon="6.486175">
        <ele>292.378000</ele>
        <time>2008-10-23T23:33:29Z</time>
      </trkpt>
      <trkpt lat="50.630319" lon="6.486155">
        <ele>296.224000</ele>
        <time>2008-10-23T23:33:55Z</time>
      </trkpt>
      <trkpt lat="50.630304" lon="6.486153">
        <ele>296.224000</ele>
        <time>2008-10-23T23:33:56Z</time>
      </trkpt>
      <trkpt lat="50.630186" lon="6.486239">
        <ele>299.107000</ele>
        <time>2008-10-23T23:34:08Z</time>
      </trkpt>
      <trkpt lat="50.630093" lon="6.486305">
        <ele>302.472000</ele>
        <time>2008-10-23T23:34:18Z</time>
      </trkpt>
      <trkpt lat="50.629949" lon="6.486387">
        <ele>305.837000</ele>
        <time>2008-10-23T23:34:32Z</time>
      </trkpt>
      <trkpt lat="50.629888" lon="6.486390">
        <ele>308.720000</ele>
        <time>2008-10-23T23:34:38Z</time>
      </trkpt>
      <trkpt lat="50.629684" lon="6.486394">
        <ele>311.604000</ele>
        <time>2008-10-23T23:34:57Z</time>
      </trkpt>
      <trkpt lat="50.629654" lon="6.486329">
        <ele>315.450000</ele>
        <time>2008-10-23T23:35:01Z</time>
      </trkpt>
      <trkpt lat="50.629453" lon="6.486433">
        <ele>318.334000</ele>
        <time>2008-10-23T23:35:21Z</time>
      </trkpt>
      <trkpt lat="50.629359" lon="6.486524">
        <ele>320.256000</ele>
        <time>2008-10-23T23:35:32Z</time>
      </trkpt>
      <trkpt lat="50.628968" lon="6.486608">
        <ele>322.660000</ele>
        <time>2008-10-23T23:36:08Z</time>
      </trkpt>
      <trkpt lat="50.628820" lon="6.486664">
        <ele>325.063000</ele>
        <time>2008-10-23T23:36:23Z</time>
      </trkpt>
      <trkpt lat="50.628663" lon="6.486744">
        <ele>327.466000</ele>
        <time>2008-10-23T23:36:38Z</time>
      </trkpt>
      <trkpt lat="50.628566" lon="6.486938">
        <ele>329.870000</ele>
        <time>2008-10-23T23:36:53Z</time>
      </trkpt>
      <trkpt lat="50.628515" lon="6.487055">
        <ele>332.273000</ele>
        <time>2008-10-23T23:37:01Z</time>
      </trkpt>
      <trkpt lat="50.628358" lon="6.487113">
        <ele>335.637000</ele>
        <time>2008-10-23T23:37:16Z</time>
      </trkpt>
      <trkpt lat="50.628305" lon="6.487146">
        <ele>336.599000</ele>
        <time>2008-10-23T23:37:21Z</time>
      </trkpt>
      <trkpt lat="50.628199" lon="6.487185">
        <ele>339.002000</ele>
        <time>2008-10-23T23:37:32Z</time>
      </trkpt>
      <trkpt lat="50.628068" lon="6.487291">
        <ele>341.886000</ele>
        <time>2008-10-23T23:37:45Z</time>
      </trkpt>
      <trkpt lat="50.627961" lon="6.487323">
        <ele>342.367000</ele>
        <time>2008-10-23T23:37:56Z</time>
      </trkpt>
      <trkpt lat="50.627827" lon="6.487346">
        <ele>342.367000</ele>
        <time>2008-10-23T23:38:08Z</time>
      </trkpt>
      <trkpt lat="50.627774" lon="6.487351">
        <ele>342.367000</ele>
        <time>2008-10-23T23:38:13Z</time>
      </trkpt>
      <trkpt lat="50.627634" lon="6.487275">
        <ele>344.289000</ele>
        <time>2008-10-23T23:38:27Z</time>
      </trkpt>
      <trkpt lat="50.627574" lon="6.487173">
        <ele>344.770000</ele>
        <time>2008-10-23T23:38:35Z</time>
      </trkpt>
      <trkpt lat="50.627458" lon="6.487183">
        <ele>345.251000</ele>
        <time>2008-10-23T23:38:46Z</time>
      </trkpt>
      <trkpt lat="50.627370" lon="6.487173">
        <ele>345.251000</ele>
        <time>2008-10-23T23:38:54Z</time>
      </trkpt>
      <trkpt lat="50.627184" lon="6.487125">
        <ele>347.654000</ele>
        <time>2008-10-23T23:39:12Z</time>
      </trkpt>
      <trkpt lat="50.627057" lon="6.487135">
        <ele>350.057000</ele>
        <time>2008-10-23T23:39:24Z</time>
      </trkpt>
      <trkpt lat="50.626968" lon="6.487184">
        <ele>351.018000</ele>
        <time>2008-10-23T23:39:32Z</time>
      </trkpt>
      <trkpt lat="50.626837" lon="6.487237">
        <ele>352.461000</ele>
        <time>2008-10-23T23:39:45Z</time>
      </trkpt>
      <trkpt lat="50.626666" lon="6.487284">
        <ele>353.422000</ele>
        <time>2008-10-23T23:40:01Z</time>
      </trkpt>
      <trkpt lat="50.626552" lon="6.487344">
        <ele>353.903000</ele>
        <time>2008-10-23T23:40:13Z</time>
      </trkpt>
      <trkpt lat="50.626406" lon="6.487387">
        <ele>356.786000</ele>
        <time>2008-10-23T23:40:26Z</time>
      </trkpt>
      <trkpt lat="50.626299" lon="6.487414">
        <ele>359.190000</ele>
        <time>2008-10-23T23:40:37Z</time>
      </trkpt>
      <trkpt lat="50.626163" lon="6.487470">
        <ele>361.593000</ele>
        <time>2008-10-23T23:40:50Z</time>
      </trkpt>
      <trkpt lat="50.626079" lon="6.487521">
        <ele>362.074000</ele>
        <time>2008-10-23T23:40:58Z</time>
      </trkpt>
      <trkpt lat="50.625973" lon="6.487521">
        <ele>363.996000</ele>
        <time>2008-10-23T23:41:08Z</time>
      </trkpt>
      <trkpt lat="50.625899" lon="6.487503">
        <ele>364.958000</ele>
        <time>2008-10-23T23:41:15Z</time>
      </trkpt>
      <trkpt lat="50.625778" lon="6.487446">
        <ele>365.919000</ele>
        <time>2008-10-23T23:41:27Z</time>
      </trkpt>
      <trkpt lat="50.625670" lon="6.487437">
        <ele>367.361000</ele>
        <time>2008-10-23T23:41:37Z</time>
      </trkpt>
      <trkpt lat="50.625507" lon="6.487388">
        <ele>368.803000</ele>
        <time>2008-10-23T23:41:52Z</time>
      </trkpt>
      <trkpt lat="50.625363" lon="6.487362">
        <ele>370.245000</ele>
        <time>2008-10-23T23:42:06Z</time>
      </trkpt>
      <trkpt lat="50.625295" lon="6.487345">
        <ele>371.687000</ele>
        <time>2008-10-23T23:42:12Z</time>
      </trkpt>
      <trkpt lat="50.625263" lon="6.487328">
        <ele>373.129000</ele>
        <time>2008-10-23T23:42:15Z</time>
      </trkpt>
      <trkpt lat="50.625129" lon="6.487290">
        <ele>375.532000</ele>
        <time>2008-10-23T23:42:28Z</time>
      </trkpt>
      <trkpt lat="50.625021" lon="6.487234">
        <ele>377.455000</ele>
        <time>2008-10-23T23:42:39Z</time>
      </trkpt>
      <trkpt lat="50.624925" lon="6.487191">
        <ele>379.377000</ele>
        <time>2008-10-23T23:42:48Z</time>
      </trkpt>
      <trkpt lat="50.624801" lon="6.487162">
        <ele>381.300000</ele>
        <time>2008-10-23T23:43:00Z</time>
      </trkpt>
      <trkpt lat="50.624767" lon="6.487143">
        <ele>382.261000</ele>
        <time>2008-10-23T23:43:03Z</time>
      </trkpt>
      <trkpt lat="50.624671" lon="6.487107">
        <ele>383.223000</ele>
        <time>2008-10-23T23:43:12Z</time>
      </trkpt>
      <trkpt lat="50.624565" lon="6.487093">
        <ele>385.626000</ele>
        <time>2008-10-23T23:43:22Z</time>
      </trkpt>
      <trkpt lat="50.624537" lon="6.487102">
        <ele>385.145000</ele>
        <time>2008-10-23T23:43:25Z</time>
      </trkpt>
      <trkpt lat="50.624429" lon="6.487027">
        <ele>387.068000</ele>
        <time>2008-10-23T23:43:36Z</time>
      </trkpt>
      <trkpt lat="50.624361" lon="6.486962">
        <ele>388.029000</ele>
        <time>2008-10-23T23:43:43Z</time>
      </trkpt>
      <trkpt lat="50.624189" lon="6.486935">
        <ele>389.471000</ele>
        <time>2008-10-23T23:44:00Z</time>
      </trkpt>
      <trkpt lat="50.624061" lon="6.486870">
        <ele>391.394000</ele>
        <time>2008-10-23T23:44:12Z</time>
      </trkpt>
      <trkpt lat="50.623896" lon="6.486773">
        <ele>394.278000</ele>
        <time>2008-10-23T23:44:29Z</time>
      </trkpt>
      <trkpt lat="50.623873" lon="6.486758">
        <ele>394.759000</ele>
        <time>2008-10-23T23:44:31Z</time>
      </trkpt>
      <trkpt lat="50.623724" lon="6.486639">
        <ele>397.162000</ele>
        <time>2008-10-23T23:44:46Z</time>
      </trkpt>
      <trkpt lat="50.623625" lon="6.486544">
        <ele>398.604000</ele>
        <time>2008-10-23T23:44:57Z</time>
      </trkpt>
      <trkpt lat="50.623478" lon="6.486454">
        <ele>401.969000</ele>
        <time>2008-10-23T23:45:12Z</time>
      </trkpt>
      <trkpt lat="50.623333" lon="6.486331">
        <ele>403.410000</ele>
        <time>2008-10-23T23:45:27Z</time>
      </trkpt>
      <trkpt lat="50.623244" lon="6.486245">
        <ele>404.852000</ele>
        <time>2008-10-23T23:45:37Z</time>
      </trkpt>
      <trkpt lat="50.623232" lon="6.486244">
        <ele>405.814000</ele>
        <time>2008-10-23T23:45:38Z</time>
      </trkpt>
      <trkpt lat="50.623067" lon="6.486048">
        <ele>404.852000</ele>
        <time>2008-10-23T23:45:58Z</time>
      </trkpt>
      <trkpt lat="50.622904" lon="6.485980">
        <ele>405.333000</ele>
        <time>2008-10-23T23:46:13Z</time>
      </trkpt>
      <trkpt lat="50.622726" lon="6.486008">
        <ele>406.775000</ele>
        <time>2008-10-23T23:46:30Z</time>
      </trkpt>
      <trkpt lat="50.622476" lon="6.486035">
        <ele>405.333000</ele>
        <time>2008-10-23T23:46:53Z</time>
      </trkpt>
      <trkpt lat="50.622320" lon="6.485959">
        <ele>405.333000</ele>
        <time>2008-10-23T23:47:09Z</time>
      </trkpt>
      <trkpt lat="50.622253" lon="6.485778">
        <ele>405.333000</ele>
        <time>2008-10-23T23:47:21Z</time>
      </trkpt>
      <trkpt lat="50.622175" lon="6.485646">
        <ele>405.333000</ele>
        <time>2008-10-23T23:47:32Z</time>
      </trkpt>
      <trkpt lat="50.621995" lon="6.485551">
        <ele>405.814000</ele>
        <time>2008-10-23T23:47:49Z</time>
      </trkpt>
      <trkpt lat="50.621897" lon="6.485379">
        <ele>406.294000</ele>
        <time>2008-10-23T23:48:03Z</time>
      </trkpt>
      <trkpt lat="50.621779" lon="6.485259">
        <ele>406.775000</ele>
        <time>2008-10-23T23:48:16Z</time>
      </trkpt>
      <trkpt lat="50.621650" lon="6.485171">
        <ele>407.256000</ele>
        <time>2008-10-23T23:48:29Z</time>
      </trkpt>
      <trkpt lat="50.621502" lon="6.484939">
        <ele>407.736000</ele>
        <time>2008-10-23T23:48:49Z</time>
      </trkpt>
      <trkpt lat="50.621346" lon="6.484739">
        <ele>408.217000</ele>
        <time>2008-10-23T23:49:08Z</time>
      </trkpt>
      <trkpt lat="50.621223" lon="6.484600">
        <ele>410.620000</ele>
        <time>2008-10-23T23:49:22Z</time>
      </trkpt>
      <trkpt lat="50.621154" lon="6.484469">
        <ele>408.698000</ele>
        <time>2008-10-23T23:49:32Z</time>
      </trkpt>
      <trkpt lat="50.621113" lon="6.484408">
        <ele>408.698000</ele>
        <time>2008-10-23T23:49:37Z</time>
      </trkpt>
      <trkpt lat="50.620994" lon="6.484190">
        <ele>409.659000</ele>
        <time>2008-10-23T23:49:54Z</time>
      </trkpt>
      <trkpt lat="50.620823" lon="6.484075">
        <ele>412.062000</ele>
        <time>2008-10-23T23:50:12Z</time>
      </trkpt>
      <trkpt lat="50.620666" lon="6.483998">
        <ele>413.024000</ele>
        <time>2008-10-23T23:50:27Z</time>
      </trkpt>
      <trkpt lat="50.620526" lon="6.483921">
        <ele>414.465000</ele>
        <time>2008-10-23T23:50:41Z</time>
      </trkpt>
      <trkpt lat="50.620450" lon="6.483917">
        <ele>414.465000</ele>
        <time>2008-10-23T23:50:48Z</time>
      </trkpt>
      <trkpt lat="50.620403" lon="6.483903">
        <ele>414.946000</ele>
        <time>2008-10-23T23:50:52Z</time>
      </trkpt>
      <trkpt lat="50.620257" lon="6.483846">
        <ele>416.388000</ele>
        <time>2008-10-23T23:51:06Z</time>
      </trkpt>
      <trkpt lat="50.620148" lon="6.483812">
        <ele>417.830000</ele>
        <time>2008-10-23T23:51:17Z</time>
      </trkpt>
      <trkpt lat="50.620074" lon="6.483796">
        <ele>417.830000</ele>
        <time>2008-10-23T23:51:24Z</time>
      </trkpt>
      <trkpt lat="50.620033" lon="6.483805">
        <ele>417.830000</ele>
        <time>2008-10-23T23:51:28Z</time>
      </trkpt>
      <trkpt lat="50.619887" lon="6.483735">
        <ele>420.233000</ele>
        <time>2008-10-23T23:51:42Z</time>
      </trkpt>
      <trkpt lat="50.619819" lon="6.483678">
        <ele>419.753000</ele>
        <time>2008-10-23T23:51:49Z</time>
      </trkpt>
      <trkpt lat="50.619693" lon="6.483550">
        <ele>420.714000</ele>
        <time>2008-10-23T23:52:03Z</time>
      </trkpt>
      <trkpt lat="50.619576" lon="6.483347">
        <ele>421.195000</ele>
        <time>2008-10-23T23:52:19Z</time>
      </trkpt>
      <trkpt lat="50.619496" lon="6.483166">
        <ele>420.714000</ele>
        <time>2008-10-23T23:52:32Z</time>
      </trkpt>
      <trkpt lat="50.619439" lon="6.483072">
        <ele>421.195000</ele>
        <time>2008-10-23T23:52:40Z</time>
      </trkpt>
      <trkpt lat="50.619409" lon="6.482997">
        <ele>421.675000</ele>
        <time>2008-10-23T23:52:45Z</time>
      </trkpt>
      <trkpt lat="50.619321" lon="6.482854">
        <ele>421.675000</ele>
        <time>2008-10-23T23:52:57Z</time>
      </trkpt>
      <trkpt lat="50.619270" lon="6.482608">
        <ele>421.195000</ele>
        <time>2008-10-23T23:53:12Z</time>
      </trkpt>
      <trkpt lat="50.619263" lon="6.482593">
        <ele>420.714000</ele>
        <time>2008-10-23T23:53:13Z</time>
      </trkpt>
      <trkpt lat="50.619227" lon="6.482536">
        <ele>420.233000</ele>
        <time>2008-10-23T23:53:18Z</time>
      </trkpt>
      <trkpt lat="50.619125" lon="6.482209">
        <ele>419.272000</ele>
        <time>2008-10-23T23:53:40Z</time>
      </trkpt>
      <trkpt lat="50.619113" lon="6.482157">
        <ele>419.272000</ele>
        <time>2008-10-23T23:53:43Z</time>
      </trkpt>
      <trkpt lat="50.619091" lon="6.482121">
        <ele>417.830000</ele>
        <time>2008-10-23T23:53:46Z</time>
      </trkpt>
      <trkpt lat="50.619077" lon="6.482049">
        <ele>419.272000</ele>
        <time>2008-10-23T23:53:51Z</time>
      </trkpt>
      <trkpt lat="50.619083" lon="6.481870">
        <ele>418.792000</ele>
        <time>2008-10-23T23:54:01Z</time>
      </trkpt>
      <trkpt lat="50.619079" lon="6.481842">
        <ele>418.311000</ele>
        <time>2008-10-23T23:54:03Z</time>
      </trkpt>
      <trkpt lat="50.619155" lon="6.481759">
        <ele>418.311000</ele>
        <time>2008-10-23T23:54:11Z</time>
      </trkpt>
      <trkpt lat="50.619247" lon="6.481612">
        <ele>418.792000</ele>
        <time>2008-10-23T23:54:24Z</time>
      </trkpt>
      <trkpt lat="50.619360" lon="6.481431">
        <ele>419.272000</ele>
        <time>2008-10-23T23:54:39Z</time>
      </trkpt>
      <trkpt lat="50.619404" lon="6.481374">
        <ele>419.272000</ele>
        <time>2008-10-23T23:54:44Z</time>
      </trkpt>
      <trkpt lat="50.619363" lon="6.481444">
        <ele>418.792000</ele>
        <time>2008-10-23T23:54:50Z</time>
      </trkpt>
      <trkpt lat="50.619328" lon="6.481505">
        <ele>419.753000</ele>
        <time>2008-10-23T23:54:55Z</time>
      </trkpt>
      <trkpt lat="50.619197" lon="6.481742">
        <ele>418.792000</ele>
        <time>2008-10-23T23:55:13Z</time>
      </trkpt>
      <trkpt lat="50.619159" lon="6.481778">
        <ele>419.753000</ele>
        <time>2008-10-23T23:55:17Z</time>
      </trkpt>
      <trkpt lat="50.619066" lon="6.481591">
        <ele>419.272000</ele>
        <time>2008-10-23T23:55:31Z</time>
      </trkpt>
      <trkpt lat="50.618964" lon="6.481349">
        <ele>418.792000</ele>
        <time>2008-10-23T23:55:49Z</time>
      </trkpt>
      <trkpt lat="50.618896" lon="6.481193">
        <ele>419.753000</ele>
        <time>2008-10-23T23:56:00Z</time>
      </trkpt>
      <trkpt lat="50.618769" lon="6.480883">
        <ele>419.272000</ele>
        <time>2008-10-23T23:56:22Z</time>
      </trkpt>
      <trkpt lat="50.618714" lon="6.480784">
        <ele>420.233000</ele>
        <time>2008-10-23T23:56:30Z</time>
      </trkpt>
      <trkpt lat="50.618672" lon="6.480704">
        <ele>420.233000</ele>
        <time>2008-10-23T23:56:36Z</time>
      </trkpt>
      <trkpt lat="50.618543" lon="6.480456">
        <ele>420.714000</ele>
        <time>2008-10-23T23:56:55Z</time>
      </trkpt>
      <trkpt lat="50.618428" lon="6.480180">
        <ele>420.233000</ele>
        <time>2008-10-23T23:57:14Z</time>
      </trkpt>
      <trkpt lat="50.618326" lon="6.479928">
        <ele>421.675000</ele>
        <time>2008-10-23T23:57:32Z</time>
      </trkpt>
      <trkpt lat="50.618280" lon="6.479824">
        <ele>421.675000</ele>
        <time>2008-10-23T23:57:39Z</time>
      </trkpt>
      <trkpt lat="50.618212" lon="6.479594">
        <ele>422.156000</ele>
        <time>2008-10-23T23:57:54Z</time>
      </trkpt>
      <trkpt lat="50.618208" lon="6.479391">
        <ele>421.675000</ele>
        <time>2008-10-23T23:58:07Z</time>
      </trkpt>
      <trkpt lat="50.618235" lon="6.479364">
        <ele>423.598000</ele>
        <time>2008-10-23T23:58:10Z</time>
      </trkpt>
      <trkpt lat="50.618277" lon="6.479347">
        <ele>423.117000</ele>
        <time>2008-10-23T23:58:14Z</time>
      </trkpt>
      <trkpt lat="50.618329" lon="6.479380">
        <ele>423.117000</ele>
        <time>2008-10-23T23:58:19Z</time>
      </trkpt>
      <trkpt lat="50.618315" lon="6.479314">
        <ele>423.117000</ele>
        <time>2008-10-23T23:58:23Z</time>
      </trkpt>
      <trkpt lat="50.618385" lon="6.479210">
        <ele>422.156000</ele>
        <time>2008-10-23T23:58:32Z</time>
      </trkpt>
      <trkpt lat="50.618459" lon="6.479165">
        <ele>422.156000</ele>
        <time>2008-10-23T23:58:39Z</time>
      </trkpt>
      <trkpt lat="50.618483" lon="6.479132">
        <ele>421.675000</ele>
        <time>2008-10-23T23:58:42Z</time>
      </trkpt>
      <trkpt lat="50.618615" lon="6.479063">
        <ele>422.637000</ele>
        <time>2008-10-23T23:58:55Z</time>
      </trkpt>
      <trkpt lat="50.618696" lon="6.479083">
        <ele>424.079000</ele>
        <time>2008-10-23T23:59:03Z</time>
      </trkpt>
      <trkpt lat="50.618643" lon="6.479029">
        <ele>423.117000</ele>
        <time>2008-10-23T23:59:09Z</time>
      </trkpt>
      <trkpt lat="50.618573" lon="6.479249">
        <ele>423.117000</ele>
        <time>2008-10-23T23:59:23Z</time>
      </trkpt>
      <trkpt lat="50.618564" lon="6.479453">
        <ele>422.637000</ele>
        <time>2008-10-23T23:59:35Z</time>
      </trkpt>
      <trkpt lat="50.618554" lon="6.479446">
        <ele>424.079000</ele>
        <time>2008-10-23T23:59:37Z</time>
      </trkpt>
      <trkpt lat="50.618543" lon="6.479687">
        <ele>424.079000</ele>
        <time>2008-10-23T23:59:51Z</time>
      </trkpt>
      <trkpt lat="50.618868" lon="6.479665">
        <ele>424.079000</ele>
        <time>2008-10-24T00:00:21Z</time>
      </trkpt>
      <trkpt lat="50.618694" lon="6.478787">
        <ele>423.117000</ele>
        <time>2008-10-24T00:01:16Z</time>
      </trkpt>
      <trkpt lat="50.618711" lon="6.479015">
        <ele>424.559000</ele>
        <time>2008-10-24T00:01:29Z</time>
      </trkpt>
      <trkpt lat="50.618842" lon="6.478867">
        <ele>423.117000</ele>
        <time>2008-10-24T00:01:44Z</time>
      </trkpt>
      <trkpt lat="50.618956" lon="6.478723">
        <ele>423.117000</ele>
        <time>2008-10-24T00:01:58Z</time>
      </trkpt>
      <trkpt lat="50.619020" lon="6.478616">
        <ele>422.156000</ele>
        <time>2008-10-24T00:02:07Z</time>
      </trkpt>
      <trkpt lat="50.619070" lon="6.478594">
        <ele>420.714000</ele>
        <time>2008-10-24T00:02:12Z</time>
      </trkpt>
      <trkpt lat="50.619203" lon="6.478579">
        <ele>418.311000</ele>
        <time>2008-10-24T00:02:24Z</time>
      </trkpt>
      <trkpt lat="50.619306" lon="6.478572">
        <ele>417.350000</ele>
        <time>2008-10-24T00:02:34Z</time>
      </trkpt>
      <trkpt lat="50.619492" lon="6.478551">
        <ele>415.427000</ele>
        <time>2008-10-24T00:02:51Z</time>
      </trkpt>
      <trkpt lat="50.619502" lon="6.478557">
        <ele>415.427000</ele>
        <time>2008-10-24T00:02:52Z</time>
      </trkpt>
      <trkpt lat="50.619527" lon="6.478589">
        <ele>414.946000</ele>
        <time>2008-10-24T00:02:55Z</time>
      </trkpt>
      <trkpt lat="50.619700" lon="6.478750">
        <ele>413.504000</ele>
        <time>2008-10-24T00:03:14Z</time>
      </trkpt>
      <trkpt lat="50.619704" lon="6.478754">
        <ele>412.062000</ele>
        <time>2008-10-24T00:03:14Z</time>
      </trkpt>
      <trkpt lat="50.619750" lon="6.478758">
        <ele>412.062000</ele>
        <time>2008-10-24T00:03:19Z</time>
      </trkpt>
      <trkpt lat="50.619825" lon="6.478830">
        <ele>410.620000</ele>
        <time>2008-10-24T00:03:27Z</time>
      </trkpt>
      <trkpt lat="50.619882" lon="6.478880">
        <ele>411.101000</ele>
        <time>2008-10-24T00:03:33Z</time>
      </trkpt>
      <trkpt lat="50.619970" lon="6.478929">
        <ele>409.659000</ele>
        <time>2008-10-24T00:03:42Z</time>
      </trkpt>
      <trkpt lat="50.620014" lon="6.479003">
        <ele>408.698000</ele>
        <time>2008-10-24T00:03:48Z</time>
      </trkpt>
      <trkpt lat="50.620040" lon="6.479050">
        <ele>407.736000</ele>
        <time>2008-10-24T00:03:51Z</time>
      </trkpt>
      <trkpt lat="50.620060" lon="6.479071">
        <ele>407.736000</ele>
        <time>2008-10-24T00:03:54Z</time>
      </trkpt>
      <trkpt lat="50.620170" lon="6.479211">
        <ele>405.814000</ele>
        <time>2008-10-24T00:04:07Z</time>
      </trkpt>
      <trkpt lat="50.620223" lon="6.479331">
        <ele>402.449000</ele>
        <time>2008-10-24T00:04:15Z</time>
      </trkpt>
      <trkpt lat="50.620289" lon="6.479423">
        <ele>400.526000</ele>
        <time>2008-10-24T00:04:24Z</time>
      </trkpt>
      <trkpt lat="50.620417" lon="6.479473">
        <ele>397.642000</ele>
        <time>2008-10-24T00:04:36Z</time>
      </trkpt>
      <trkpt lat="50.620522" lon="6.479631">
        <ele>395.720000</ele>
        <time>2008-10-24T00:04:49Z</time>
      </trkpt>
      <trkpt lat="50.620568" lon="6.479617">
        <ele>395.720000</ele>
        <time>2008-10-24T00:04:54Z</time>
      </trkpt>
      <trkpt lat="50.620583" lon="6.479600">
        <ele>393.797000</ele>
        <time>2008-10-24T00:04:56Z</time>
      </trkpt>
      <trkpt lat="50.620645" lon="6.479429">
        <ele>393.797000</ele>
        <time>2008-10-24T00:05:07Z</time>
      </trkpt>
      <trkpt lat="50.620849" lon="6.479337">
        <ele>392.355000</ele>
        <time>2008-10-24T00:05:27Z</time>
      </trkpt>
      <trkpt lat="50.620908" lon="6.479386">
        <ele>391.875000</ele>
        <time>2008-10-24T00:05:33Z</time>
      </trkpt>
      <trkpt lat="50.621068" lon="6.479471">
        <ele>391.875000</ele>
        <time>2008-10-24T00:05:49Z</time>
      </trkpt>
      <trkpt lat="50.621148" lon="6.479530">
        <ele>390.433000</ele>
        <time>2008-10-24T00:05:57Z</time>
      </trkpt>
      <trkpt lat="50.621284" lon="6.479567">
        <ele>389.471000</ele>
        <time>2008-10-24T00:06:10Z</time>
      </trkpt>
      <trkpt lat="50.621308" lon="6.479569">
        <ele>388.510000</ele>
        <time>2008-10-24T00:06:12Z</time>
      </trkpt>
      <trkpt lat="50.621368" lon="6.479610">
        <ele>388.029000</ele>
        <time>2008-10-24T00:06:19Z</time>
      </trkpt>
      <trkpt lat="50.621622" lon="6.479658">
        <ele>389.952000</ele>
        <time>2008-10-24T00:06:42Z</time>
      </trkpt>
      <trkpt lat="50.621923" lon="6.479601">
        <ele>392.836000</ele>
        <time>2008-10-24T00:07:11Z</time>
      </trkpt>
      <trkpt lat="50.621980" lon="6.479631">
        <ele>393.797000</ele>
        <time>2008-10-24T00:07:16Z</time>
      </trkpt>
      <trkpt lat="50.622098" lon="6.479595">
        <ele>397.162000</ele>
        <time>2008-10-24T00:07:28Z</time>
      </trkpt>
      <trkpt lat="50.622187" lon="6.479555">
        <ele>398.123000</ele>
        <time>2008-10-24T00:07:36Z</time>
      </trkpt>
      <trkpt lat="50.622220" lon="6.479569">
        <ele>398.123000</ele>
        <time>2008-10-24T00:07:39Z</time>
      </trkpt>
      <trkpt lat="50.622324" lon="6.479385">
        <ele>401.007000</ele>
        <time>2008-10-24T00:07:54Z</time>
      </trkpt>
      <trkpt lat="50.622446" lon="6.478969">
        <ele>404.372000</ele>
        <time>2008-10-24T00:08:21Z</time>
      </trkpt>
      <trkpt lat="50.622445" lon="6.478762">
        <ele>407.256000</ele>
        <time>2008-10-24T00:08:33Z</time>
      </trkpt>
      <trkpt lat="50.622429" lon="6.478474">
        <ele>409.659000</ele>
        <time>2008-10-24T00:08:50Z</time>
      </trkpt>
      <trkpt lat="50.622469" lon="6.478383">
        <ele>410.140000</ele>
        <time>2008-10-24T00:08:57Z</time>
      </trkpt>
      <trkpt lat="50.622427" lon="6.478080">
        <ele>412.062000</ele>
        <time>2008-10-24T00:09:15Z</time>
      </trkpt>
      <trkpt lat="50.622372" lon="6.477793">
        <ele>413.504000</ele>
        <time>2008-10-24T00:09:33Z</time>
      </trkpt>
      <trkpt lat="50.622182" lon="6.477759">
        <ele>416.869000</ele>
        <time>2008-10-24T00:09:51Z</time>
      </trkpt>
      <trkpt lat="50.622084" lon="6.477703">
        <ele>413.985000</ele>
        <time>2008-10-24T00:10:01Z</time>
      </trkpt>
      <trkpt lat="50.622075" lon="6.477800">
        <ele>416.869000</ele>
        <time>2008-10-24T00:10:07Z</time>
      </trkpt>
      <trkpt lat="50.622032" lon="6.477869">
        <ele>420.233000</ele>
        <time>2008-10-24T00:10:12Z</time>
      </trkpt>
      <trkpt lat="50.622156" lon="6.477645">
        <ele>423.117000</ele>
        <time>2008-10-24T00:10:30Z</time>
      </trkpt>
      <trkpt lat="50.622189" lon="6.477213">
        <ele>421.195000</ele>
        <time>2008-10-24T00:10:56Z</time>
      </trkpt>
      <trkpt lat="50.622291" lon="6.476950">
        <ele>421.195000</ele>
        <time>2008-10-24T00:11:14Z</time>
      </trkpt>
      <trkpt lat="50.622293" lon="6.476904">
        <ele>418.792000</ele>
        <time>2008-10-24T00:11:17Z</time>
      </trkpt>
      <trkpt lat="50.622376" lon="6.476774">
        <ele>415.427000</ele>
        <time>2008-10-24T00:11:28Z</time>
      </trkpt>
      <trkpt lat="50.622420" lon="6.476636">
        <ele>412.543000</ele>
        <time>2008-10-24T00:11:37Z</time>
      </trkpt>
      <trkpt lat="50.622444" lon="6.476427">
        <ele>410.140000</ele>
        <time>2008-10-24T00:11:49Z</time>
      </trkpt>
      <trkpt lat="50.622431" lon="6.476249">
        <ele>407.256000</ele>
        <time>2008-10-24T00:12:00Z</time>
      </trkpt>
      <trkpt lat="50.622433" lon="6.476085">
        <ele>403.891000</ele>
        <time>2008-10-24T00:12:10Z</time>
      </trkpt>
      <trkpt lat="50.622429" lon="6.475813">
        <ele>400.526000</ele>
        <time>2008-10-24T00:12:26Z</time>
      </trkpt>
      <trkpt lat="50.622349" lon="6.475542">
        <ele>398.604000</ele>
        <time>2008-10-24T00:12:43Z</time>
      </trkpt>
      <trkpt lat="50.622294" lon="6.475466">
        <ele>397.162000</ele>
        <time>2008-10-24T00:12:50Z</time>
      </trkpt>
      <trkpt lat="50.621967" lon="6.475141">
        <ele>395.720000</ele>
        <time>2008-10-24T00:13:26Z</time>
      </trkpt>
      <trkpt lat="50.621886" lon="6.475028">
        <ele>393.797000</ele>
        <time>2008-10-24T00:13:36Z</time>
      </trkpt>
      <trkpt lat="50.621810" lon="6.474907">
        <ele>393.797000</ele>
        <time>2008-10-24T00:13:47Z</time>
      </trkpt>
      <trkpt lat="50.621734" lon="6.474683">
        <ele>392.836000</ele>
        <time>2008-10-24T00:14:02Z</time>
      </trkpt>
      <trkpt lat="50.621494" lon="6.474202">
        <ele>389.471000</ele>
        <time>2008-10-24T00:14:38Z</time>
      </trkpt>
      <trkpt lat="50.621413" lon="6.473779">
        <ele>388.991000</ele>
        <time>2008-10-24T00:15:04Z</time>
      </trkpt>
      <trkpt lat="50.621333" lon="6.473449">
        <ele>387.068000</ele>
        <time>2008-10-24T00:15:25Z</time>
      </trkpt>
      <trkpt lat="50.621336" lon="6.473207">
        <ele>386.107000</ele>
        <time>2008-10-24T00:15:39Z</time>
      </trkpt>
      <trkpt lat="50.621343" lon="6.473152">
        <ele>386.107000</ele>
        <time>2008-10-24T00:15:43Z</time>
      </trkpt>
      <trkpt lat="50.621348" lon="6.472963">
        <ele>384.184000</ele>
        <time>2008-10-24T00:15:54Z</time>
      </trkpt>
      <trkpt lat="50.621309" lon="6.472496">
        <ele>382.742000</ele>
        <time>2008-10-24T00:16:22Z</time>
      </trkpt>
      <trkpt lat="50.621323" lon="6.472307">
        <ele>382.742000</ele>
        <time>2008-10-24T00:16:33Z</time>
      </trkpt>
      <trkpt lat="50.621287" lon="6.472000">
        <ele>383.703000</ele>
        <time>2008-10-24T00:16:51Z</time>
      </trkpt>
      <trkpt lat="50.621259" lon="6.471920">
        <ele>384.184000</ele>
        <time>2008-10-24T00:16:57Z</time>
      </trkpt>
      <trkpt lat="50.621131" lon="6.471572">
        <ele>386.587000</ele>
        <time>2008-10-24T00:17:21Z</time>
      </trkpt>
      <trkpt lat="50.621100" lon="6.471268">
        <ele>388.510000</ele>
        <time>2008-10-24T00:17:39Z</time>
      </trkpt>
      <trkpt lat="50.621036" lon="6.470988">
        <ele>390.913000</ele>
        <time>2008-10-24T00:17:57Z</time>
      </trkpt>
      <trkpt lat="50.620974" lon="6.470856">
        <ele>393.797000</ele>
        <time>2008-10-24T00:18:06Z</time>
      </trkpt>
      <trkpt lat="50.621020" lon="6.470569">
        <ele>390.913000</ele>
        <time>2008-10-24T00:18:24Z</time>
      </trkpt>
      <trkpt lat="50.621023" lon="6.470554">
        <ele>390.913000</ele>
        <time>2008-10-24T00:18:25Z</time>
      </trkpt>
      <trkpt lat="50.621058" lon="6.470450">
        <ele>389.471000</ele>
        <time>2008-10-24T00:18:32Z</time>
      </trkpt>
      <trkpt lat="50.621065" lon="6.470430">
        <ele>388.991000</ele>
        <time>2008-10-24T00:18:33Z</time>
      </trkpt>
      <trkpt lat="50.621172" lon="6.470217">
        <ele>386.107000</ele>
        <time>2008-10-24T00:18:49Z</time>
      </trkpt>
      <trkpt lat="50.621261" lon="6.470027">
        <ele>383.223000</ele>
        <time>2008-10-24T00:19:03Z</time>
      </trkpt>
      <trkpt lat="50.621390" lon="6.469878">
        <ele>380.819000</ele>
        <time>2008-10-24T00:19:18Z</time>
      </trkpt>
      <trkpt lat="50.621401" lon="6.469872">
        <ele>380.819000</ele>
        <time>2008-10-24T00:19:19Z</time>
      </trkpt>
      <trkpt lat="50.621471" lon="6.469749">
        <ele>379.858000</ele>
        <time>2008-10-24T00:19:29Z</time>
      </trkpt>
      <trkpt lat="50.621500" lon="6.469677">
        <ele>379.858000</ele>
        <time>2008-10-24T00:19:34Z</time>
      </trkpt>
      <trkpt lat="50.621566" lon="6.469621">
        <ele>378.897000</ele>
        <time>2008-10-24T00:19:41Z</time>
      </trkpt>
      <trkpt lat="50.621608" lon="6.469623">
        <ele>378.897000</ele>
        <time>2008-10-24T00:19:45Z</time>
      </trkpt>
      <trkpt lat="50.621684" lon="6.469587">
        <ele>375.532000</ele>
        <time>2008-10-24T00:19:52Z</time>
      </trkpt>
      <trkpt lat="50.621803" lon="6.469523">
        <ele>371.687000</ele>
        <time>2008-10-24T00:20:04Z</time>
      </trkpt>
      <trkpt lat="50.621945" lon="6.469467">
        <ele>368.803000</ele>
        <time>2008-10-24T00:20:18Z</time>
      </trkpt>
      <trkpt lat="50.622022" lon="6.469347">
        <ele>365.438000</ele>
        <time>2008-10-24T00:20:28Z</time>
      </trkpt>
      <trkpt lat="50.622141" lon="6.469180">
        <ele>363.996000</ele>
        <time>2008-10-24T00:20:43Z</time>
      </trkpt>
      <trkpt lat="50.622195" lon="6.468988">
        <ele>363.516000</ele>
        <time>2008-10-24T00:20:55Z</time>
      </trkpt>
      <trkpt lat="50.622212" lon="6.468714">
        <ele>362.554000</ele>
        <time>2008-10-24T00:21:12Z</time>
      </trkpt>
      <trkpt lat="50.622220" lon="6.468560">
        <ele>358.709000</ele>
        <time>2008-10-24T00:21:21Z</time>
      </trkpt>
      <trkpt lat="50.622219" lon="6.468404">
        <ele>356.786000</ele>
        <time>2008-10-24T00:21:30Z</time>
      </trkpt>
      <trkpt lat="50.622208" lon="6.468383">
        <ele>353.422000</ele>
        <time>2008-10-24T00:21:32Z</time>
      </trkpt>
      <trkpt lat="50.622201" lon="6.468351">
        <ele>349.577000</ele>
        <time>2008-10-24T00:21:34Z</time>
      </trkpt>
      <trkpt lat="50.622182" lon="6.468272">
        <ele>349.577000</ele>
        <time>2008-10-24T00:21:39Z</time>
      </trkpt>
      <trkpt lat="50.622242" lon="6.468279">
        <ele>349.577000</ele>
        <time>2008-10-24T00:21:44Z</time>
      </trkpt>
      <trkpt lat="50.622324" lon="6.468215">
        <ele>350.057000</ele>
        <time>2008-10-24T00:21:53Z</time>
      </trkpt>
      <trkpt lat="50.622503" lon="6.468247">
        <ele>348.615000</ele>
        <time>2008-10-24T00:22:10Z</time>
      </trkpt>
      <trkpt lat="50.622596" lon="6.468465">
        <ele>347.173000</ele>
        <time>2008-10-24T00:22:25Z</time>
      </trkpt>
      <trkpt lat="50.622633" lon="6.468691">
        <ele>347.173000</ele>
        <time>2008-10-24T00:22:39Z</time>
      </trkpt>
      <trkpt lat="50.622630" lon="6.468883">
        <ele>347.654000</ele>
        <time>2008-10-24T00:22:50Z</time>
      </trkpt>
      <trkpt lat="50.622605" lon="6.468973">
        <ele>346.693000</ele>
        <time>2008-10-24T00:22:56Z</time>
      </trkpt>
      <trkpt lat="50.622606" lon="6.469034">
        <ele>346.212000</ele>
        <time>2008-10-24T00:23:00Z</time>
      </trkpt>
      <trkpt lat="50.622582" lon="6.469104">
        <ele>346.693000</ele>
        <time>2008-10-24T00:23:04Z</time>
      </trkpt>
      <trkpt lat="50.622557" lon="6.469315">
        <ele>345.731000</ele>
        <time>2008-10-24T00:23:17Z</time>
      </trkpt>
      <trkpt lat="50.622543" lon="6.469447">
        <ele>345.731000</ele>
        <time>2008-10-24T00:23:25Z</time>
      </trkpt>
      <trkpt lat="50.622466" lon="6.469697">
        <ele>346.212000</ele>
        <time>2008-10-24T00:23:42Z</time>
      </trkpt>
      <trkpt lat="50.622417" lon="6.469957">
        <ele>345.731000</ele>
        <time>2008-10-24T00:23:58Z</time>
      </trkpt>
      <trkpt lat="50.622349" lon="6.470320">
        <ele>344.770000</ele>
        <time>2008-10-24T00:24:20Z</time>
      </trkpt>
      <trkpt lat="50.622326" lon="6.470532">
        <ele>344.770000</ele>
        <time>2008-10-24T00:24:33Z</time>
      </trkpt>
      <trkpt lat="50.622288" lon="6.470603">
        <ele>344.770000</ele>
        <time>2008-10-24T00:24:38Z</time>
      </trkpt>
      <trkpt lat="50.622284" lon="6.470730">
        <ele>344.770000</ele>
        <time>2008-10-24T00:24:46Z</time>
      </trkpt>
      <trkpt lat="50.622264" lon="6.470752">
        <ele>345.251000</ele>
        <time>2008-10-24T00:24:48Z</time>
      </trkpt>
      <trkpt lat="50.622189" lon="6.470934">
        <ele>345.251000</ele>
        <time>2008-10-24T00:25:01Z</time>
      </trkpt>
      <trkpt lat="50.622159" lon="6.471002">
        <ele>345.731000</ele>
        <time>2008-10-24T00:25:06Z</time>
      </trkpt>
      <trkpt lat="50.622139" lon="6.471072">
        <ele>345.731000</ele>
        <time>2008-10-24T00:25:10Z</time>
      </trkpt>
      <trkpt lat="50.622060" lon="6.471463">
        <ele>345.731000</ele>
        <time>2008-10-24T00:25:35Z</time>
      </trkpt>
      <trkpt lat="50.622076" lon="6.471696">
        <ele>345.251000</ele>
        <time>2008-10-24T00:25:49Z</time>
      </trkpt>
      <trkpt lat="50.622082" lon="6.472081">
        <ele>344.289000</ele>
        <time>2008-10-24T00:26:11Z</time>
      </trkpt>
      <trkpt lat="50.621987" lon="6.472517">
        <ele>343.809000</ele>
        <time>2008-10-24T00:26:39Z</time>
      </trkpt>
      <trkpt lat="50.622092" lon="6.472688">
        <ele>343.328000</ele>
        <time>2008-10-24T00:26:53Z</time>
      </trkpt>
      <trkpt lat="50.622116" lon="6.473064">
        <ele>342.367000</ele>
        <time>2008-10-24T00:27:15Z</time>
      </trkpt>
      <trkpt lat="50.622287" lon="6.473124">
        <ele>343.328000</ele>
        <time>2008-10-24T00:27:32Z</time>
      </trkpt>
      <trkpt lat="50.622349" lon="6.473090">
        <ele>342.847000</ele>
        <time>2008-10-24T00:27:38Z</time>
      </trkpt>
      <trkpt lat="50.622369" lon="6.473040">
        <ele>342.847000</ele>
        <time>2008-10-24T00:27:41Z</time>
      </trkpt>
      <trkpt lat="50.622421" lon="6.472956">
        <ele>341.405000</ele>
        <time>2008-10-24T00:27:48Z</time>
      </trkpt>
      <trkpt lat="50.622709" lon="6.472447">
        <ele>340.444000</ele>
        <time>2008-10-24T00:28:29Z</time>
      </trkpt>
      <trkpt lat="50.622821" lon="6.472343">
        <ele>338.521000</ele>
        <time>2008-10-24T00:28:41Z</time>
      </trkpt>
      <trkpt lat="50.622907" lon="6.472305">
        <ele>337.560000</ele>
        <time>2008-10-24T00:28:49Z</time>
      </trkpt>
      <trkpt lat="50.622934" lon="6.472228">
        <ele>337.079000</ele>
        <time>2008-10-24T00:28:54Z</time>
      </trkpt>
      <trkpt lat="50.623072" lon="6.472177">
        <ele>336.599000</ele>
        <time>2008-10-24T00:29:07Z</time>
      </trkpt>
      <trkpt lat="50.623247" lon="6.472150">
        <ele>334.195000</ele>
        <time>2008-10-24T00:29:24Z</time>
      </trkpt>
      <trkpt lat="50.623280" lon="6.472139">
        <ele>335.157000</ele>
        <time>2008-10-24T00:29:27Z</time>
      </trkpt>
      <trkpt lat="50.623302" lon="6.472142">
        <ele>334.195000</ele>
        <time>2008-10-24T00:29:29Z</time>
      </trkpt>
      <trkpt lat="50.623268" lon="6.472066">
        <ele>333.715000</ele>
        <time>2008-10-24T00:29:35Z</time>
      </trkpt>
      <trkpt lat="50.623285" lon="6.471974">
        <ele>334.676000</ele>
        <time>2008-10-24T00:29:40Z</time>
      </trkpt>
      <trkpt lat="50.623495" lon="6.471936">
        <ele>334.676000</ele>
        <time>2008-10-24T00:30:00Z</time>
      </trkpt>
      <trkpt lat="50.623536" lon="6.471917">
        <ele>334.676000</ele>
        <time>2008-10-24T00:30:04Z</time>
      </trkpt>
      <trkpt lat="50.623617" lon="6.471866">
        <ele>335.157000</ele>
        <time>2008-10-24T00:30:12Z</time>
      </trkpt>
      <trkpt lat="50.623784" lon="6.471711">
        <ele>333.234000</ele>
        <time>2008-10-24T00:30:30Z</time>
      </trkpt>
      <trkpt lat="50.623905" lon="6.471645">
        <ele>331.792000</ele>
        <time>2008-10-24T00:30:42Z</time>
      </trkpt>
      <trkpt lat="50.623986" lon="6.471625">
        <ele>331.312000</ele>
        <time>2008-10-24T00:30:50Z</time>
      </trkpt>
      <trkpt lat="50.624097" lon="6.471550">
        <ele>331.312000</ele>
        <time>2008-10-24T00:31:01Z</time>
      </trkpt>
      <trkpt lat="50.624277" lon="6.471558">
        <ele>330.831000</ele>
        <time>2008-10-24T00:31:18Z</time>
      </trkpt>
      <trkpt lat="50.624292" lon="6.471555">
        <ele>330.831000</ele>
        <time>2008-10-24T00:31:19Z</time>
      </trkpt>
      <trkpt lat="50.624437" lon="6.471470">
        <ele>330.350000</ele>
        <time>2008-10-24T00:31:34Z</time>
      </trkpt>
      <trkpt lat="50.624633" lon="6.471311">
        <ele>329.389000</ele>
        <time>2008-10-24T00:31:54Z</time>
      </trkpt>
      <trkpt lat="50.624715" lon="6.471324">
        <ele>327.466000</ele>
        <time>2008-10-24T00:32:02Z</time>
      </trkpt>
      <trkpt lat="50.624800" lon="6.471369">
        <ele>327.466000</ele>
        <time>2008-10-24T00:32:10Z</time>
      </trkpt>
      <trkpt lat="50.624886" lon="6.471572">
        <ele>327.466000</ele>
        <time>2008-10-24T00:32:25Z</time>
      </trkpt>
      <trkpt lat="50.625009" lon="6.471791">
        <ele>327.466000</ele>
        <time>2008-10-24T00:32:42Z</time>
      </trkpt>
      <trkpt lat="50.625043" lon="6.471749">
        <ele>324.582000</ele>
        <time>2008-10-24T00:32:46Z</time>
      </trkpt>
      <trkpt lat="50.625053" lon="6.471709">
        <ele>323.140000</ele>
        <time>2008-10-24T00:32:49Z</time>
      </trkpt>
      <trkpt lat="50.624995" lon="6.471502">
        <ele>319.776000</ele>
        <time>2008-10-24T00:33:02Z</time>
      </trkpt>
      <trkpt lat="50.624979" lon="6.471275">
        <ele>316.892000</ele>
        <time>2008-10-24T00:33:16Z</time>
      </trkpt>
      <trkpt lat="50.625108" lon="6.471342">
        <ele>314.969000</ele>
        <time>2008-10-24T00:33:28Z</time>
      </trkpt>
      <trkpt lat="50.625126" lon="6.471355">
        <ele>314.969000</ele>
        <time>2008-10-24T00:33:30Z</time>
      </trkpt>
      <trkpt lat="50.625248" lon="6.471532">
        <ele>313.527000</ele>
        <time>2008-10-24T00:33:46Z</time>
      </trkpt>
      <trkpt lat="50.625333" lon="6.471638">
        <ele>313.047000</ele>
        <time>2008-10-24T00:33:56Z</time>
      </trkpt>
      <trkpt lat="50.625390" lon="6.471670">
        <ele>312.566000</ele>
        <time>2008-10-24T00:34:01Z</time>
      </trkpt>
      <trkpt lat="50.625514" lon="6.471976">
        <ele>311.604000</ele>
        <time>2008-10-24T00:34:23Z</time>
      </trkpt>
      <trkpt lat="50.625559" lon="6.472079">
        <ele>311.604000</ele>
        <time>2008-10-24T00:34:30Z</time>
      </trkpt>
      <trkpt lat="50.625671" lon="6.472366">
        <ele>309.201000</ele>
        <time>2008-10-24T00:34:50Z</time>
      </trkpt>
      <trkpt lat="50.625789" lon="6.472568">
        <ele>308.240000</ele>
        <time>2008-10-24T00:35:07Z</time>
      </trkpt>
      <trkpt lat="50.625808" lon="6.472670">
        <ele>307.279000</ele>
        <time>2008-10-24T00:35:13Z</time>
      </trkpt>
      <trkpt lat="50.625811" lon="6.472684">
        <ele>306.798000</ele>
        <time>2008-10-24T00:35:14Z</time>
      </trkpt>
      <trkpt lat="50.625860" lon="6.472735">
        <ele>305.356000</ele>
        <time>2008-10-24T00:35:19Z</time>
      </trkpt>
      <trkpt lat="50.625918" lon="6.472812">
        <ele>302.953000</ele>
        <time>2008-10-24T00:35:26Z</time>
      </trkpt>
      <trkpt lat="50.625935" lon="6.472916">
        <ele>301.511000</ele>
        <time>2008-10-24T00:35:33Z</time>
      </trkpt>
      <trkpt lat="50.626047" lon="6.473111">
        <ele>297.665000</ele>
        <time>2008-10-24T00:35:48Z</time>
      </trkpt>
      <trkpt lat="50.626096" lon="6.473165">
        <ele>297.665000</ele>
        <time>2008-10-24T00:35:54Z</time>
      </trkpt>
      <trkpt lat="50.626095" lon="6.473262">
        <ele>296.704000</ele>
        <time>2008-10-24T00:36:00Z</time>
      </trkpt>
      <trkpt lat="50.626112" lon="6.473368">
        <ele>295.262000</ele>
        <time>2008-10-24T00:36:06Z</time>
      </trkpt>
      <trkpt lat="50.626160" lon="6.473538">
        <ele>292.859000</ele>
        <time>2008-10-24T00:36:17Z</time>
      </trkpt>
      <trkpt lat="50.626161" lon="6.473736">
        <ele>290.456000</ele>
        <time>2008-10-24T00:36:29Z</time>
      </trkpt>
      <trkpt lat="50.626221" lon="6.473900">
        <ele>289.014000</ele>
        <time>2008-10-24T00:36:40Z</time>
      </trkpt>
      <trkpt lat="50.626291" lon="6.474093">
        <ele>285.649000</ele>
        <time>2008-10-24T00:36:53Z</time>
      </trkpt>
      <trkpt lat="50.626296" lon="6.474325">
        <ele>284.688000</ele>
        <time>2008-10-24T00:37:07Z</time>
      </trkpt>
      <trkpt lat="50.626352" lon="6.474524">
        <ele>282.284000</ele>
        <time>2008-10-24T00:37:20Z</time>
      </trkpt>
      <trkpt lat="50.626388" lon="6.474605">
        <ele>281.804000</ele>
        <time>2008-10-24T00:37:26Z</time>
      </trkpt>
      <trkpt lat="50.626298" lon="6.474796">
        <ele>282.284000</ele>
        <time>2008-10-24T00:37:40Z</time>
      </trkpt>
      <trkpt lat="50.626345" lon="6.474869">
        <ele>280.842000</ele>
        <time>2008-10-24T00:37:46Z</time>
      </trkpt>
      <trkpt lat="50.626407" lon="6.474980">
        <ele>281.804000</ele>
        <time>2008-10-24T00:37:55Z</time>
      </trkpt>
      <trkpt lat="50.626459" lon="6.475180">
        <ele>279.881000</ele>
        <time>2008-10-24T00:38:08Z</time>
      </trkpt>
      <trkpt lat="50.626445" lon="6.475261">
        <ele>278.920000</ele>
        <time>2008-10-24T00:38:13Z</time>
      </trkpt>
      <trkpt lat="50.626546" lon="6.475463">
        <ele>277.958000</ele>
        <time>2008-10-24T00:38:28Z</time>
      </trkpt>
      <trkpt lat="50.626548" lon="6.475698">
        <ele>276.997000</ele>
        <time>2008-10-24T00:38:42Z</time>
      </trkpt>
      <trkpt lat="50.626585" lon="6.475734">
        <ele>276.997000</ele>
        <time>2008-10-24T00:38:46Z</time>
      </trkpt>
      <trkpt lat="50.626654" lon="6.475893">
        <ele>275.555000</ele>
        <time>2008-10-24T00:38:57Z</time>
      </trkpt>
      <trkpt lat="50.626711" lon="6.476131">
        <ele>275.074000</ele>
        <time>2008-10-24T00:39:12Z</time>
      </trkpt>
      <trkpt lat="50.626720" lon="6.476435">
        <ele>274.113000</ele>
        <time>2008-10-24T00:39:30Z</time>
      </trkpt>
      <trkpt lat="50.626791" lon="6.476537">
        <ele>273.152000</ele>
        <time>2008-10-24T00:39:39Z</time>
      </trkpt>
      <trkpt lat="50.626872" lon="6.476690">
        <ele>272.190000</ele>
        <time>2008-10-24T00:39:51Z</time>
      </trkpt>
      <trkpt lat="50.626910" lon="6.476823">
        <ele>271.710000</ele>
        <time>2008-10-24T00:40:00Z</time>
      </trkpt>
      <trkpt lat="50.627058" lon="6.477173">
        <ele>269.787000</ele>
        <time>2008-10-24T00:40:25Z</time>
      </trkpt>
      <trkpt lat="50.627105" lon="6.477219">
        <ele>270.268000</ele>
        <time>2008-10-24T00:40:30Z</time>
      </trkpt>
      <trkpt lat="50.627170" lon="6.477277">
        <ele>269.787000</ele>
        <time>2008-10-24T00:40:37Z</time>
      </trkpt>
      <trkpt lat="50.627132" lon="6.477486">
        <ele>268.345000</ele>
        <time>2008-10-24T00:40:50Z</time>
      </trkpt>
      <trkpt lat="50.627170" lon="6.477498">
        <ele>268.345000</ele>
        <time>2008-10-24T00:40:53Z</time>
      </trkpt>
      <trkpt lat="50.627309" lon="6.477713">
        <ele>268.345000</ele>
        <time>2008-10-24T00:41:11Z</time>
      </trkpt>
      <trkpt lat="50.627280" lon="6.477852">
        <ele>266.903000</ele>
        <time>2008-10-24T00:41:20Z</time>
      </trkpt>
      <trkpt lat="50.627296" lon="6.477872">
        <ele>267.384000</ele>
        <time>2008-10-24T00:41:22Z</time>
      </trkpt>
      <trkpt lat="50.627433" lon="6.478067">
        <ele>266.422000</ele>
        <time>2008-10-24T00:41:39Z</time>
      </trkpt>
      <trkpt lat="50.627450" lon="6.478340">
        <ele>264.500000</ele>
        <time>2008-10-24T00:41:55Z</time>
      </trkpt>
      <trkpt lat="50.627438" lon="6.478499">
        <ele>263.058000</ele>
        <time>2008-10-24T00:42:05Z</time>
      </trkpt>
      <trkpt lat="50.627449" lon="6.478499">
        <ele>262.577000</ele>
        <time>2008-10-24T00:42:06Z</time>
      </trkpt>
      <trkpt lat="50.627534" lon="6.478549">
        <ele>262.577000</ele>
        <time>2008-10-24T00:42:14Z</time>
      </trkpt>
      <trkpt lat="50.627735" lon="6.478702">
        <ele>262.097000</ele>
        <time>2008-10-24T00:42:35Z</time>
      </trkpt>
      <trkpt lat="50.627827" lon="6.478860">
        <ele>261.135000</ele>
        <time>2008-10-24T00:42:48Z</time>
      </trkpt>
      <trkpt lat="50.627842" lon="6.478873">
        <ele>260.174000</ele>
        <time>2008-10-24T00:42:50Z</time>
      </trkpt>
      <trkpt lat="50.627847" lon="6.478913">
        <ele>260.174000</ele>
        <time>2008-10-24T00:42:52Z</time>
      </trkpt>
      <trkpt lat="50.627858" lon="6.479120">
        <ele>259.213000</ele>
        <time>2008-10-24T00:43:04Z</time>
      </trkpt>
      <trkpt lat="50.627921" lon="6.479284">
        <ele>258.251000</ele>
        <time>2008-10-24T00:43:16Z</time>
      </trkpt>
      <trkpt lat="50.628025" lon="6.479322">
        <ele>259.213000</ele>
        <time>2008-10-24T00:43:26Z</time>
      </trkpt>
      <trkpt lat="50.628085" lon="6.479383">
        <ele>258.732000</ele>
        <time>2008-10-24T00:43:32Z</time>
      </trkpt>
      <trkpt lat="50.628136" lon="6.479598">
        <ele>258.251000</ele>
        <time>2008-10-24T00:43:46Z</time>
      </trkpt>
      <trkpt lat="50.628127" lon="6.479598">
        <ele>259.213000</ele>
        <time>2008-10-24T00:43:47Z</time>
      </trkpt>
      <trkpt lat="50.628100" lon="6.479554">
        <ele>257.771000</ele>
        <time>2008-10-24T00:43:50Z</time>
      </trkpt>
      <trkpt lat="50.628107" lon="6.479538">
        <ele>259.213000</ele>
        <time>2008-10-24T00:43:52Z</time>
      </trkpt>
      <trkpt lat="50.628069" lon="6.479811">
        <ele>259.213000</ele>
        <time>2008-10-24T00:44:08Z</time>
      </trkpt>
      <trkpt lat="50.628064" lon="6.479994">
        <ele>259.213000</ele>
        <time>2008-10-24T00:44:19Z</time>
      </trkpt>
      <trkpt lat="50.628115" lon="6.480074">
        <ele>259.213000</ele>
        <time>2008-10-24T00:44:26Z</time>
      </trkpt>
      <trkpt lat="50.628192" lon="6.480295">
        <ele>259.213000</ele>
        <time>2008-10-24T00:44:41Z</time>
      </trkpt>
      <trkpt lat="50.628181" lon="6.480415">
        <ele>259.693000</ele>
        <time>2008-10-24T00:44:48Z</time>
      </trkpt>
      <trkpt lat="50.628144" lon="6.480592">
        <ele>259.213000</ele>
        <time>2008-10-24T00:44:59Z</time>
      </trkpt>
      <trkpt lat="50.628175" lon="6.480800">
        <ele>257.290000</ele>
        <time>2008-10-24T00:45:11Z</time>
      </trkpt>
      <trkpt lat="50.628096" lon="6.481096">
        <ele>256.329000</ele>
        <time>2008-10-24T00:45:30Z</time>
      </trkpt>
      <trkpt lat="50.628051" lon="6.481281">
        <ele>255.848000</ele>
        <time>2008-10-24T00:45:42Z</time>
      </trkpt>
      <trkpt lat="50.628230" lon="6.481127">
        <ele>257.771000</ele>
        <time>2008-10-24T00:46:01Z</time>
      </trkpt>
      <trkpt lat="50.628250" lon="6.481104">
        <ele>256.329000</ele>
        <time>2008-10-24T00:46:04Z</time>
      </trkpt>
      <trkpt lat="50.628267" lon="6.481060">
        <ele>254.887000</ele>
        <time>2008-10-24T00:46:07Z</time>
      </trkpt>
      <trkpt lat="50.628322" lon="6.480970">
        <ele>254.406000</ele>
        <time>2008-10-24T00:46:14Z</time>
      </trkpt>
      <trkpt lat="50.628378" lon="6.480875">
        <ele>253.925000</ele>
        <time>2008-10-24T00:46:22Z</time>
      </trkpt>
      <trkpt lat="50.628449" lon="6.480766">
        <ele>252.003000</ele>
        <time>2008-10-24T00:46:31Z</time>
      </trkpt>
      <trkpt lat="50.628555" lon="6.480622">
        <ele>250.080000</ele>
        <time>2008-10-24T00:46:44Z</time>
      </trkpt>
      <trkpt lat="50.628585" lon="6.480602">
        <ele>250.080000</ele>
        <time>2008-10-24T00:46:47Z</time>
      </trkpt>
      <trkpt lat="50.628654" lon="6.480563">
        <ele>249.119000</ele>
        <time>2008-10-24T00:46:54Z</time>
      </trkpt>
      <trkpt lat="50.628875" lon="6.480563">
        <ele>247.196000</ele>
        <time>2008-10-24T00:47:15Z</time>
      </trkpt>
      <trkpt lat="50.628908" lon="6.480561">
        <ele>245.273000</ele>
        <time>2008-10-24T00:47:18Z</time>
      </trkpt>
      <trkpt lat="50.629223" lon="6.480582">
        <ele>242.390000</ele>
        <time>2008-10-24T00:47:47Z</time>
      </trkpt>
      <trkpt lat="50.629464" lon="6.480652">
        <ele>242.870000</ele>
        <time>2008-10-24T00:48:10Z</time>
      </trkpt>
      <trkpt lat="50.629506" lon="6.480621">
        <ele>241.428000</ele>
        <time>2008-10-24T00:48:14Z</time>
      </trkpt>
      <trkpt lat="50.629484" lon="6.480626">
        <ele>240.948000</ele>
        <time>2008-10-24T00:48:16Z</time>
      </trkpt>
      <trkpt lat="50.629415" lon="6.480518">
        <ele>239.025000</ele>
        <time>2008-10-24T00:48:25Z</time>
      </trkpt>
      <trkpt lat="50.629004" lon="6.480321">
        <ele>237.583000</ele>
        <time>2008-10-24T00:49:06Z</time>
      </trkpt>
      <trkpt lat="50.628699" lon="6.480188">
        <ele>236.141000</ele>
        <time>2008-10-24T00:49:35Z</time>
      </trkpt>
      <trkpt lat="50.628594" lon="6.480176">
        <ele>234.218000</ele>
        <time>2008-10-24T00:49:45Z</time>
      </trkpt>
      <trkpt lat="50.628565" lon="6.480174">
        <ele>233.738000</ele>
        <time>2008-10-24T00:49:48Z</time>
      </trkpt>
      <trkpt lat="50.628677" lon="6.480217">
        <ele>232.776000</ele>
        <time>2008-10-24T00:49:58Z</time>
      </trkpt>
      <trkpt lat="50.629218" lon="6.480490">
        <ele>232.776000</ele>
        <time>2008-10-24T00:50:51Z</time>
      </trkpt>
      <trkpt lat="50.629335" lon="6.480580">
        <ele>231.334000</ele>
        <time>2008-10-24T00:51:04Z</time>
      </trkpt>
      <trkpt lat="50.629519" lon="6.480680">
        <ele>230.854000</ele>
        <time>2008-10-24T00:51:22Z</time>
      </trkpt>
      <trkpt lat="50.629674" lon="6.480590">
        <ele>229.892000</ele>
        <time>2008-10-24T00:51:37Z</time>
      </trkpt>
      <trkpt lat="50.629976" lon="6.480756">
        <ele>228.931000</ele>
        <time>2008-10-24T00:52:07Z</time>
      </trkpt>
      <trkpt lat="50.630055" lon="6.480773">
        <ele>228.931000</ele>
        <time>2008-10-24T00:52:14Z</time>
      </trkpt>
      <trkpt lat="50.630153" lon="6.480792">
        <ele>227.970000</ele>
        <time>2008-10-24T00:52:24Z</time>
      </trkpt>
      <trkpt lat="50.630160" lon="6.480799">
        <ele>228.931000</ele>
        <time>2008-10-24T00:52:24Z</time>
      </trkpt>
      <trkpt lat="50.630251" lon="6.480827">
        <ele>227.970000</ele>
        <time>2008-10-24T00:52:33Z</time>
      </trkpt>
      <trkpt lat="50.630524" lon="6.480987">
        <ele>227.970000</ele>
        <time>2008-10-24T00:53:00Z</time>
      </trkpt>
      <trkpt lat="50.630654" lon="6.480861">
        <ele>227.489000</ele>
        <time>2008-10-24T00:53:15Z</time>
      </trkpt>
      <trkpt lat="50.630860" lon="6.480931">
        <ele>227.970000</ele>
        <time>2008-10-24T00:53:34Z</time>
      </trkpt>
      <trkpt lat="50.631014" lon="6.480849">
        <ele>227.970000</ele>
        <time>2008-10-24T00:53:49Z</time>
      </trkpt>
      <trkpt lat="50.631353" lon="6.481051">
        <ele>228.450000</ele>
        <time>2008-10-24T00:54:23Z</time>
      </trkpt>
      <trkpt lat="50.631942" lon="6.480827">
        <ele>228.931000</ele>
        <time>2008-10-24T00:55:20Z</time>
      </trkpt>
      <trkpt lat="50.632139" lon="6.480626">
        <ele>228.450000</ele>
        <time>2008-10-24T00:55:42Z</time>
      </trkpt>
      <trkpt lat="50.632158" lon="6.480595">
        <ele>228.931000</ele>
        <time>2008-10-24T00:55:44Z</time>
      </trkpt>
      <trkpt lat="50.632462" lon="6.480491">
        <ele>227.970000</ele>
        <time>2008-10-24T00:56:13Z</time>
      </trkpt>
      <trkpt lat="50.632615" lon="6.480373">
        <ele>227.970000</ele>
        <time>2008-10-24T00:56:29Z</time>
      </trkpt>
      <trkpt lat="50.632710" lon="6.480129">
        <ele>227.489000</ele>
        <time>2008-10-24T00:56:46Z</time>
      </trkpt>
      <trkpt lat="50.632804" lon="6.480045">
        <ele>228.931000</ele>
        <time>2008-10-24T00:56:56Z</time>
      </trkpt>
      <trkpt lat="50.632890" lon="6.479831">
        <ele>227.489000</ele>
        <time>2008-10-24T00:57:11Z</time>
      </trkpt>
      <trkpt lat="50.632900" lon="6.479772">
        <ele>228.450000</ele>
        <time>2008-10-24T00:57:15Z</time>
      </trkpt>
      <trkpt lat="50.632927" lon="6.479508">
        <ele>227.970000</ele>
        <time>2008-10-24T00:57:31Z</time>
      </trkpt>
      <trkpt lat="50.632941" lon="6.479487">
        <ele>227.970000</ele>
        <time>2008-10-24T00:57:33Z</time>
      </trkpt>
      <trkpt lat="50.633007" lon="6.479325">
        <ele>227.489000</ele>
        <time>2008-10-24T00:57:44Z</time>
      </trkpt>
      <trkpt lat="50.633077" lon="6.479057">
        <ele>227.489000</ele>
        <time>2008-10-24T00:58:01Z</time>
      </trkpt>
      <trkpt lat="50.633101" lon="6.479025">
        <ele>227.009000</ele>
        <time>2008-10-24T00:58:04Z</time>
      </trkpt>
      <trkpt lat="50.633111" lon="6.478943">
        <ele>227.009000</ele>
        <time>2008-10-24T00:58:09Z</time>
      </trkpt>
      <trkpt lat="50.633151" lon="6.478823">
        <ele>227.009000</ele>
        <time>2008-10-24T00:58:17Z</time>
      </trkpt>
      <trkpt lat="50.633184" lon="6.478515">
        <ele>226.047000</ele>
        <time>2008-10-24T00:58:36Z</time>
      </trkpt>
      <trkpt lat="50.633236" lon="6.478258">
        <ele>225.567000</ele>
        <time>2008-10-24T00:58:52Z</time>
      </trkpt>
      <trkpt lat="50.633230" lon="6.478157">
        <ele>225.567000</ele>
        <time>2008-10-24T00:58:57Z</time>
      </trkpt>
      <trkpt lat="50.633274" lon="6.478030">
        <ele>225.567000</ele>
        <time>2008-10-24T00:59:06Z</time>
      </trkpt>
      <trkpt lat="50.633263" lon="6.477797">
        <ele>225.086000</ele>
        <time>2008-10-24T00:59:20Z</time>
      </trkpt>
      <trkpt lat="50.633308" lon="6.477596">
        <ele>225.086000</ele>
        <time>2008-10-24T00:59:33Z</time>
      </trkpt>
      <trkpt lat="50.633302" lon="6.477348">
        <ele>225.086000</ele>
        <time>2008-10-24T00:59:47Z</time>
      </trkpt>
      <trkpt lat="50.633316" lon="6.477341">
        <ele>225.086000</ele>
        <time>2008-10-24T00:59:49Z</time>
      </trkpt>
      <trkpt lat="50.633350" lon="6.477263">
        <ele>225.567000</ele>
        <time>2008-10-24T00:59:54Z</time>
      </trkpt>
      <trkpt lat="50.633434" lon="6.477059">
        <ele>226.047000</ele>
        <time>2008-10-24T01:00:09Z</time>
      </trkpt>
      <trkpt lat="50.633421" lon="6.476885">
        <ele>226.047000</ele>
        <time>2008-10-24T01:00:19Z</time>
      </trkpt>
      <trkpt lat="50.633382" lon="6.476858">
        <ele>223.644000</ele>
        <time>2008-10-24T01:00:23Z</time>
      </trkpt>
      <trkpt lat="50.633274" lon="6.476785">
        <ele>227.009000</ele>
        <time>2008-10-24T01:00:34Z</time>
      </trkpt>
      <trkpt lat="50.633324" lon="6.476828">
        <ele>227.009000</ele>
        <time>2008-10-24T01:00:39Z</time>
      </trkpt>
      <trkpt lat="50.633344" lon="6.476847">
        <ele>225.567000</ele>
        <time>2008-10-24T01:00:41Z</time>
      </trkpt>
      <trkpt lat="50.633419" lon="6.476870">
        <ele>224.605000</ele>
        <time>2008-10-24T01:00:49Z</time>
      </trkpt>
      <trkpt lat="50.633484" lon="6.476779">
        <ele>224.605000</ele>
        <time>2008-10-24T01:00:57Z</time>
      </trkpt>
      <trkpt lat="50.633545" lon="6.476621">
        <ele>224.605000</ele>
        <time>2008-10-24T01:01:08Z</time>
      </trkpt>
      <trkpt lat="50.633624" lon="6.476458">
        <ele>224.605000</ele>
        <time>2008-10-24T01:01:20Z</time>
      </trkpt>
      <trkpt lat="50.633657" lon="6.476243">
        <ele>224.125000</ele>
        <time>2008-10-24T01:01:33Z</time>
      </trkpt>
      <trkpt lat="50.633689" lon="6.476078">
        <ele>224.125000</ele>
        <time>2008-10-24T01:01:43Z</time>
      </trkpt>
      <trkpt lat="50.633697" lon="6.475933">
        <ele>224.605000</ele>
        <time>2008-10-24T01:01:52Z</time>
      </trkpt>
      <trkpt lat="50.633690" lon="6.475876">
        <ele>225.086000</ele>
        <time>2008-10-24T01:01:55Z</time>
      </trkpt>
      <trkpt lat="50.633708" lon="6.475757">
        <ele>224.605000</ele>
        <time>2008-10-24T01:02:02Z</time>
      </trkpt>
      <trkpt lat="50.633729" lon="6.475705">
        <ele>225.086000</ele>
        <time>2008-10-24T01:02:06Z</time>
      </trkpt>
      <trkpt lat="50.633765" lon="6.475614">
        <ele>224.605000</ele>
        <time>2008-10-24T01:02:12Z</time>
      </trkpt>
      <trkpt lat="50.633788" lon="6.475511">
        <ele>223.644000</ele>
        <time>2008-10-24T01:02:19Z</time>
      </trkpt>
      <trkpt lat="50.633789" lon="6.475484">
        <ele>224.125000</ele>
        <time>2008-10-24T01:02:20Z</time>
      </trkpt>
      <trkpt lat="50.633782" lon="6.475434">
        <ele>223.644000</ele>
        <time>2008-10-24T01:02:23Z</time>
      </trkpt>
      <trkpt lat="50.633855" lon="6.475244">
        <ele>223.163000</ele>
        <time>2008-10-24T01:02:37Z</time>
      </trkpt>
      <trkpt lat="50.633934" lon="6.474968">
        <ele>223.163000</ele>
        <time>2008-10-24T01:02:55Z</time>
      </trkpt>
      <trkpt lat="50.634050" lon="6.474732">
        <ele>223.163000</ele>
        <time>2008-10-24T01:03:12Z</time>
      </trkpt>
      <trkpt lat="50.634323" lon="6.474605">
        <ele>222.202000</ele>
        <time>2008-10-24T01:03:39Z</time>
      </trkpt>
      <trkpt lat="50.634467" lon="6.474470">
        <ele>221.241000</ele>
        <time>2008-10-24T01:03:54Z</time>
      </trkpt>
      <trkpt lat="50.634620" lon="6.474447">
        <ele>221.721000</ele>
        <time>2008-10-24T01:04:09Z</time>
      </trkpt>
      <trkpt lat="50.634653" lon="6.474412">
        <ele>222.202000</ele>
        <time>2008-10-24T01:04:13Z</time>
      </trkpt>
      <trkpt lat="50.634684" lon="6.474271">
        <ele>222.202000</ele>
        <time>2008-10-24T01:04:21Z</time>
      </trkpt>
      <trkpt lat="50.634722" lon="6.474151">
        <ele>220.760000</ele>
        <time>2008-10-24T01:04:29Z</time>
      </trkpt>
      <trkpt lat="50.634693" lon="6.473991">
        <ele>220.760000</ele>
        <time>2008-10-24T01:04:39Z</time>
      </trkpt>
      <trkpt lat="50.634553" lon="6.473889">
        <ele>219.799000</ele>
        <time>2008-10-24T01:04:54Z</time>
      </trkpt>
      <trkpt lat="50.634499" lon="6.473922">
        <ele>221.241000</ele>
        <time>2008-10-24T01:04:59Z</time>
      </trkpt>
      <trkpt lat="50.634390" lon="6.473964">
        <ele>220.279000</ele>
        <time>2008-10-24T01:05:09Z</time>
      </trkpt>
      <trkpt lat="50.634679" lon="6.474116">
        <ele>222.202000</ele>
        <time>2008-10-24T01:05:38Z</time>
      </trkpt>
      <trkpt lat="50.634760" lon="6.474252">
        <ele>222.202000</ele>
        <time>2008-10-24T01:05:49Z</time>
      </trkpt>
      <trkpt lat="50.634954" lon="6.474049">
        <ele>222.202000</ele>
        <time>2008-10-24T01:06:11Z</time>
      </trkpt>
      <trkpt lat="50.635026" lon="6.473993">
        <ele>222.202000</ele>
        <time>2008-10-24T01:06:18Z</time>
      </trkpt>
      <trkpt lat="50.635197" lon="6.473958">
        <ele>221.721000</ele>
        <time>2008-10-24T01:06:34Z</time>
      </trkpt>
      <trkpt lat="50.635319" lon="6.473525">
        <ele>223.644000</ele>
        <time>2008-10-24T01:07:02Z</time>
      </trkpt>
      <trkpt lat="50.635541" lon="6.473343">
        <ele>225.086000</ele>
        <time>2008-10-24T01:07:26Z</time>
      </trkpt>
      <trkpt lat="50.635708" lon="6.473452">
        <ele>223.644000</ele>
        <time>2008-10-24T01:07:43Z</time>
      </trkpt>
      <trkpt lat="50.635799" lon="6.473373">
        <ele>223.163000</ele>
        <time>2008-10-24T01:07:52Z</time>
      </trkpt>
      <trkpt lat="50.636353" lon="6.473229">
        <ele>222.682000</ele>
        <time>2008-10-24T01:08:45Z</time>
      </trkpt>
      <trkpt lat="50.636537" lon="6.473009">
        <ele>220.760000</ele>
        <time>2008-10-24T01:09:06Z</time>
      </trkpt>
      <trkpt lat="50.636819" lon="6.472759">
        <ele>221.241000</ele>
        <time>2008-10-24T01:09:36Z</time>
      </trkpt>
      <trkpt lat="50.636936" lon="6.472670">
        <ele>220.760000</ele>
        <time>2008-10-24T01:09:49Z</time>
      </trkpt>
      <trkpt lat="50.636947" lon="6.472666">
        <ele>220.279000</ele>
        <time>2008-10-24T01:09:50Z</time>
      </trkpt>
      <trkpt lat="50.637119" lon="6.472520">
        <ele>220.279000</ele>
        <time>2008-10-24T01:10:08Z</time>
      </trkpt>
      <trkpt lat="50.637235" lon="6.472440">
        <ele>221.241000</ele>
        <time>2008-10-24T01:10:20Z</time>
      </trkpt>
      <trkpt lat="50.637441" lon="6.472325">
        <ele>221.241000</ele>
        <time>2008-10-24T01:10:40Z</time>
      </trkpt>
      <trkpt lat="50.637457" lon="6.472310">
        <ele>220.760000</ele>
        <time>2008-10-24T01:10:42Z</time>
      </trkpt>
      <trkpt lat="50.637483" lon="6.472293">
        <ele>221.721000</ele>
        <time>2008-10-24T01:10:45Z</time>
      </trkpt>
      <trkpt lat="50.637634" lon="6.472223">
        <ele>220.760000</ele>
        <time>2008-10-24T01:10:59Z</time>
      </trkpt>
      <trkpt lat="50.637658" lon="6.472211">
        <ele>220.279000</ele>
        <time>2008-10-24T01:11:02Z</time>
      </trkpt>
      <trkpt lat="50.637709" lon="6.472173">
        <ele>220.279000</ele>
        <time>2008-10-24T01:11:07Z</time>
      </trkpt>
      <trkpt lat="50.637783" lon="6.472129">
        <ele>219.799000</ele>
        <time>2008-10-24T01:11:14Z</time>
      </trkpt>
      <trkpt lat="50.637861" lon="6.472084">
        <ele>220.279000</ele>
        <time>2008-10-24T01:11:22Z</time>
      </trkpt>
      <trkpt lat="50.638031" lon="6.472005">
        <ele>220.760000</ele>
        <time>2008-10-24T01:11:39Z</time>
      </trkpt>
      <trkpt lat="50.638125" lon="6.471954">
        <ele>220.279000</ele>
        <time>2008-10-24T01:11:48Z</time>
      </trkpt>
      <trkpt lat="50.638237" lon="6.471918">
        <ele>221.241000</ele>
        <time>2008-10-24T01:11:58Z</time>
      </trkpt>
      <trkpt lat="50.638346" lon="6.471881">
        <ele>223.163000</ele>
        <time>2008-10-24T01:12:09Z</time>
      </trkpt>
      <trkpt lat="50.638484" lon="6.471789">
        <ele>224.125000</ele>
        <time>2008-10-24T01:12:23Z</time>
      </trkpt>
      <trkpt lat="50.638499" lon="6.471786">
        <ele>223.163000</ele>
        <time>2008-10-24T01:12:24Z</time>
      </trkpt>
      <trkpt lat="50.638514" lon="6.471765">
        <ele>223.644000</ele>
        <time>2008-10-24T01:12:26Z</time>
      </trkpt>
      <trkpt lat="50.638711" lon="6.471575">
        <ele>224.605000</ele>
        <time>2008-10-24T01:12:48Z</time>
      </trkpt>
      <trkpt lat="50.638731" lon="6.471586">
        <ele>225.567000</ele>
        <time>2008-10-24T01:12:50Z</time>
      </trkpt>
      <trkpt lat="50.638982" lon="6.471395">
        <ele>227.009000</ele>
        <time>2008-10-24T01:13:16Z</time>
      </trkpt>
      <trkpt lat="50.639124" lon="6.471282">
        <ele>227.970000</ele>
        <time>2008-10-24T01:13:31Z</time>
      </trkpt>
      <trkpt lat="50.639168" lon="6.471227">
        <ele>227.489000</ele>
        <time>2008-10-24T01:13:36Z</time>
      </trkpt>
      <trkpt lat="50.639214" lon="6.471236">
        <ele>227.489000</ele>
        <time>2008-10-24T01:13:40Z</time>
      </trkpt>
      <trkpt lat="50.639242" lon="6.471207">
        <ele>227.970000</ele>
        <time>2008-10-24T01:13:43Z</time>
      </trkpt>
      <trkpt lat="50.639325" lon="6.471091">
        <ele>231.334000</ele>
        <time>2008-10-24T01:13:54Z</time>
      </trkpt>
      <trkpt lat="50.639411" lon="6.470909">
        <ele>233.738000</ele>
        <time>2008-10-24T01:14:07Z</time>
      </trkpt>
      <trkpt lat="50.639453" lon="6.470855">
        <ele>236.622000</ele>
        <time>2008-10-24T01:14:12Z</time>
      </trkpt>
      <trkpt lat="50.639522" lon="6.470903">
        <ele>236.141000</ele>
        <time>2008-10-24T01:14:19Z</time>
      </trkpt>
      <trkpt lat="50.639673" lon="6.470992">
        <ele>234.699000</ele>
        <time>2008-10-24T01:14:34Z</time>
      </trkpt>
      <trkpt lat="50.639856" lon="6.471112">
        <ele>234.218000</ele>
        <time>2008-10-24T01:14:53Z</time>
      </trkpt>
      <trkpt lat="50.639891" lon="6.471121">
        <ele>233.738000</ele>
        <time>2008-10-24T01:14:56Z</time>
      </trkpt>
      <trkpt lat="50.639927" lon="6.471115">
        <ele>234.218000</ele>
        <time>2008-10-24T01:14:59Z</time>
      </trkpt>
      <trkpt lat="50.640057" lon="6.471150">
        <ele>232.296000</ele>
        <time>2008-10-24T01:15:12Z</time>
      </trkpt>
      <trkpt lat="50.640265" lon="6.471165">
        <ele>231.815000</ele>
        <time>2008-10-24T01:15:31Z</time>
      </trkpt>
      <trkpt lat="50.640432" lon="6.471201">
        <ele>229.892000</ele>
        <time>2008-10-24T01:15:47Z</time>
      </trkpt>
      <trkpt lat="50.640633" lon="6.471240">
        <ele>228.931000</ele>
        <time>2008-10-24T01:16:06Z</time>
      </trkpt>
      <trkpt lat="50.640695" lon="6.471274">
        <ele>227.489000</ele>
        <time>2008-10-24T01:16:12Z</time>
      </trkpt>
      <trkpt lat="50.640867" lon="6.471439">
        <ele>227.009000</ele>
        <time>2008-10-24T01:16:31Z</time>
      </trkpt>
      <trkpt lat="50.641034" lon="6.471637">
        <ele>226.047000</ele>
        <time>2008-10-24T01:16:50Z</time>
      </trkpt>
      <trkpt lat="50.641075" lon="6.471663">
        <ele>225.567000</ele>
        <time>2008-10-24T01:16:54Z</time>
      </trkpt>
      <trkpt lat="50.641169" lon="6.471779">
        <ele>225.567000</ele>
        <time>2008-10-24T01:17:06Z</time>
      </trkpt>
      <trkpt lat="50.641174" lon="6.471790">
        <ele>225.567000</ele>
        <time>2008-10-24T01:17:06Z</time>
      </trkpt>
      <trkpt lat="50.641326" lon="6.471988">
        <ele>225.086000</ele>
        <time>2008-10-24T01:17:25Z</time>
      </trkpt>
      <trkpt lat="50.641335" lon="6.471999">
        <ele>224.125000</ele>
        <time>2008-10-24T01:17:26Z</time>
      </trkpt>
      <trkpt lat="50.641454" lon="6.472189">
        <ele>223.163000</ele>
        <time>2008-10-24T01:17:42Z</time>
      </trkpt>
      <trkpt lat="50.641484" lon="6.472214">
        <ele>223.644000</ele>
        <time>2008-10-24T01:17:45Z</time>
      </trkpt>
      <trkpt lat="50.641567" lon="6.472365">
        <ele>222.682000</ele>
        <time>2008-10-24T01:17:57Z</time>
      </trkpt>
      <trkpt lat="50.641594" lon="6.472414">
        <ele>222.202000</ele>
        <time>2008-10-24T01:18:00Z</time>
      </trkpt>
      <trkpt lat="50.641644" lon="6.472513">
        <ele>221.721000</ele>
        <time>2008-10-24T01:18:08Z</time>
      </trkpt>
      <trkpt lat="50.641777" lon="6.472769">
        <ele>220.279000</ele>
        <time>2008-10-24T01:18:28Z</time>
      </trkpt>
      <trkpt lat="50.641809" lon="6.472815">
        <ele>219.318000</ele>
        <time>2008-10-24T01:18:32Z</time>
      </trkpt>
      <trkpt lat="50.641807" lon="6.472884">
        <ele>220.279000</ele>
        <time>2008-10-24T01:18:36Z</time>
      </trkpt>
      <trkpt lat="50.641856" lon="6.473066">
        <ele>218.837000</ele>
        <time>2008-10-24T01:18:47Z</time>
      </trkpt>
      <trkpt lat="50.641957" lon="6.473279">
        <ele>217.876000</ele>
        <time>2008-10-24T01:19:03Z</time>
      </trkpt>
      <trkpt lat="50.641991" lon="6.473331">
        <ele>218.357000</ele>
        <time>2008-10-24T01:19:08Z</time>
      </trkpt>
      <trkpt lat="50.642020" lon="6.473591">
        <ele>216.915000</ele>
        <time>2008-10-24T01:19:23Z</time>
      </trkpt>
      <trkpt lat="50.642158" lon="6.473837">
        <ele>215.473000</ele>
        <time>2008-10-24T01:19:43Z</time>
      </trkpt>
      <trkpt lat="50.642209" lon="6.473953">
        <ele>215.473000</ele>
        <time>2008-10-24T01:19:51Z</time>
      </trkpt>
      <trkpt lat="50.642229" lon="6.474047">
        <ele>214.992000</ele>
        <time>2008-10-24T01:19:57Z</time>
      </trkpt>
      <trkpt lat="50.642273" lon="6.474333">
        <ele>214.511000</ele>
        <time>2008-10-24T01:20:14Z</time>
      </trkpt>
      <trkpt lat="50.642263" lon="6.474469">
        <ele>214.031000</ele>
        <time>2008-10-24T01:20:22Z</time>
      </trkpt>
      <trkpt lat="50.642329" lon="6.474662">
        <ele>213.550000</ele>
        <time>2008-10-24T01:20:35Z</time>
      </trkpt>
      <trkpt lat="50.642490" lon="6.474749">
        <ele>214.992000</ele>
        <time>2008-10-24T01:20:51Z</time>
      </trkpt>
      <trkpt lat="50.642654" lon="6.474762">
        <ele>214.992000</ele>
        <time>2008-10-24T01:21:07Z</time>
      </trkpt>
      <trkpt lat="50.642793" lon="6.474770">
        <ele>214.031000</ele>
        <time>2008-10-24T01:21:20Z</time>
      </trkpt>
      <trkpt lat="50.642881" lon="6.474801">
        <ele>214.992000</ele>
        <time>2008-10-24T01:21:28Z</time>
      </trkpt>
      <trkpt lat="50.643002" lon="6.474780">
        <ele>216.915000</ele>
        <time>2008-10-24T01:21:39Z</time>
      </trkpt>
      <trkpt lat="50.643022" lon="6.474769">
        <ele>217.395000</ele>
        <time>2008-10-24T01:21:41Z</time>
      </trkpt>
      <trkpt lat="50.643204" lon="6.474707">
        <ele>220.279000</ele>
        <time>2008-10-24T01:21:59Z</time>
      </trkpt>
      <trkpt lat="50.643300" lon="6.474696">
        <ele>223.163000</ele>
        <time>2008-10-24T01:22:08Z</time>
      </trkpt>
      <trkpt lat="50.643343" lon="6.474689">
        <ele>225.086000</ele>
        <time>2008-10-24T01:22:12Z</time>
      </trkpt>
      <trkpt lat="50.643406" lon="6.474610">
        <ele>227.009000</ele>
        <time>2008-10-24T01:22:19Z</time>
      </trkpt>
      <trkpt lat="50.643554" lon="6.474521">
        <ele>229.412000</ele>
        <time>2008-10-24T01:22:34Z</time>
      </trkpt>
      <trkpt lat="50.643636" lon="6.474412">
        <ele>231.815000</ele>
        <time>2008-10-24T01:22:44Z</time>
      </trkpt>
      <trkpt lat="50.643745" lon="6.474329">
        <ele>232.296000</ele>
        <time>2008-10-24T01:22:55Z</time>
      </trkpt>
      <trkpt lat="50.643855" lon="6.474225">
        <ele>233.257000</ele>
        <time>2008-10-24T01:23:07Z</time>
      </trkpt>
      <trkpt lat="50.643896" lon="6.474139">
        <ele>233.738000</ele>
        <time>2008-10-24T01:23:14Z</time>
      </trkpt>
      <trkpt lat="50.644034" lon="6.474040">
        <ele>236.141000</ele>
        <time>2008-10-24T01:23:28Z</time>
      </trkpt>
      <trkpt lat="50.644045" lon="6.474009">
        <ele>236.141000</ele>
        <time>2008-10-24T01:23:30Z</time>
      </trkpt>
      <trkpt lat="50.644033" lon="6.473887">
        <ele>236.622000</ele>
        <time>2008-10-24T01:23:37Z</time>
      </trkpt>
      <trkpt lat="50.644026" lon="6.473686">
        <ele>237.102000</ele>
        <time>2008-10-24T01:23:49Z</time>
      </trkpt>
      <trkpt lat="50.644018" lon="6.473597">
        <ele>238.064000</ele>
        <time>2008-10-24T01:23:55Z</time>
      </trkpt>
      <trkpt lat="50.644034" lon="6.473555">
        <ele>238.544000</ele>
        <time>2008-10-24T01:23:57Z</time>
      </trkpt>
      <trkpt lat="50.644035" lon="6.473444">
        <ele>239.505000</ele>
        <time>2008-10-24T01:24:04Z</time>
      </trkpt>
      <trkpt lat="50.644135" lon="6.473282">
        <ele>242.870000</ele>
        <time>2008-10-24T01:24:17Z</time>
      </trkpt>
      <trkpt lat="50.644236" lon="6.473093">
        <ele>244.312000</ele>
        <time>2008-10-24T01:24:32Z</time>
      </trkpt>
      <trkpt lat="50.644332" lon="6.472948">
        <ele>247.196000</ele>
        <time>2008-10-24T01:24:44Z</time>
      </trkpt>
      <trkpt lat="50.644396" lon="6.472797">
        <ele>249.119000</ele>
        <time>2008-10-24T01:24:55Z</time>
      </trkpt>
      <trkpt lat="50.644401" lon="6.472754">
        <ele>249.119000</ele>
        <time>2008-10-24T01:24:58Z</time>
      </trkpt>
      <trkpt lat="50.644474" lon="6.472452">
        <ele>251.041000</ele>
        <time>2008-10-24T01:25:17Z</time>
      </trkpt>
      <trkpt lat="50.644525" lon="6.472290">
        <ele>252.964000</ele>
        <time>2008-10-24T01:25:28Z</time>
      </trkpt>
      <trkpt lat="50.644598" lon="6.472174">
        <ele>253.445000</ele>
        <time>2008-10-24T01:25:37Z</time>
      </trkpt>
      <trkpt lat="50.644619" lon="6.472136">
        <ele>253.925000</ele>
        <time>2008-10-24T01:25:40Z</time>
      </trkpt>
      <trkpt lat="50.644668" lon="6.471918">
        <ele>255.367000</ele>
        <time>2008-10-24T01:25:54Z</time>
      </trkpt>
      <trkpt lat="50.644685" lon="6.471861">
        <ele>256.809000</ele>
        <time>2008-10-24T01:25:58Z</time>
      </trkpt>
      <trkpt lat="50.644684" lon="6.471815">
        <ele>257.771000</ele>
        <time>2008-10-24T01:26:00Z</time>
      </trkpt>
      <trkpt lat="50.644659" lon="6.471762">
        <ele>258.251000</ele>
        <time>2008-10-24T01:26:04Z</time>
      </trkpt>
      <trkpt lat="50.644743" lon="6.471616">
        <ele>259.213000</ele>
        <time>2008-10-24T01:26:16Z</time>
      </trkpt>
      <trkpt lat="50.644813" lon="6.471453">
        <ele>263.058000</ele>
        <time>2008-10-24T01:26:28Z</time>
      </trkpt>
      <trkpt lat="50.644832" lon="6.471361">
        <ele>264.019000</ele>
        <time>2008-10-24T01:26:33Z</time>
      </trkpt>
      <trkpt lat="50.644860" lon="6.471193">
        <ele>266.422000</ele>
        <time>2008-10-24T01:26:44Z</time>
      </trkpt>
      <trkpt lat="50.644928" lon="6.470856">
        <ele>267.865000</ele>
        <time>2008-10-24T01:27:05Z</time>
      </trkpt>
      <trkpt lat="50.644947" lon="6.470689">
        <ele>268.345000</ele>
        <time>2008-10-24T01:27:15Z</time>
      </trkpt>
      <trkpt lat="50.644939" lon="6.470669">
        <ele>270.268000</ele>
        <time>2008-10-24T01:27:16Z</time>
      </trkpt>
      <trkpt lat="50.644945" lon="6.470108">
        <ele>272.190000</ele>
        <time>2008-10-24T01:27:49Z</time>
      </trkpt>
      <trkpt lat="50.644894" lon="6.469914">
        <ele>274.594000</ele>
        <time>2008-10-24T01:28:02Z</time>
      </trkpt>
      <trkpt lat="50.644895" lon="6.469561">
        <ele>276.036000</ele>
        <time>2008-10-24T01:28:23Z</time>
      </trkpt>
      <trkpt lat="50.644874" lon="6.469516">
        <ele>276.036000</ele>
        <time>2008-10-24T01:28:26Z</time>
      </trkpt>
      <trkpt lat="50.644828" lon="6.469455">
        <ele>275.555000</ele>
        <time>2008-10-24T01:28:32Z</time>
      </trkpt>
      <trkpt lat="50.644893" lon="6.469409">
        <ele>276.516000</ele>
        <time>2008-10-24T01:28:38Z</time>
      </trkpt>
      <trkpt lat="50.644927" lon="6.469485">
        <ele>277.958000</ele>
        <time>2008-10-24T01:28:44Z</time>
      </trkpt>
      <trkpt lat="50.645078" lon="6.469607">
        <ele>278.920000</ele>
        <time>2008-10-24T01:29:00Z</time>
      </trkpt>
      <trkpt lat="50.645283" lon="6.469844">
        <ele>281.804000</ele>
        <time>2008-10-24T01:29:23Z</time>
      </trkpt>
      <trkpt lat="50.645315" lon="6.469877">
        <ele>281.323000</ele>
        <time>2008-10-24T01:29:27Z</time>
      </trkpt>
      <trkpt lat="50.645405" lon="6.470065">
        <ele>282.765000</ele>
        <time>2008-10-24T01:29:41Z</time>
      </trkpt>
      <trkpt lat="50.645495" lon="6.470361">
        <ele>283.726000</ele>
        <time>2008-10-24T01:30:00Z</time>
      </trkpt>
      <trkpt lat="50.645532" lon="6.470490">
        <ele>284.688000</ele>
        <time>2008-10-24T01:30:09Z</time>
      </trkpt>
      <trkpt lat="50.645593" lon="6.470692">
        <ele>287.571000</ele>
        <time>2008-10-24T01:30:22Z</time>
      </trkpt>
      <trkpt lat="50.645654" lon="6.470844">
        <ele>288.533000</ele>
        <time>2008-10-24T01:30:32Z</time>
      </trkpt>
      <trkpt lat="50.645698" lon="6.471017">
        <ele>289.014000</ele>
        <time>2008-10-24T01:30:44Z</time>
      </trkpt>
      <trkpt lat="50.645752" lon="6.471116">
        <ele>289.975000</ele>
        <time>2008-10-24T01:30:51Z</time>
      </trkpt>
      <trkpt lat="50.645770" lon="6.471261">
        <ele>290.456000</ele>
        <time>2008-10-24T01:31:00Z</time>
      </trkpt>
      <trkpt lat="50.645813" lon="6.471460">
        <ele>289.975000</ele>
        <time>2008-10-24T01:31:12Z</time>
      </trkpt>
      <trkpt lat="50.645810" lon="6.471620">
        <ele>289.494000</ele>
        <time>2008-10-24T01:31:22Z</time>
      </trkpt>
      <trkpt lat="50.645873" lon="6.471777">
        <ele>289.494000</ele>
        <time>2008-10-24T01:31:33Z</time>
      </trkpt>
      <trkpt lat="50.645907" lon="6.471857">
        <ele>289.014000</ele>
        <time>2008-10-24T01:31:39Z</time>
      </trkpt>
      <trkpt lat="50.646047" lon="6.472022">
        <ele>288.533000</ele>
        <time>2008-10-24T01:31:55Z</time>
      </trkpt>
      <trkpt lat="50.646111" lon="6.472274">
        <ele>288.052000</ele>
        <time>2008-10-24T01:32:11Z</time>
      </trkpt>
      <trkpt lat="50.646188" lon="6.472378">
        <ele>287.571000</ele>
        <time>2008-10-24T01:32:21Z</time>
      </trkpt>
      <trkpt lat="50.646416" lon="6.472366">
        <ele>287.091000</ele>
        <time>2008-10-24T01:32:42Z</time>
      </trkpt>
      <trkpt lat="50.646424" lon="6.472371">
        <ele>286.610000</ele>
        <time>2008-10-24T01:32:43Z</time>
      </trkpt>
      <trkpt lat="50.646571" lon="6.472341">
        <ele>285.649000</ele>
        <time>2008-10-24T01:32:56Z</time>
      </trkpt>
      <trkpt lat="50.646655" lon="6.472296">
        <ele>285.649000</ele>
        <time>2008-10-24T01:33:05Z</time>
      </trkpt>
      <trkpt lat="50.646767" lon="6.472286">
        <ele>285.168000</ele>
        <time>2008-10-24T01:33:15Z</time>
      </trkpt>
      <trkpt lat="50.646909" lon="6.472347">
        <ele>285.649000</ele>
        <time>2008-10-24T01:33:29Z</time>
      </trkpt>
      <trkpt lat="50.647025" lon="6.472315">
        <ele>284.207000</ele>
        <time>2008-10-24T01:33:40Z</time>
      </trkpt>
      <trkpt lat="50.647004" lon="6.472336">
        <ele>286.130000</ele>
        <time>2008-10-24T01:33:42Z</time>
      </trkpt>
      <trkpt lat="50.647051" lon="6.472353">
        <ele>285.649000</ele>
        <time>2008-10-24T01:33:47Z</time>
      </trkpt>
      <trkpt lat="50.647141" lon="6.472508">
        <ele>284.207000</ele>
        <time>2008-10-24T01:33:59Z</time>
      </trkpt>
      <trkpt lat="50.647156" lon="6.472537">
        <ele>283.246000</ele>
        <time>2008-10-24T01:34:01Z</time>
      </trkpt>
      <trkpt lat="50.647344" lon="6.472695">
        <ele>281.323000</ele>
        <time>2008-10-24T01:34:21Z</time>
      </trkpt>
      <trkpt lat="50.647552" lon="6.472784">
        <ele>279.400000</ele>
        <time>2008-10-24T01:34:41Z</time>
      </trkpt>
      <trkpt lat="50.647693" lon="6.472884">
        <ele>275.555000</ele>
        <time>2008-10-24T01:34:56Z</time>
      </trkpt>
      <trkpt lat="50.647874" lon="6.472932">
        <ele>273.632000</ele>
        <time>2008-10-24T01:35:13Z</time>
      </trkpt>
      <trkpt lat="50.648039" lon="6.473052">
        <ele>271.229000</ele>
        <time>2008-10-24T01:35:30Z</time>
      </trkpt>
      <trkpt lat="50.648096" lon="6.473078">
        <ele>270.268000</ele>
        <time>2008-10-24T01:35:36Z</time>
      </trkpt>
      <trkpt lat="50.648169" lon="6.472939">
        <ele>269.787000</ele>
        <time>2008-10-24T01:35:46Z</time>
      </trkpt>
      <trkpt lat="50.648209" lon="6.472956">
        <ele>267.384000</ele>
        <time>2008-10-24T01:35:50Z</time>
      </trkpt>
      <trkpt lat="50.648312" lon="6.473001">
        <ele>265.942000</ele>
        <time>2008-10-24T01:36:00Z</time>
      </trkpt>
      <trkpt lat="50.648388" lon="6.473088">
        <ele>264.019000</ele>
        <time>2008-10-24T01:36:09Z</time>
      </trkpt>
      <trkpt lat="50.648594" lon="6.473127">
        <ele>263.058000</ele>
        <time>2008-10-24T01:36:28Z</time>
      </trkpt>
      <trkpt lat="50.648715" lon="6.473180">
        <ele>260.655000</ele>
        <time>2008-10-24T01:36:40Z</time>
      </trkpt>
      <trkpt lat="50.648860" lon="6.473185">
        <ele>258.732000</ele>
        <time>2008-10-24T01:36:53Z</time>
      </trkpt>
      <trkpt lat="50.648931" lon="6.473223">
        <ele>257.771000</ele>
        <time>2008-10-24T01:37:00Z</time>
      </trkpt>
      <trkpt lat="50.649092" lon="6.473304">
        <ele>255.848000</ele>
        <time>2008-10-24T01:37:16Z</time>
      </trkpt>
      <trkpt lat="50.649296" lon="6.473346">
        <ele>252.964000</ele>
        <time>2008-10-24T01:37:35Z</time>
      </trkpt>
      <trkpt lat="50.649398" lon="6.473392">
        <ele>251.041000</ele>
        <time>2008-10-24T01:37:45Z</time>
      </trkpt>
      <trkpt lat="50.649583" lon="6.473572">
        <ele>249.119000</ele>
        <time>2008-10-24T01:38:06Z</time>
      </trkpt>
      <trkpt lat="50.649766" lon="6.473720">
        <ele>246.235000</ele>
        <time>2008-10-24T01:38:25Z</time>
      </trkpt>
      <trkpt lat="50.649965" lon="6.473771">
        <ele>243.351000</ele>
        <time>2008-10-24T01:38:44Z</time>
      </trkpt>
      <trkpt lat="50.650185" lon="6.473861">
        <ele>242.870000</ele>
        <time>2008-10-24T01:39:05Z</time>
      </trkpt>
      <trkpt lat="50.650330" lon="6.473863">
        <ele>242.870000</ele>
        <time>2008-10-24T01:39:18Z</time>
      </trkpt>
      <trkpt lat="50.650463" lon="6.473987">
        <ele>242.390000</ele>
        <time>2008-10-24T01:39:33Z</time>
      </trkpt>
      <trkpt lat="50.650498" lon="6.474043">
        <ele>241.909000</ele>
        <time>2008-10-24T01:39:38Z</time>
      </trkpt>
      <trkpt lat="50.650594" lon="6.474132">
        <ele>241.428000</ele>
        <time>2008-10-24T01:39:48Z</time>
      </trkpt>
      <trkpt lat="50.650618" lon="6.474153">
        <ele>240.948000</ele>
        <time>2008-10-24T01:39:51Z</time>
      </trkpt>
      <trkpt lat="50.650727" lon="6.474172">
        <ele>240.467000</ele>
        <time>2008-10-24T01:40:01Z</time>
      </trkpt>
      <trkpt lat="50.650903" lon="6.474219">
        <ele>239.505000</ele>
        <time>2008-10-24T01:40:17Z</time>
      </trkpt>
      <trkpt lat="50.651072" lon="6.474210">
        <ele>239.505000</ele>
        <time>2008-10-24T01:40:33Z</time>
      </trkpt>
      <trkpt lat="50.651128" lon="6.474253">
        <ele>239.025000</ele>
        <time>2008-10-24T01:40:39Z</time>
      </trkpt>
      <trkpt lat="50.651149" lon="6.474271">
        <ele>238.544000</ele>
        <time>2008-10-24T01:40:41Z</time>
      </trkpt>
      <trkpt lat="50.651305" lon="6.474427">
        <ele>235.660000</ele>
        <time>2008-10-24T01:40:59Z</time>
      </trkpt>
      <trkpt lat="50.651392" lon="6.474456">
        <ele>234.218000</ele>
        <time>2008-10-24T01:41:07Z</time>
      </trkpt>
      <trkpt lat="50.651466" lon="6.474543">
        <ele>231.815000</ele>
        <time>2008-10-24T01:41:15Z</time>
      </trkpt>
      <trkpt lat="50.651554" lon="6.474580">
        <ele>231.815000</ele>
        <time>2008-10-24T01:41:24Z</time>
      </trkpt>
      <trkpt lat="50.651626" lon="6.474616">
        <ele>231.334000</ele>
        <time>2008-10-24T01:41:31Z</time>
      </trkpt>
      <trkpt lat="50.651739" lon="6.474811">
        <ele>229.412000</ele>
        <time>2008-10-24T01:41:47Z</time>
      </trkpt>
      <trkpt lat="50.651892" lon="6.474989">
        <ele>226.528000</ele>
        <time>2008-10-24T01:42:04Z</time>
      </trkpt>
      <trkpt lat="50.651963" lon="6.475150">
        <ele>224.605000</ele>
        <time>2008-10-24T01:42:16Z</time>
      </trkpt>
      <trkpt lat="50.652069" lon="6.475400">
        <ele>221.241000</ele>
        <time>2008-10-24T01:42:34Z</time>
      </trkpt>
      <trkpt lat="50.652091" lon="6.475744">
        <ele>219.318000</ele>
        <time>2008-10-24T01:42:54Z</time>
      </trkpt>
      <trkpt lat="50.652132" lon="6.475919">
        <ele>217.395000</ele>
        <time>2008-10-24T01:43:05Z</time>
      </trkpt>
      <trkpt lat="50.652238" lon="6.476042">
        <ele>214.031000</ele>
        <time>2008-10-24T01:43:18Z</time>
      </trkpt>
      <trkpt lat="50.652258" lon="6.476098">
        <ele>213.069000</ele>
        <time>2008-10-24T01:43:21Z</time>
      </trkpt>
      <trkpt lat="50.652215" lon="6.476217">
        <ele>212.589000</ele>
        <time>2008-10-24T01:43:29Z</time>
      </trkpt>
      <trkpt lat="50.652166" lon="6.476474">
        <ele>209.705000</ele>
        <time>2008-10-24T01:43:45Z</time>
      </trkpt>
      <trkpt lat="50.652338" lon="6.476873">
        <ele>210.185000</ele>
        <time>2008-10-24T01:44:14Z</time>
      </trkpt>
      <trkpt lat="50.652545" lon="6.477093">
        <ele>210.666000</ele>
        <time>2008-10-24T01:44:37Z</time>
      </trkpt>
      <trkpt lat="50.652533" lon="6.477282">
        <ele>210.185000</ele>
        <time>2008-10-24T01:44:48Z</time>
      </trkpt>
      <trkpt lat="50.652696" lon="6.477388">
        <ele>210.185000</ele>
        <time>2008-10-24T01:45:05Z</time>
      </trkpt>
      <trkpt lat="50.652677" lon="6.477929">
        <ele>209.705000</ele>
        <time>2008-10-24T01:45:37Z</time>
      </trkpt>
      <trkpt lat="50.652640" lon="6.478082">
        <ele>208.743000</ele>
        <time>2008-10-24T01:45:47Z</time>
      </trkpt>
      <trkpt lat="50.652620" lon="6.478443">
        <ele>209.705000</ele>
        <time>2008-10-24T01:46:08Z</time>
      </trkpt>
      <trkpt lat="50.652587" lon="6.478647">
        <ele>210.185000</ele>
        <time>2008-10-24T01:46:21Z</time>
      </trkpt>
      <trkpt lat="50.652551" lon="6.478876">
        <ele>209.705000</ele>
        <time>2008-10-24T01:46:35Z</time>
      </trkpt>
      <trkpt lat="50.652610" lon="6.479188">
        <ele>209.705000</ele>
        <time>2008-10-24T01:46:54Z</time>
      </trkpt>
      <trkpt lat="50.652611" lon="6.479423">
        <ele>209.224000</ele>
        <time>2008-10-24T01:47:08Z</time>
      </trkpt>
      <trkpt lat="50.652586" lon="6.479628">
        <ele>208.263000</ele>
        <time>2008-10-24T01:47:20Z</time>
      </trkpt>
      <trkpt lat="50.652661" lon="6.479712">
        <ele>208.743000</ele>
        <time>2008-10-24T01:47:29Z</time>
      </trkpt>
      <trkpt lat="50.652696" lon="6.479973">
        <ele>208.743000</ele>
        <time>2008-10-24T01:47:45Z</time>
      </trkpt>
      <trkpt lat="50.652697" lon="6.480068">
        <ele>208.263000</ele>
        <time>2008-10-24T01:47:50Z</time>
      </trkpt>
      <trkpt lat="50.652690" lon="6.480246">
        <ele>208.743000</ele>
        <time>2008-10-24T01:48:01Z</time>
      </trkpt>
      <trkpt lat="50.652702" lon="6.480338">
        <ele>208.743000</ele>
        <time>2008-10-24T01:48:06Z</time>
      </trkpt>
      <trkpt lat="50.652687" lon="6.480442">
        <ele>208.743000</ele>
        <time>2008-10-24T01:48:13Z</time>
      </trkpt>
      <trkpt lat="50.652682" lon="6.480608">
        <ele>208.263000</ele>
        <time>2008-10-24T01:48:22Z</time>
      </trkpt>
      <trkpt lat="50.652670" lon="6.480965">
        <ele>206.821000</ele>
        <time>2008-10-24T01:48:44Z</time>
      </trkpt>
      <trkpt lat="50.652670" lon="6.481269">
        <ele>207.782000</ele>
        <time>2008-10-24T01:49:02Z</time>
      </trkpt>
      <trkpt lat="50.652666" lon="6.481573">
        <ele>207.301000</ele>
        <time>2008-10-24T01:49:20Z</time>
      </trkpt>
      <trkpt lat="50.652651" lon="6.481826">
        <ele>206.340000</ele>
        <time>2008-10-24T01:49:35Z</time>
      </trkpt>
      <trkpt lat="50.652668" lon="6.482172">
        <ele>206.821000</ele>
        <time>2008-10-24T01:49:55Z</time>
      </trkpt>
      <trkpt lat="50.652721" lon="6.482260">
        <ele>207.301000</ele>
        <time>2008-10-24T01:50:02Z</time>
      </trkpt>
      <trkpt lat="50.652750" lon="6.482472">
        <ele>205.379000</ele>
        <time>2008-10-24T01:50:15Z</time>
      </trkpt>
      <trkpt lat="50.652748" lon="6.482499">
        <ele>205.379000</ele>
        <time>2008-10-24T01:50:17Z</time>
      </trkpt>
      <trkpt lat="50.652789" lon="6.482866">
        <ele>206.821000</ele>
        <time>2008-10-24T01:50:39Z</time>
      </trkpt>
      <trkpt lat="50.652799" lon="6.482919">
        <ele>207.301000</ele>
        <time>2008-10-24T01:50:42Z</time>
      </trkpt>
      <trkpt lat="50.652853" lon="6.483164">
        <ele>206.340000</ele>
        <time>2008-10-24T01:50:57Z</time>
      </trkpt>
      <trkpt lat="50.652878" lon="6.483227">
        <ele>205.859000</ele>
        <time>2008-10-24T01:51:02Z</time>
      </trkpt>
      <trkpt lat="50.652877" lon="6.483452">
        <ele>205.859000</ele>
        <time>2008-10-24T01:51:15Z</time>
      </trkpt>
      <trkpt lat="50.652895" lon="6.483703">
        <ele>206.340000</ele>
        <time>2008-10-24T01:51:30Z</time>
      </trkpt>
      <trkpt lat="50.652904" lon="6.483812">
        <ele>206.340000</ele>
        <time>2008-10-24T01:51:37Z</time>
      </trkpt>
      <trkpt lat="50.652894" lon="6.484059">
        <ele>205.859000</ele>
        <time>2008-10-24T01:51:51Z</time>
      </trkpt>
      <trkpt lat="50.652905" lon="6.484130">
        <ele>205.859000</ele>
        <time>2008-10-24T01:51:56Z</time>
      </trkpt>
      <trkpt lat="50.652962" lon="6.484473">
        <ele>206.821000</ele>
        <time>2008-10-24T01:52:17Z</time>
      </trkpt>
      <trkpt lat="50.652962" lon="6.484502">
        <ele>206.821000</ele>
        <time>2008-10-24T01:52:18Z</time>
      </trkpt>
      <trkpt lat="50.652919" lon="6.484839">
        <ele>205.859000</ele>
        <time>2008-10-24T01:52:39Z</time>
      </trkpt>
      <trkpt lat="50.652910" lon="6.485075">
        <ele>204.898000</ele>
        <time>2008-10-24T01:52:53Z</time>
      </trkpt>
      <trkpt lat="50.652893" lon="6.485202">
        <ele>204.417000</ele>
        <time>2008-10-24T01:53:00Z</time>
      </trkpt>
      <trkpt lat="50.652914" lon="6.485476">
        <ele>204.417000</ele>
        <time>2008-10-24T01:53:17Z</time>
      </trkpt>
      <trkpt lat="50.652932" lon="6.485556">
        <ele>204.417000</ele>
        <time>2008-10-24T01:53:22Z</time>
      </trkpt>
      <trkpt lat="50.653018" lon="6.485786">
        <ele>205.379000</ele>
        <time>2008-10-24T01:53:38Z</time>
      </trkpt>
      <trkpt lat="50.653047" lon="6.486083">
        <ele>205.379000</ele>
        <time>2008-10-24T01:53:55Z</time>
      </trkpt>
      <trkpt lat="50.653099" lon="6.486325">
        <ele>204.417000</ele>
        <time>2008-10-24T01:54:10Z</time>
      </trkpt>
      <trkpt lat="50.653107" lon="6.486345">
        <ele>204.898000</ele>
        <time>2008-10-24T01:54:12Z</time>
      </trkpt>
      <trkpt lat="50.653208" lon="6.486538">
        <ele>204.417000</ele>
        <time>2008-10-24T01:54:27Z</time>
      </trkpt>
      <trkpt lat="50.653222" lon="6.486583">
        <ele>204.898000</ele>
        <time>2008-10-24T01:54:30Z</time>
      </trkpt>
      <trkpt lat="50.653310" lon="6.486887">
        <ele>203.456000</ele>
        <time>2008-10-24T01:54:49Z</time>
      </trkpt>
      <trkpt lat="50.653367" lon="6.487323">
        <ele>203.456000</ele>
        <time>2008-10-24T01:55:16Z</time>
      </trkpt>
      <trkpt lat="50.653360" lon="6.487377">
        <ele>203.937000</ele>
        <time>2008-10-24T01:55:19Z</time>
      </trkpt>
      <trkpt lat="50.653441" lon="6.487600">
        <ele>204.417000</ele>
        <time>2008-10-24T01:55:34Z</time>
      </trkpt>
      <trkpt lat="50.653506" lon="6.487710">
        <ele>204.898000</ele>
        <time>2008-10-24T01:55:43Z</time>
      </trkpt>
      <trkpt lat="50.653553" lon="6.487788">
        <ele>204.417000</ele>
        <time>2008-10-24T01:55:49Z</time>
      </trkpt>
      <trkpt lat="50.653616" lon="6.487961">
        <ele>205.379000</ele>
        <time>2008-10-24T01:56:01Z</time>
      </trkpt>
      <trkpt lat="50.653708" lon="6.488252">
        <ele>205.379000</ele>
        <time>2008-10-24T01:56:21Z</time>
      </trkpt>
      <trkpt lat="50.653767" lon="6.488409">
        <ele>205.379000</ele>
        <time>2008-10-24T01:56:31Z</time>
      </trkpt>
      <trkpt lat="50.653868" lon="6.488632">
        <ele>204.417000</ele>
        <time>2008-10-24T01:56:48Z</time>
      </trkpt>
      <trkpt lat="50.653880" lon="6.488685">
        <ele>204.898000</ele>
        <time>2008-10-24T01:56:51Z</time>
      </trkpt>
      <trkpt lat="50.654017" lon="6.488945">
        <ele>204.898000</ele>
        <time>2008-10-24T01:57:11Z</time>
      </trkpt>
      <trkpt lat="50.654066" lon="6.489188">
        <ele>204.898000</ele>
        <time>2008-10-24T01:57:26Z</time>
      </trkpt>
      <trkpt lat="50.654179" lon="6.489450">
        <ele>204.898000</ele>
        <time>2008-10-24T01:57:45Z</time>
      </trkpt>
      <trkpt lat="50.654220" lon="6.489548">
        <ele>203.937000</ele>
        <time>2008-10-24T01:57:52Z</time>
      </trkpt>
      <trkpt lat="50.654231" lon="6.489636">
        <ele>204.898000</ele>
        <time>2008-10-24T01:57:57Z</time>
      </trkpt>
      <trkpt lat="50.654303" lon="6.489933">
        <ele>204.417000</ele>
        <time>2008-10-24T01:58:16Z</time>
      </trkpt>
      <trkpt lat="50.654312" lon="6.490093">
        <ele>204.417000</ele>
        <time>2008-10-24T01:58:25Z</time>
      </trkpt>
      <trkpt lat="50.654313" lon="6.490181">
        <ele>203.937000</ele>
        <time>2008-10-24T01:58:31Z</time>
      </trkpt>
      <trkpt lat="50.654364" lon="6.490440">
        <ele>205.859000</ele>
        <time>2008-10-24T01:58:47Z</time>
      </trkpt>
      <trkpt lat="50.654388" lon="6.490651">
        <ele>204.898000</ele>
        <time>2008-10-24T01:58:59Z</time>
      </trkpt>
      <trkpt lat="50.654407" lon="6.490902">
        <ele>204.417000</ele>
        <time>2008-10-24T01:59:14Z</time>
      </trkpt>
      <trkpt lat="50.654318" lon="6.491164">
        <ele>203.456000</ele>
        <time>2008-10-24T01:59:32Z</time>
      </trkpt>
      <trkpt lat="50.654269" lon="6.491345">
        <ele>203.937000</ele>
        <time>2008-10-24T01:59:44Z</time>
      </trkpt>
      <trkpt lat="50.654214" lon="6.491607">
        <ele>202.495000</ele>
        <time>2008-10-24T02:00:00Z</time>
      </trkpt>
      <trkpt lat="50.654142" lon="6.491928">
        <ele>202.014000</ele>
        <time>2008-10-24T02:00:20Z</time>
      </trkpt>
      <trkpt lat="50.654182" lon="6.491979">
        <ele>203.456000</ele>
        <time>2008-10-24T02:00:25Z</time>
      </trkpt>
      <trkpt lat="50.654181" lon="6.491975">
        <ele>203.456000</ele>
        <time>2008-10-24T02:00:25Z</time>
      </trkpt>
    </trkseg>
  </trk>

</gpx>
